<?xml version="1.0" encoding="UTF-8" standalone="no" ?>
<gpx xmlns="http://www.topografix.com/GPX/1/1" xmlns:xsi="http://www.w3.org/2001/XMLSchema-instance" xsi:schemaLocation="http://www.topografix.com/GPX/1/1 http://www.topografix.com/GPX/1/1/gpx.xsd" version="1.1" creator="VisuGPX - https://www.visugpx.com">
  <metadata>
    <name>L'Omi Agut</name>
    <desc><![CDATA[Très belle sortie. Beau temps, belle neige, pas un chat sauf un surfer et son chien. Étaient de la partie JG Neveux, Eric et Sabine Gaucher. ]]></desc>
  </metadata>
  <trk>
    <name><![CDATA[L'Omi Agut_1]]></name>
    <trkseg>
      <trkpt lat="42.95096" lon="-0.19468">
        <ele>1118</ele>
        <time>2013-12-07T08:52:07Z</time>
      </trkpt>
      <trkpt lat="42.95103" lon="-0.19464">
        <ele>1118</ele>
        <time>2013-12-07T08:52:12Z</time>
      </trkpt>
      <trkpt lat="42.95102" lon="-0.19462">
        <ele>1118</ele>
        <time>2013-12-07T08:52:17Z</time>
      </trkpt>
      <trkpt lat="42.95089" lon="-0.19468">
        <ele>1145.9245430778</ele>
        <time>2013-12-07T08:52:27Z</time>
      </trkpt>
      <trkpt lat="42.95088" lon="-0.19468">
        <ele>1145.9245430778</ele>
        <time>2013-12-07T08:52:32Z</time>
      </trkpt>
      <trkpt lat="42.95086" lon="-0.19472">
        <ele>1145.9245430778</ele>
        <time>2013-12-07T08:54:17Z</time>
      </trkpt>
      <trkpt lat="42.95088" lon="-0.19473">
        <ele>1145.9245430778</ele>
        <time>2013-12-07T08:54:23Z</time>
      </trkpt>
      <trkpt lat="42.95092" lon="-0.19475">
        <ele>1153.8670527307</ele>
        <time>2013-12-07T08:54:28Z</time>
      </trkpt>
      <trkpt lat="42.95097" lon="-0.1948">
        <ele>1153.8670527307</ele>
        <time>2013-12-07T08:54:33Z</time>
      </trkpt>
      <trkpt lat="42.95102" lon="-0.19482">
        <ele>1160.2438797326</ele>
        <time>2013-12-07T08:54:37Z</time>
      </trkpt>
      <trkpt lat="42.95102" lon="-0.1949">
        <ele>1160.2438797326</ele>
        <time>2013-12-07T08:54:42Z</time>
      </trkpt>
      <trkpt lat="42.95106" lon="-0.19494">
        <ele>1166.0102956281</ele>
        <time>2013-12-07T08:54:48Z</time>
      </trkpt>
      <trkpt lat="42.9511" lon="-0.19501">
        <ele>1166.0102956281</ele>
        <time>2013-12-07T08:54:53Z</time>
      </trkpt>
      <trkpt lat="42.95118" lon="-0.19503">
        <ele>1171.1332284409</ele>
        <time>2013-12-07T08:54:58Z</time>
      </trkpt>
      <trkpt lat="42.95124" lon="-0.19509">
        <ele>1171.1332284409</ele>
        <time>2013-12-07T08:55:02Z</time>
      </trkpt>
      <trkpt lat="42.9513" lon="-0.19515">
        <ele>1175.6759853673</ele>
        <time>2013-12-07T08:55:07Z</time>
      </trkpt>
      <trkpt lat="42.95135" lon="-0.19519">
        <ele>1175.6759853673</ele>
        <time>2013-12-07T08:55:12Z</time>
      </trkpt>
      <trkpt lat="42.95137" lon="-0.19522">
        <ele>1179.5583682832</ele>
        <time>2013-12-07T08:55:18Z</time>
      </trkpt>
      <trkpt lat="42.95142" lon="-0.19526">
        <ele>1179.5583682832</ele>
        <time>2013-12-07T08:55:22Z</time>
      </trkpt>
      <trkpt lat="42.95144" lon="-0.19534">
        <ele>1182.6097360815</ele>
        <time>2013-12-07T08:55:27Z</time>
      </trkpt>
      <trkpt lat="42.95147" lon="-0.19541">
        <ele>1182.6097360815</ele>
        <time>2013-12-07T08:55:33Z</time>
      </trkpt>
      <trkpt lat="42.95148" lon="-0.19546">
        <ele>1184.8164024161</ele>
        <time>2013-12-07T08:55:38Z</time>
      </trkpt>
      <trkpt lat="42.95151" lon="-0.19554">
        <ele>1184.8164024161</ele>
        <time>2013-12-07T08:55:43Z</time>
      </trkpt>
      <trkpt lat="42.95156" lon="-0.19556">
        <ele>1186.0690533318</ele>
        <time>2013-12-07T08:55:48Z</time>
      </trkpt>
      <trkpt lat="42.95162" lon="-0.19562">
        <ele>1186.0690533318</ele>
        <time>2013-12-07T08:55:52Z</time>
      </trkpt>
      <trkpt lat="42.95168" lon="-0.19568">
        <ele>1186.4971496802</ele>
        <time>2013-12-07T08:55:57Z</time>
      </trkpt>
      <trkpt lat="42.95173" lon="-0.19576">
        <ele>1186.4971496802</ele>
        <time>2013-12-07T08:56:02Z</time>
      </trkpt>
      <trkpt lat="42.95179" lon="-0.19583">
        <ele>1186.1391865833</ele>
        <time>2013-12-07T08:56:07Z</time>
      </trkpt>
      <trkpt lat="42.95184" lon="-0.19589">
        <ele>1186.1391865833</ele>
        <time>2013-12-07T08:56:13Z</time>
      </trkpt>
      <trkpt lat="42.95186" lon="-0.19593">
        <ele>1185.102488234</ele>
        <time>2013-12-07T08:56:18Z</time>
      </trkpt>
      <trkpt lat="42.95197" lon="-0.19604">
        <ele>1183.5742832942</ele>
        <time>2013-12-07T08:56:23Z</time>
      </trkpt>
      <trkpt lat="42.95202" lon="-0.19608">
        <ele>1183.5742832942</ele>
        <time>2013-12-07T08:56:28Z</time>
      </trkpt>
      <trkpt lat="42.95203" lon="-0.19616">
        <ele>1181.7160845603</ele>
        <time>2013-12-07T08:56:32Z</time>
      </trkpt>
      <trkpt lat="42.9521" lon="-0.19624">
        <ele>1181.7160845603</ele>
        <time>2013-12-07T08:56:37Z</time>
      </trkpt>
      <trkpt lat="42.95212" lon="-0.1963">
        <ele>1179.4731827643</ele>
        <time>2013-12-07T08:56:43Z</time>
      </trkpt>
      <trkpt lat="42.95212" lon="-0.19632">
        <ele>1179.4731827643</ele>
        <time>2013-12-07T08:56:47Z</time>
      </trkpt>
      <trkpt lat="42.95214" lon="-0.19638">
        <ele>1179.4731827643</ele>
        <time>2013-12-07T08:57:02Z</time>
      </trkpt>
      <trkpt lat="42.95212" lon="-0.1964">
        <ele>1179.4731827643</ele>
        <time>2013-12-07T08:57:08Z</time>
      </trkpt>
      <trkpt lat="42.95204" lon="-0.19645">
        <ele>1177.4115496968</ele>
        <time>2013-12-07T08:57:13Z</time>
      </trkpt>
      <trkpt lat="42.95205" lon="-0.19645">
        <ele>1177.4115496968</ele>
        <time>2013-12-07T08:57:17Z</time>
      </trkpt>
      <trkpt lat="42.95205" lon="-0.19645">
        <ele>1177.4115496968</ele>
        <time>2013-12-07T08:57:22Z</time>
      </trkpt>
      <trkpt lat="42.95209" lon="-0.19645">
        <ele>1177.4115496968</ele>
        <time>2013-12-07T08:57:33Z</time>
      </trkpt>
      <trkpt lat="42.9521" lon="-0.19644">
        <ele>1177.4115496968</ele>
        <time>2013-12-07T08:57:37Z</time>
      </trkpt>
      <trkpt lat="42.95206" lon="-0.19641">
        <ele>1175.9540538109</ele>
        <time>2013-12-07T08:57:43Z</time>
      </trkpt>
      <trkpt lat="42.95206" lon="-0.19639">
        <ele>1175.9540538109</ele>
        <time>2013-12-07T08:57:48Z</time>
      </trkpt>
      <trkpt lat="42.95205" lon="-0.19642">
        <ele>1175.9540538109</ele>
        <time>2013-12-07T08:57:52Z</time>
      </trkpt>
      <trkpt lat="42.95204" lon="-0.19641">
        <ele>1175.9540538109</ele>
        <time>2013-12-07T08:58:02Z</time>
      </trkpt>
      <trkpt lat="42.95208" lon="-0.19638">
        <ele>1174.5951737652</ele>
        <time>2013-12-07T08:58:08Z</time>
      </trkpt>
      <trkpt lat="42.95209" lon="-0.19639">
        <ele>1174.5951737652</ele>
        <time>2013-12-07T08:58:12Z</time>
      </trkpt>
      <trkpt lat="42.95207" lon="-0.19641">
        <ele>1174.5951737652</ele>
        <time>2013-12-07T08:58:18Z</time>
      </trkpt>
      <trkpt lat="42.95206" lon="-0.19639">
        <ele>1174.5951737652</ele>
        <time>2013-12-07T08:58:22Z</time>
      </trkpt>
      <trkpt lat="42.95204" lon="-0.1964">
        <ele>1174.5951737652</ele>
        <time>2013-12-07T08:58:27Z</time>
      </trkpt>
      <trkpt lat="42.95204" lon="-0.1964">
        <ele>1174.5951737652</ele>
        <time>2013-12-07T08:58:32Z</time>
      </trkpt>
      <trkpt lat="42.95201" lon="-0.19641">
        <ele>1173.6040270931</ele>
        <time>2013-12-07T08:58:38Z</time>
      </trkpt>
      <trkpt lat="42.95202" lon="-0.19641">
        <ele>1173.6040270931</ele>
        <time>2013-12-07T08:58:43Z</time>
      </trkpt>
      <trkpt lat="42.95202" lon="-0.19644">
        <ele>1173.6040270931</ele>
        <time>2013-12-07T08:58:48Z</time>
      </trkpt>
      <trkpt lat="42.95208" lon="-0.19643">
        <ele>1173.6040270931</ele>
        <time>2013-12-07T08:59:02Z</time>
      </trkpt>
      <trkpt lat="42.95209" lon="-0.1964">
        <ele>1172.6496141113</ele>
        <time>2013-12-07T09:02:37Z</time>
      </trkpt>
      <trkpt lat="42.95209" lon="-0.1964">
        <ele>1172.6496141113</ele>
        <time>2013-12-07T09:02:43Z</time>
      </trkpt>
      <trkpt lat="42.95208" lon="-0.19648">
        <ele>1172.6496141113</ele>
        <time>2013-12-07T09:04:18Z</time>
      </trkpt>
      <trkpt lat="42.95206" lon="-0.19651">
        <ele>1171.7877251159</ele>
        <time>2013-12-07T09:04:23Z</time>
      </trkpt>
      <trkpt lat="42.95204" lon="-0.19657">
        <ele>1171.7877251159</ele>
        <time>2013-12-07T09:04:28Z</time>
      </trkpt>
      <trkpt lat="42.95201" lon="-0.19665">
        <ele>1170.8675747822</ele>
        <time>2013-12-07T09:04:33Z</time>
      </trkpt>
      <trkpt lat="42.95202" lon="-0.19667">
        <ele>1170.8675747822</ele>
        <time>2013-12-07T09:04:37Z</time>
      </trkpt>
      <trkpt lat="42.95202" lon="-0.19671">
        <ele>1170.8675747822</ele>
        <time>2013-12-07T09:04:43Z</time>
      </trkpt>
      <trkpt lat="42.952" lon="-0.19677">
        <ele>1169.9461046581</ele>
        <time>2013-12-07T09:04:47Z</time>
      </trkpt>
      <trkpt lat="42.95199" lon="-0.1968">
        <ele>1169.9461046581</ele>
        <time>2013-12-07T09:04:53Z</time>
      </trkpt>
      <trkpt lat="42.95196" lon="-0.19689">
        <ele>1169.0413203034</ele>
        <time>2013-12-07T09:04:58Z</time>
      </trkpt>
      <trkpt lat="42.95194" lon="-0.19692">
        <ele>1169.0413203034</ele>
        <time>2013-12-07T09:05:03Z</time>
      </trkpt>
      <trkpt lat="42.95185" lon="-0.19694">
        <ele>1168.2245388606</ele>
        <time>2013-12-07T09:05:57Z</time>
      </trkpt>
      <trkpt lat="42.95175" lon="-0.19701">
        <ele>1167.8139318733</ele>
        <time>2013-12-07T09:09:28Z</time>
      </trkpt>
      <trkpt lat="42.95173" lon="-0.19702">
        <ele>1167.8139318733</ele>
        <time>2013-12-07T09:09:32Z</time>
      </trkpt>
      <trkpt lat="42.9517" lon="-0.197">
        <ele>1167.8139318733</ele>
        <time>2013-12-07T09:09:38Z</time>
      </trkpt>
      <trkpt lat="42.95169" lon="-0.19699">
        <ele>1167.8139318733</ele>
        <time>2013-12-07T09:09:42Z</time>
      </trkpt>
      <trkpt lat="42.95166" lon="-0.19698">
        <ele>1167.3592563341</ele>
        <time>2013-12-07T09:09:47Z</time>
      </trkpt>
      <trkpt lat="42.95161" lon="-0.19701">
        <ele>1167.3592563341</ele>
        <time>2013-12-07T09:09:53Z</time>
      </trkpt>
      <trkpt lat="42.95158" lon="-0.19704">
        <ele>1166.8765112165</ele>
        <time>2013-12-07T09:09:57Z</time>
      </trkpt>
      <trkpt lat="42.95154" lon="-0.19708">
        <ele>1166.8765112165</ele>
        <time>2013-12-07T09:10:03Z</time>
      </trkpt>
      <trkpt lat="42.95152" lon="-0.1971">
        <ele>1166.8765112165</ele>
        <time>2013-12-07T09:10:07Z</time>
      </trkpt>
      <trkpt lat="42.95151" lon="-0.19715">
        <ele>1166.4774865155</ele>
        <time>2013-12-07T09:10:13Z</time>
      </trkpt>
      <trkpt lat="42.95152" lon="-0.19718">
        <ele>1166.4774865155</ele>
        <time>2013-12-07T09:10:18Z</time>
      </trkpt>
      <trkpt lat="42.95152" lon="-0.19723">
        <ele>1166.4774865155</ele>
        <time>2013-12-07T09:10:22Z</time>
      </trkpt>
      <trkpt lat="42.95153" lon="-0.19727">
        <ele>1166.0560440341</ele>
        <time>2013-12-07T09:10:28Z</time>
      </trkpt>
      <trkpt lat="42.95154" lon="-0.19731">
        <ele>1166.0560440341</ele>
        <time>2013-12-07T09:10:33Z</time>
      </trkpt>
      <trkpt lat="42.95153" lon="-0.19737">
        <ele>1166.0560440341</ele>
        <time>2013-12-07T09:10:38Z</time>
      </trkpt>
      <trkpt lat="42.95153" lon="-0.19741">
        <ele>1165.6956685576</ele>
        <time>2013-12-07T09:10:42Z</time>
      </trkpt>
      <trkpt lat="42.95152" lon="-0.19742">
        <ele>1165.6956685576</ele>
        <time>2013-12-07T09:10:48Z</time>
      </trkpt>
      <trkpt lat="42.95153" lon="-0.1975">
        <ele>1165.6956685576</ele>
        <time>2013-12-07T09:10:52Z</time>
      </trkpt>
      <trkpt lat="42.95154" lon="-0.19754">
        <ele>1165.4188295064</ele>
        <time>2013-12-07T09:10:57Z</time>
      </trkpt>
      <trkpt lat="42.95154" lon="-0.19757">
        <ele>1165.4188295064</ele>
        <time>2013-12-07T09:11:02Z</time>
      </trkpt>
      <trkpt lat="42.95154" lon="-0.19762">
        <ele>1165.4188295064</ele>
        <time>2013-12-07T09:11:08Z</time>
      </trkpt>
      <trkpt lat="42.95155" lon="-0.19762">
        <ele>1165.4188295064</ele>
        <time>2013-12-07T09:11:13Z</time>
      </trkpt>
      <trkpt lat="42.95158" lon="-0.19768">
        <ele>1165.6647069381</ele>
        <time>2013-12-07T09:12:07Z</time>
      </trkpt>
      <trkpt lat="42.95161" lon="-0.19771">
        <ele>1165.6647069381</ele>
        <time>2013-12-07T09:12:13Z</time>
      </trkpt>
      <trkpt lat="42.9516" lon="-0.19775">
        <ele>1165.6647069381</ele>
        <time>2013-12-07T09:12:18Z</time>
      </trkpt>
      <trkpt lat="42.9516" lon="-0.19779">
        <ele>1166.0228057775</ele>
        <time>2013-12-07T09:12:22Z</time>
      </trkpt>
      <trkpt lat="42.9516" lon="-0.19783">
        <ele>1166.0228057775</ele>
        <time>2013-12-07T09:12:28Z</time>
      </trkpt>
      <trkpt lat="42.95156" lon="-0.19788">
        <ele>1166.0228057775</ele>
        <time>2013-12-07T09:12:33Z</time>
      </trkpt>
      <trkpt lat="42.95155" lon="-0.19793">
        <ele>1166.4448065034</ele>
        <time>2013-12-07T09:12:37Z</time>
      </trkpt>
      <trkpt lat="42.95155" lon="-0.19796">
        <ele>1166.4448065034</ele>
        <time>2013-12-07T09:12:43Z</time>
      </trkpt>
      <trkpt lat="42.95152" lon="-0.19802">
        <ele>1166.4448065034</ele>
        <time>2013-12-07T09:12:48Z</time>
      </trkpt>
      <trkpt lat="42.95152" lon="-0.19807">
        <ele>1166.9138507288</ele>
        <time>2013-12-07T09:12:53Z</time>
      </trkpt>
      <trkpt lat="42.95153" lon="-0.1981">
        <ele>1166.9138507288</ele>
        <time>2013-12-07T09:12:58Z</time>
      </trkpt>
      <trkpt lat="42.95152" lon="-0.19814">
        <ele>1166.9138507288</ele>
        <time>2013-12-07T09:13:03Z</time>
      </trkpt>
      <trkpt lat="42.95149" lon="-0.19818">
        <ele>1167.5277983899</ele>
        <time>2013-12-07T09:13:08Z</time>
      </trkpt>
      <trkpt lat="42.95149" lon="-0.19821">
        <ele>1167.5277983899</ele>
        <time>2013-12-07T09:13:12Z</time>
      </trkpt>
      <trkpt lat="42.95146" lon="-0.19824">
        <ele>1167.5277983899</ele>
        <time>2013-12-07T09:13:18Z</time>
      </trkpt>
      <trkpt lat="42.95143" lon="-0.19826">
        <ele>1167.5277983899</ele>
        <time>2013-12-07T09:13:22Z</time>
      </trkpt>
      <trkpt lat="42.95143" lon="-0.19827">
        <ele>1168.2082833513</ele>
        <time>2013-12-07T09:13:28Z</time>
      </trkpt>
      <trkpt lat="42.95137" lon="-0.19826">
        <ele>1168.2082833513</ele>
        <time>2013-12-07T09:13:42Z</time>
      </trkpt>
      <trkpt lat="42.95134" lon="-0.19826">
        <ele>1168.2082833513</ele>
        <time>2013-12-07T09:13:47Z</time>
      </trkpt>
      <trkpt lat="42.95131" lon="-0.19827">
        <ele>1168.9527475347</ele>
        <time>2013-12-07T09:13:53Z</time>
      </trkpt>
      <trkpt lat="42.95129" lon="-0.19826">
        <ele>1168.9527475347</ele>
        <time>2013-12-07T09:13:58Z</time>
      </trkpt>
      <trkpt lat="42.95125" lon="-0.19827">
        <ele>1168.9527475347</ele>
        <time>2013-12-07T09:14:02Z</time>
      </trkpt>
      <trkpt lat="42.95123" lon="-0.19826">
        <ele>1168.9527475347</ele>
        <time>2013-12-07T09:14:08Z</time>
      </trkpt>
      <trkpt lat="42.95122" lon="-0.19825">
        <ele>1169.6862786389</ele>
        <time>2013-12-07T09:14:13Z</time>
      </trkpt>
      <trkpt lat="42.9512" lon="-0.19823">
        <ele>1169.6862786389</ele>
        <time>2013-12-07T09:14:18Z</time>
      </trkpt>
      <trkpt lat="42.95121" lon="-0.19823">
        <ele>1169.6862786389</ele>
        <time>2013-12-07T09:14:22Z</time>
      </trkpt>
      <trkpt lat="42.95115" lon="-0.19827">
        <ele>1169.6862786389</ele>
        <time>2013-12-07T09:14:28Z</time>
      </trkpt>
      <trkpt lat="42.9511" lon="-0.19826">
        <ele>1170.4397817791</ele>
        <time>2013-12-07T09:14:33Z</time>
      </trkpt>
      <trkpt lat="42.95107" lon="-0.19825">
        <ele>1170.4397817791</ele>
        <time>2013-12-07T09:14:37Z</time>
      </trkpt>
      <trkpt lat="42.95103" lon="-0.19823">
        <ele>1170.4397817791</ele>
        <time>2013-12-07T09:14:43Z</time>
      </trkpt>
      <trkpt lat="42.951" lon="-0.19821">
        <ele>1171.2571716325</ele>
        <time>2013-12-07T09:14:47Z</time>
      </trkpt>
      <trkpt lat="42.95098" lon="-0.1982">
        <ele>1171.2571716325</ele>
        <time>2013-12-07T09:14:52Z</time>
      </trkpt>
      <trkpt lat="42.95096" lon="-0.19818">
        <ele>1171.2571716325</ele>
        <time>2013-12-07T09:14:58Z</time>
      </trkpt>
      <trkpt lat="42.95092" lon="-0.19816">
        <ele>1172.1796967033</ele>
        <time>2013-12-07T09:15:03Z</time>
      </trkpt>
      <trkpt lat="42.9509" lon="-0.19816">
        <ele>1172.1796967033</ele>
        <time>2013-12-07T09:15:08Z</time>
      </trkpt>
      <trkpt lat="42.95086" lon="-0.19818">
        <ele>1172.1796967033</ele>
        <time>2013-12-07T09:15:12Z</time>
      </trkpt>
      <trkpt lat="42.95085" lon="-0.19821">
        <ele>1173.1863859394</ele>
        <time>2013-12-07T09:15:18Z</time>
      </trkpt>
      <trkpt lat="42.95084" lon="-0.19821">
        <ele>1173.1863859394</ele>
        <time>2013-12-07T09:15:22Z</time>
      </trkpt>
      <trkpt lat="42.95082" lon="-0.19824">
        <ele>1173.1863859394</ele>
        <time>2013-12-07T09:15:28Z</time>
      </trkpt>
      <trkpt lat="42.95083" lon="-0.19826">
        <ele>1173.1863859394</ele>
        <time>2013-12-07T09:15:33Z</time>
      </trkpt>
      <trkpt lat="42.95084" lon="-0.19825">
        <ele>1173.1863859394</ele>
        <time>2013-12-07T09:15:37Z</time>
      </trkpt>
      <trkpt lat="42.95085" lon="-0.19829">
        <ele>1174.7038438644</ele>
        <time>2013-12-07T09:15:43Z</time>
      </trkpt>
      <trkpt lat="42.95086" lon="-0.19835">
        <ele>1174.7038438644</ele>
        <time>2013-12-07T09:15:47Z</time>
      </trkpt>
      <trkpt lat="42.95088" lon="-0.19837">
        <ele>1174.7038438644</ele>
        <time>2013-12-07T09:15:52Z</time>
      </trkpt>
      <trkpt lat="42.9509" lon="-0.19839">
        <ele>1176.3223834207</ele>
        <time>2013-12-07T09:15:58Z</time>
      </trkpt>
      <trkpt lat="42.95091" lon="-0.19845">
        <ele>1176.3223834207</ele>
        <time>2013-12-07T09:16:02Z</time>
      </trkpt>
      <trkpt lat="42.95092" lon="-0.19849">
        <ele>1176.3223834207</ele>
        <time>2013-12-07T09:16:08Z</time>
      </trkpt>
      <trkpt lat="42.95093" lon="-0.19855">
        <ele>1178.0622600118</ele>
        <time>2013-12-07T09:16:13Z</time>
      </trkpt>
      <trkpt lat="42.95095" lon="-0.19859">
        <ele>1178.0622600118</ele>
        <time>2013-12-07T09:16:17Z</time>
      </trkpt>
      <trkpt lat="42.95098" lon="-0.19862">
        <ele>1178.0622600118</ele>
        <time>2013-12-07T09:16:23Z</time>
      </trkpt>
      <trkpt lat="42.95098" lon="-0.19866">
        <ele>1179.8815821063</ele>
        <time>2013-12-07T09:16:28Z</time>
      </trkpt>
      <trkpt lat="42.95099" lon="-0.1987">
        <ele>1179.8815821063</ele>
        <time>2013-12-07T09:16:32Z</time>
      </trkpt>
      <trkpt lat="42.951" lon="-0.19873">
        <ele>1179.8815821063</ele>
        <time>2013-12-07T09:16:38Z</time>
      </trkpt>
      <trkpt lat="42.95102" lon="-0.19876">
        <ele>1179.8815821063</ele>
        <time>2013-12-07T09:16:43Z</time>
      </trkpt>
      <trkpt lat="42.95105" lon="-0.19879">
        <ele>1181.861515445</ele>
        <time>2013-12-07T09:16:48Z</time>
      </trkpt>
      <trkpt lat="42.95106" lon="-0.1988">
        <ele>1181.861515445</ele>
        <time>2013-12-07T09:16:52Z</time>
      </trkpt>
      <trkpt lat="42.95106" lon="-0.19881">
        <ele>1181.861515445</ele>
        <time>2013-12-07T09:16:58Z</time>
      </trkpt>
      <trkpt lat="42.95105" lon="-0.19887">
        <ele>1181.861515445</ele>
        <time>2013-12-07T09:17:03Z</time>
      </trkpt>
      <trkpt lat="42.95102" lon="-0.1989">
        <ele>1183.9560566652</ele>
        <time>2013-12-07T09:17:08Z</time>
      </trkpt>
      <trkpt lat="42.95099" lon="-0.19893">
        <ele>1183.9560566652</ele>
        <time>2013-12-07T09:17:13Z</time>
      </trkpt>
      <trkpt lat="42.95096" lon="-0.19894">
        <ele>1183.9560566652</ele>
        <time>2013-12-07T09:17:17Z</time>
      </trkpt>
      <trkpt lat="42.95095" lon="-0.19895">
        <ele>1183.9560566652</ele>
        <time>2013-12-07T09:17:23Z</time>
      </trkpt>
      <trkpt lat="42.95093" lon="-0.19896">
        <ele>1186.0919022608</ele>
        <time>2013-12-07T09:17:27Z</time>
      </trkpt>
      <trkpt lat="42.95092" lon="-0.19897">
        <ele>1186.0919022608</ele>
        <time>2013-12-07T09:17:32Z</time>
      </trkpt>
      <trkpt lat="42.9509" lon="-0.19899">
        <ele>1186.0919022608</ele>
        <time>2013-12-07T09:17:38Z</time>
      </trkpt>
      <trkpt lat="42.95088" lon="-0.199">
        <ele>1186.0919022608</ele>
        <time>2013-12-07T09:17:43Z</time>
      </trkpt>
      <trkpt lat="42.95083" lon="-0.19901">
        <ele>1188.1257641364</ele>
        <time>2013-12-07T09:17:48Z</time>
      </trkpt>
      <trkpt lat="42.9508" lon="-0.19903">
        <ele>1188.1257641364</ele>
        <time>2013-12-07T09:17:52Z</time>
      </trkpt>
      <trkpt lat="42.95078" lon="-0.19903">
        <ele>1188.1257641364</ele>
        <time>2013-12-07T09:17:58Z</time>
      </trkpt>
      <trkpt lat="42.95076" lon="-0.19903">
        <ele>1188.1257641364</ele>
        <time>2013-12-07T09:18:03Z</time>
      </trkpt>
      <trkpt lat="42.95071" lon="-0.19903">
        <ele>1190.1071861913</ele>
        <time>2013-12-07T09:18:08Z</time>
      </trkpt>
      <trkpt lat="42.95067" lon="-0.19904">
        <ele>1190.1071861913</ele>
        <time>2013-12-07T09:18:13Z</time>
      </trkpt>
      <trkpt lat="42.95066" lon="-0.19905">
        <ele>1190.1071861913</ele>
        <time>2013-12-07T09:18:17Z</time>
      </trkpt>
      <trkpt lat="42.95058" lon="-0.19907">
        <ele>1191.9617344803</ele>
        <time>2013-12-07T09:18:23Z</time>
      </trkpt>
      <trkpt lat="42.95055" lon="-0.19907">
        <ele>1191.9617344803</ele>
        <time>2013-12-07T09:18:28Z</time>
      </trkpt>
      <trkpt lat="42.95051" lon="-0.19908">
        <ele>1191.9617344803</ele>
        <time>2013-12-07T09:18:33Z</time>
      </trkpt>
      <trkpt lat="42.95047" lon="-0.1991">
        <ele>1193.6819174545</ele>
        <time>2013-12-07T09:18:38Z</time>
      </trkpt>
      <trkpt lat="42.95043" lon="-0.19908">
        <ele>1193.6819174545</ele>
        <time>2013-12-07T09:18:42Z</time>
      </trkpt>
      <trkpt lat="42.95037" lon="-0.19912">
        <ele>1195.2916475085</ele>
        <time>2013-12-07T09:18:48Z</time>
      </trkpt>
      <trkpt lat="42.95033" lon="-0.19913">
        <ele>1195.2916475085</ele>
        <time>2013-12-07T09:18:53Z</time>
      </trkpt>
      <trkpt lat="42.9503" lon="-0.19913">
        <ele>1195.2916475085</ele>
        <time>2013-12-07T09:18:58Z</time>
      </trkpt>
      <trkpt lat="42.95027" lon="-0.19913">
        <ele>1196.7834426013</ele>
        <time>2013-12-07T09:19:03Z</time>
      </trkpt>
      <trkpt lat="42.95022" lon="-0.19915">
        <ele>1196.7834426013</ele>
        <time>2013-12-07T09:19:08Z</time>
      </trkpt>
      <trkpt lat="42.9502" lon="-0.19915">
        <ele>1196.7834426013</ele>
        <time>2013-12-07T09:19:13Z</time>
      </trkpt>
      <trkpt lat="42.95016" lon="-0.19914">
        <ele>1198.2856564537</ele>
        <time>2013-12-07T09:19:18Z</time>
      </trkpt>
      <trkpt lat="42.95014" lon="-0.19914">
        <ele>1198.2856564537</ele>
        <time>2013-12-07T09:19:23Z</time>
      </trkpt>
      <trkpt lat="42.95011" lon="-0.19915">
        <ele>1198.2856564537</ele>
        <time>2013-12-07T09:19:28Z</time>
      </trkpt>
      <trkpt lat="42.95009" lon="-0.19914">
        <ele>1198.2856564537</ele>
        <time>2013-12-07T09:19:32Z</time>
      </trkpt>
      <trkpt lat="42.95005" lon="-0.19915">
        <ele>1199.8711468639</ele>
        <time>2013-12-07T09:19:38Z</time>
      </trkpt>
      <trkpt lat="42.95002" lon="-0.19915">
        <ele>1199.8711468639</ele>
        <time>2013-12-07T09:19:42Z</time>
      </trkpt>
      <trkpt lat="42.94998" lon="-0.19916">
        <ele>1199.8711468639</ele>
        <time>2013-12-07T09:19:48Z</time>
      </trkpt>
      <trkpt lat="42.94996" lon="-0.19915">
        <ele>1201.4872770093</ele>
        <time>2013-12-07T09:19:53Z</time>
      </trkpt>
      <trkpt lat="42.94992" lon="-0.19917">
        <ele>1201.4872770093</ele>
        <time>2013-12-07T09:19:58Z</time>
      </trkpt>
      <trkpt lat="42.94988" lon="-0.19919">
        <ele>1201.4872770093</ele>
        <time>2013-12-07T09:20:03Z</time>
      </trkpt>
      <trkpt lat="42.94985" lon="-0.1992">
        <ele>1203.1155102182</ele>
        <time>2013-12-07T09:20:08Z</time>
      </trkpt>
      <trkpt lat="42.94983" lon="-0.19919">
        <ele>1203.1155102182</ele>
        <time>2013-12-07T09:20:13Z</time>
      </trkpt>
      <trkpt lat="42.9498" lon="-0.1992">
        <ele>1203.1155102182</ele>
        <time>2013-12-07T09:20:18Z</time>
      </trkpt>
      <trkpt lat="42.94976" lon="-0.19922">
        <ele>1204.7833453172</ele>
        <time>2013-12-07T09:20:22Z</time>
      </trkpt>
      <trkpt lat="42.94971" lon="-0.19925">
        <ele>1204.7833453172</ele>
        <time>2013-12-07T09:20:28Z</time>
      </trkpt>
      <trkpt lat="42.94969" lon="-0.19927">
        <ele>1204.7833453172</ele>
        <time>2013-12-07T09:20:33Z</time>
      </trkpt>
      <trkpt lat="42.94961" lon="-0.1993">
        <ele>1206.5602557774</ele>
        <time>2013-12-07T09:20:38Z</time>
      </trkpt>
      <trkpt lat="42.94957" lon="-0.19932">
        <ele>1206.5602557774</ele>
        <time>2013-12-07T09:20:43Z</time>
      </trkpt>
      <trkpt lat="42.94954" lon="-0.19934">
        <ele>1206.5602557774</ele>
        <time>2013-12-07T09:20:47Z</time>
      </trkpt>
      <trkpt lat="42.94951" lon="-0.19935">
        <ele>1208.3621850604</ele>
        <time>2013-12-07T09:20:53Z</time>
      </trkpt>
      <trkpt lat="42.94947" lon="-0.19936">
        <ele>1208.3621850604</ele>
        <time>2013-12-07T09:20:57Z</time>
      </trkpt>
      <trkpt lat="42.94945" lon="-0.19938">
        <ele>1208.3621850604</ele>
        <time>2013-12-07T09:21:03Z</time>
      </trkpt>
      <trkpt lat="42.94944" lon="-0.19939">
        <ele>1208.3621850604</ele>
        <time>2013-12-07T09:21:08Z</time>
      </trkpt>
      <trkpt lat="42.94944" lon="-0.19939">
        <ele>1208.3621850604</ele>
        <time>2013-12-07T09:21:13Z</time>
      </trkpt>
      <trkpt lat="42.94936" lon="-0.19936">
        <ele>1210.112088793</ele>
        <time>2013-12-07T09:21:42Z</time>
      </trkpt>
      <trkpt lat="42.94931" lon="-0.19938">
        <ele>1210.112088793</ele>
        <time>2013-12-07T09:21:47Z</time>
      </trkpt>
      <trkpt lat="42.94925" lon="-0.19939">
        <ele>1211.6661058153</ele>
        <time>2013-12-07T09:21:53Z</time>
      </trkpt>
      <trkpt lat="42.94919" lon="-0.19942">
        <ele>1211.6661058153</ele>
        <time>2013-12-07T09:21:58Z</time>
      </trkpt>
      <trkpt lat="42.94916" lon="-0.19945">
        <ele>1212.965989123</ele>
        <time>2013-12-07T09:22:02Z</time>
      </trkpt>
      <trkpt lat="42.94915" lon="-0.19947">
        <ele>1212.965989123</ele>
        <time>2013-12-07T09:22:08Z</time>
      </trkpt>
      <trkpt lat="42.94914" lon="-0.1995">
        <ele>1212.965989123</ele>
        <time>2013-12-07T09:22:13Z</time>
      </trkpt>
      <trkpt lat="42.94911" lon="-0.19955">
        <ele>1214.0319587862</ele>
        <time>2013-12-07T09:22:17Z</time>
      </trkpt>
      <trkpt lat="42.94905" lon="-0.19955">
        <ele>1214.0319587862</ele>
        <time>2013-12-07T09:22:23Z</time>
      </trkpt>
      <trkpt lat="42.94903" lon="-0.19954">
        <ele>1214.0319587862</ele>
        <time>2013-12-07T09:22:28Z</time>
      </trkpt>
      <trkpt lat="42.949" lon="-0.19952">
        <ele>1214.8831229296</ele>
        <time>2013-12-07T09:22:33Z</time>
      </trkpt>
      <trkpt lat="42.94898" lon="-0.19951">
        <ele>1214.8831229296</ele>
        <time>2013-12-07T09:22:37Z</time>
      </trkpt>
      <trkpt lat="42.94893" lon="-0.19952">
        <ele>1214.8831229296</ele>
        <time>2013-12-07T09:22:43Z</time>
      </trkpt>
      <trkpt lat="42.9489" lon="-0.19947">
        <ele>1215.5666624367</ele>
        <time>2013-12-07T09:22:48Z</time>
      </trkpt>
      <trkpt lat="42.94886" lon="-0.19948">
        <ele>1215.5666624367</ele>
        <time>2013-12-07T09:22:53Z</time>
      </trkpt>
      <trkpt lat="42.94881" lon="-0.19948">
        <ele>1216.0681876982</ele>
        <time>2013-12-07T09:22:58Z</time>
      </trkpt>
      <trkpt lat="42.94875" lon="-0.19949">
        <ele>1216.0681876982</ele>
        <time>2013-12-07T09:23:02Z</time>
      </trkpt>
      <trkpt lat="42.94872" lon="-0.19952">
        <ele>1216.4184386116</ele>
        <time>2013-12-07T09:23:08Z</time>
      </trkpt>
      <trkpt lat="42.94868" lon="-0.19953">
        <ele>1216.4184386116</ele>
        <time>2013-12-07T09:23:12Z</time>
      </trkpt>
      <trkpt lat="42.94864" lon="-0.19954">
        <ele>1216.4184386116</ele>
        <time>2013-12-07T09:23:18Z</time>
      </trkpt>
      <trkpt lat="42.9486" lon="-0.19955">
        <ele>1216.7040963151</ele>
        <time>2013-12-07T09:23:23Z</time>
      </trkpt>
      <trkpt lat="42.94856" lon="-0.19955">
        <ele>1216.7040963151</ele>
        <time>2013-12-07T09:23:28Z</time>
      </trkpt>
      <trkpt lat="42.94853" lon="-0.19957">
        <ele>1216.7040963151</ele>
        <time>2013-12-07T09:23:33Z</time>
      </trkpt>
      <trkpt lat="42.9485" lon="-0.19959">
        <ele>1217.1066334335</ele>
        <time>2013-12-07T09:23:37Z</time>
      </trkpt>
      <trkpt lat="42.94847" lon="-0.1996">
        <ele>1217.1066334335</ele>
        <time>2013-12-07T09:23:43Z</time>
      </trkpt>
      <trkpt lat="42.94843" lon="-0.19962">
        <ele>1217.1066334335</ele>
        <time>2013-12-07T09:23:48Z</time>
      </trkpt>
      <trkpt lat="42.94839" lon="-0.19964">
        <ele>1217.4602967605</ele>
        <time>2013-12-07T09:23:53Z</time>
      </trkpt>
      <trkpt lat="42.94836" lon="-0.19966">
        <ele>1217.4602967605</ele>
        <time>2013-12-07T09:23:58Z</time>
      </trkpt>
      <trkpt lat="42.94833" lon="-0.19967">
        <ele>1217.4602967605</ele>
        <time>2013-12-07T09:24:03Z</time>
      </trkpt>
      <trkpt lat="42.94829" lon="-0.19966">
        <ele>1217.7713416703</ele>
        <time>2013-12-07T09:24:08Z</time>
      </trkpt>
      <trkpt lat="42.94827" lon="-0.19967">
        <ele>1217.7713416703</ele>
        <time>2013-12-07T09:24:13Z</time>
      </trkpt>
      <trkpt lat="42.94826" lon="-0.19969">
        <ele>1217.7713416703</ele>
        <time>2013-12-07T09:24:18Z</time>
      </trkpt>
      <trkpt lat="42.9482" lon="-0.19969">
        <ele>1218.0745580758</ele>
        <time>2013-12-07T09:24:22Z</time>
      </trkpt>
      <trkpt lat="42.94817" lon="-0.19969">
        <ele>1218.0745580758</ele>
        <time>2013-12-07T09:24:28Z</time>
      </trkpt>
      <trkpt lat="42.94814" lon="-0.19968">
        <ele>1218.0745580758</ele>
        <time>2013-12-07T09:24:33Z</time>
      </trkpt>
      <trkpt lat="42.94812" lon="-0.19967">
        <ele>1218.0745580758</ele>
        <time>2013-12-07T09:24:38Z</time>
      </trkpt>
      <trkpt lat="42.94808" lon="-0.19968">
        <ele>1218.4309982296</ele>
        <time>2013-12-07T09:24:43Z</time>
      </trkpt>
      <trkpt lat="42.94806" lon="-0.19968">
        <ele>1218.4309982296</ele>
        <time>2013-12-07T09:24:48Z</time>
      </trkpt>
      <trkpt lat="42.94804" lon="-0.19966">
        <ele>1218.4309982296</ele>
        <time>2013-12-07T09:24:52Z</time>
      </trkpt>
      <trkpt lat="42.94801" lon="-0.19965">
        <ele>1218.4309982296</ele>
        <time>2013-12-07T09:24:58Z</time>
      </trkpt>
      <trkpt lat="42.94799" lon="-0.19966">
        <ele>1219.2578619499</ele>
        <time>2013-12-07T09:25:03Z</time>
      </trkpt>
      <trkpt lat="42.94797" lon="-0.19966">
        <ele>1219.2578619499</ele>
        <time>2013-12-07T09:25:07Z</time>
      </trkpt>
      <trkpt lat="42.94796" lon="-0.19967">
        <ele>1219.2578619499</ele>
        <time>2013-12-07T09:25:13Z</time>
      </trkpt>
      <trkpt lat="42.94794" lon="-0.19967">
        <ele>1219.2578619499</ele>
        <time>2013-12-07T09:25:17Z</time>
      </trkpt>
      <trkpt lat="42.94793" lon="-0.19968">
        <ele>1219.2578619499</ele>
        <time>2013-12-07T09:25:23Z</time>
      </trkpt>
      <trkpt lat="42.94789" lon="-0.19965">
        <ele>1220.4780335228</ele>
        <time>2013-12-07T09:25:28Z</time>
      </trkpt>
      <trkpt lat="42.94785" lon="-0.19964">
        <ele>1220.4780335228</ele>
        <time>2013-12-07T09:25:32Z</time>
      </trkpt>
      <trkpt lat="42.94782" lon="-0.19963">
        <ele>1220.4780335228</ele>
        <time>2013-12-07T09:25:38Z</time>
      </trkpt>
      <trkpt lat="42.94781" lon="-0.19962">
        <ele>1220.4780335228</ele>
        <time>2013-12-07T09:25:42Z</time>
      </trkpt>
      <trkpt lat="42.94776" lon="-0.19961">
        <ele>1221.6729862858</ele>
        <time>2013-12-07T09:25:48Z</time>
      </trkpt>
      <trkpt lat="42.94772" lon="-0.19959">
        <ele>1221.6729862858</ele>
        <time>2013-12-07T09:25:53Z</time>
      </trkpt>
      <trkpt lat="42.94769" lon="-0.19957">
        <ele>1221.6729862858</ele>
        <time>2013-12-07T09:25:57Z</time>
      </trkpt>
      <trkpt lat="42.94765" lon="-0.19951">
        <ele>1222.7294883429</ele>
        <time>2013-12-07T09:26:03Z</time>
      </trkpt>
      <trkpt lat="42.94764" lon="-0.19948">
        <ele>1222.7294883429</ele>
        <time>2013-12-07T09:26:07Z</time>
      </trkpt>
      <trkpt lat="42.94766" lon="-0.19945">
        <ele>1222.7294883429</ele>
        <time>2013-12-07T09:26:13Z</time>
      </trkpt>
      <trkpt lat="42.94765" lon="-0.1994">
        <ele>1222.7294883429</ele>
        <time>2013-12-07T09:26:18Z</time>
      </trkpt>
      <trkpt lat="42.94765" lon="-0.19937">
        <ele>1223.8026017909</ele>
        <time>2013-12-07T09:26:22Z</time>
      </trkpt>
      <trkpt lat="42.94764" lon="-0.19928">
        <ele>1223.8026017909</ele>
        <time>2013-12-07T09:26:28Z</time>
      </trkpt>
      <trkpt lat="42.94763" lon="-0.19924">
        <ele>1224.9348878801</ele>
        <time>2013-12-07T09:26:32Z</time>
      </trkpt>
      <trkpt lat="42.94763" lon="-0.19923">
        <ele>1224.9348878801</ele>
        <time>2013-12-07T09:26:38Z</time>
      </trkpt>
      <trkpt lat="42.9476" lon="-0.19917">
        <ele>1224.9348878801</ele>
        <time>2013-12-07T09:26:47Z</time>
      </trkpt>
      <trkpt lat="42.94757" lon="-0.19912">
        <ele>1226.122321581</ele>
        <time>2013-12-07T09:26:55Z</time>
      </trkpt>
      <trkpt lat="42.94756" lon="-0.1991">
        <ele>1226.122321581</ele>
        <time>2013-12-07T09:26:57Z</time>
      </trkpt>
      <trkpt lat="42.94754" lon="-0.19897">
        <ele>1227.8656114092</ele>
        <time>2013-12-07T09:27:33Z</time>
      </trkpt>
      <trkpt lat="42.9475" lon="-0.19897">
        <ele>1227.8656114092</ele>
        <time>2013-12-07T09:27:38Z</time>
      </trkpt>
      <trkpt lat="42.94748" lon="-0.19897">
        <ele>1227.8656114092</ele>
        <time>2013-12-07T09:27:43Z</time>
      </trkpt>
      <trkpt lat="42.94746" lon="-0.19896">
        <ele>1227.8656114092</ele>
        <time>2013-12-07T09:27:47Z</time>
      </trkpt>
      <trkpt lat="42.94745" lon="-0.19895">
        <ele>1229.6611091161</ele>
        <time>2013-12-07T09:27:53Z</time>
      </trkpt>
      <trkpt lat="42.94743" lon="-0.19894">
        <ele>1229.6611091161</ele>
        <time>2013-12-07T09:27:58Z</time>
      </trkpt>
      <trkpt lat="42.94741" lon="-0.19892">
        <ele>1229.6611091161</ele>
        <time>2013-12-07T09:28:03Z</time>
      </trkpt>
      <trkpt lat="42.94737" lon="-0.19887">
        <ele>1231.4745526489</ele>
        <time>2013-12-07T09:28:08Z</time>
      </trkpt>
      <trkpt lat="42.94734" lon="-0.19886">
        <ele>1231.4745526489</ele>
        <time>2013-12-07T09:28:12Z</time>
      </trkpt>
      <trkpt lat="42.94732" lon="-0.19886">
        <ele>1231.4745526489</ele>
        <time>2013-12-07T09:28:18Z</time>
      </trkpt>
      <trkpt lat="42.94732" lon="-0.19886">
        <ele>1231.4745526489</ele>
        <time>2013-12-07T09:28:23Z</time>
      </trkpt>
      <trkpt lat="42.94728" lon="-0.19883">
        <ele>1233.2741199022</ele>
        <time>2013-12-07T09:28:27Z</time>
      </trkpt>
      <trkpt lat="42.94725" lon="-0.19881">
        <ele>1233.2741199022</ele>
        <time>2013-12-07T09:28:33Z</time>
      </trkpt>
      <trkpt lat="42.94723" lon="-0.19881">
        <ele>1233.2741199022</ele>
        <time>2013-12-07T09:28:37Z</time>
      </trkpt>
      <trkpt lat="42.94723" lon="-0.19878">
        <ele>1233.2741199022</ele>
        <time>2013-12-07T09:28:43Z</time>
      </trkpt>
      <trkpt lat="42.94717" lon="-0.19872">
        <ele>1235.2177962016</ele>
        <time>2013-12-07T09:28:52Z</time>
      </trkpt>
      <trkpt lat="42.94714" lon="-0.19871">
        <ele>1235.2177962016</ele>
        <time>2013-12-07T09:28:58Z</time>
      </trkpt>
      <trkpt lat="42.94713" lon="-0.19869">
        <ele>1235.2177962016</ele>
        <time>2013-12-07T09:29:02Z</time>
      </trkpt>
      <trkpt lat="42.94708" lon="-0.19866">
        <ele>1237.2064256927</ele>
        <time>2013-12-07T09:29:13Z</time>
      </trkpt>
      <trkpt lat="42.94706" lon="-0.19865">
        <ele>1237.2064256927</ele>
        <time>2013-12-07T09:29:18Z</time>
      </trkpt>
      <trkpt lat="42.94703" lon="-0.19862">
        <ele>1237.2064256927</ele>
        <time>2013-12-07T09:29:23Z</time>
      </trkpt>
      <trkpt lat="42.947" lon="-0.19861">
        <ele>1239.1047301926</ele>
        <time>2013-12-07T09:29:27Z</time>
      </trkpt>
      <trkpt lat="42.94698" lon="-0.1986">
        <ele>1239.1047301926</ele>
        <time>2013-12-07T09:29:33Z</time>
      </trkpt>
      <trkpt lat="42.94695" lon="-0.19858">
        <ele>1239.1047301926</ele>
        <time>2013-12-07T09:29:37Z</time>
      </trkpt>
      <trkpt lat="42.94695" lon="-0.19857">
        <ele>1239.1047301926</ele>
        <time>2013-12-07T09:29:43Z</time>
      </trkpt>
      <trkpt lat="42.94688" lon="-0.19852">
        <ele>1241.0616246055</ele>
        <time>2013-12-07T09:29:53Z</time>
      </trkpt>
      <trkpt lat="42.94686" lon="-0.19849">
        <ele>1241.0616246055</ele>
        <time>2013-12-07T09:29:58Z</time>
      </trkpt>
      <trkpt lat="42.94684" lon="-0.19847">
        <ele>1241.0616246055</ele>
        <time>2013-12-07T09:30:03Z</time>
      </trkpt>
      <trkpt lat="42.94681" lon="-0.19844">
        <ele>1242.8832310224</ele>
        <time>2013-12-07T09:30:07Z</time>
      </trkpt>
      <trkpt lat="42.94678" lon="-0.19843">
        <ele>1242.8832310224</ele>
        <time>2013-12-07T09:30:13Z</time>
      </trkpt>
      <trkpt lat="42.94675" lon="-0.19842">
        <ele>1242.8832310224</ele>
        <time>2013-12-07T09:30:17Z</time>
      </trkpt>
      <trkpt lat="42.94673" lon="-0.1984">
        <ele>1242.8832310224</ele>
        <time>2013-12-07T09:30:23Z</time>
      </trkpt>
      <trkpt lat="42.9467" lon="-0.19841">
        <ele>1245.3278037157</ele>
        <time>2013-12-07T09:30:48Z</time>
      </trkpt>
      <trkpt lat="42.9467" lon="-0.19845">
        <ele>1245.3278037157</ele>
        <time>2013-12-07T09:30:53Z</time>
      </trkpt>
      <trkpt lat="42.94671" lon="-0.19846">
        <ele>1245.3278037157</ele>
        <time>2013-12-07T09:30:58Z</time>
      </trkpt>
      <trkpt lat="42.94669" lon="-0.19851">
        <ele>1245.3278037157</ele>
        <time>2013-12-07T09:31:03Z</time>
      </trkpt>
      <trkpt lat="42.94667" lon="-0.19855">
        <ele>1247.7259630344</ele>
        <time>2013-12-07T09:31:08Z</time>
      </trkpt>
      <trkpt lat="42.94663" lon="-0.1986">
        <ele>1247.7259630344</ele>
        <time>2013-12-07T09:31:13Z</time>
      </trkpt>
      <trkpt lat="42.94661" lon="-0.19862">
        <ele>1247.7259630344</ele>
        <time>2013-12-07T09:31:18Z</time>
      </trkpt>
      <trkpt lat="42.94661" lon="-0.19865">
        <ele>1250.1211335708</ele>
        <time>2013-12-07T09:31:23Z</time>
      </trkpt>
      <trkpt lat="42.9466" lon="-0.1987">
        <ele>1250.1211335708</ele>
        <time>2013-12-07T09:31:28Z</time>
      </trkpt>
      <trkpt lat="42.94659" lon="-0.19873">
        <ele>1250.1211335708</ele>
        <time>2013-12-07T09:31:33Z</time>
      </trkpt>
      <trkpt lat="42.94658" lon="-0.19878">
        <ele>1252.5103272495</ele>
        <time>2013-12-07T09:31:38Z</time>
      </trkpt>
      <trkpt lat="42.94657" lon="-0.19884">
        <ele>1252.5103272495</ele>
        <time>2013-12-07T09:31:43Z</time>
      </trkpt>
      <trkpt lat="42.94656" lon="-0.19888">
        <ele>1252.5103272495</ele>
        <time>2013-12-07T09:31:48Z</time>
      </trkpt>
      <trkpt lat="42.94656" lon="-0.19894">
        <ele>1254.9485379562</ele>
        <time>2013-12-07T09:31:53Z</time>
      </trkpt>
      <trkpt lat="42.94653" lon="-0.199">
        <ele>1254.9485379562</ele>
        <time>2013-12-07T09:31:58Z</time>
      </trkpt>
      <trkpt lat="42.94651" lon="-0.19903">
        <ele>1254.9485379562</ele>
        <time>2013-12-07T09:32:03Z</time>
      </trkpt>
      <trkpt lat="42.94649" lon="-0.19908">
        <ele>1257.2702667805</ele>
        <time>2013-12-07T09:32:08Z</time>
      </trkpt>
      <trkpt lat="42.94647" lon="-0.19912">
        <ele>1257.2702667805</ele>
        <time>2013-12-07T09:32:12Z</time>
      </trkpt>
      <trkpt lat="42.94645" lon="-0.19917">
        <ele>1257.2702667805</ele>
        <time>2013-12-07T09:32:18Z</time>
      </trkpt>
      <trkpt lat="42.94644" lon="-0.19922">
        <ele>1259.3946960617</ele>
        <time>2013-12-07T09:32:22Z</time>
      </trkpt>
      <trkpt lat="42.94643" lon="-0.19926">
        <ele>1259.3946960617</ele>
        <time>2013-12-07T09:32:28Z</time>
      </trkpt>
      <trkpt lat="42.9464" lon="-0.19932">
        <ele>1259.3946960617</ele>
        <time>2013-12-07T09:32:33Z</time>
      </trkpt>
      <trkpt lat="42.94641" lon="-0.19936">
        <ele>1261.3629679192</ele>
        <time>2013-12-07T09:32:37Z</time>
      </trkpt>
      <trkpt lat="42.94639" lon="-0.1994">
        <ele>1261.3629679192</ele>
        <time>2013-12-07T09:32:43Z</time>
      </trkpt>
      <trkpt lat="42.94637" lon="-0.19943">
        <ele>1261.3629679192</ele>
        <time>2013-12-07T09:32:47Z</time>
      </trkpt>
      <trkpt lat="42.94635" lon="-0.19946">
        <ele>1263.1704339881</ele>
        <time>2013-12-07T09:32:53Z</time>
      </trkpt>
      <trkpt lat="42.94631" lon="-0.19949">
        <ele>1263.1704339881</ele>
        <time>2013-12-07T09:32:58Z</time>
      </trkpt>
      <trkpt lat="42.94628" lon="-0.19951">
        <ele>1263.1704339881</ele>
        <time>2013-12-07T09:33:02Z</time>
      </trkpt>
      <trkpt lat="42.94626" lon="-0.19951">
        <ele>1264.9286912484</ele>
        <time>2013-12-07T09:33:08Z</time>
      </trkpt>
      <trkpt lat="42.94622" lon="-0.1995">
        <ele>1264.9286912484</ele>
        <time>2013-12-07T09:33:13Z</time>
      </trkpt>
      <trkpt lat="42.9462" lon="-0.19948">
        <ele>1264.9286912484</ele>
        <time>2013-12-07T09:33:18Z</time>
      </trkpt>
      <trkpt lat="42.94619" lon="-0.19947">
        <ele>1264.9286912484</ele>
        <time>2013-12-07T09:33:23Z</time>
      </trkpt>
      <trkpt lat="42.94616" lon="-0.19945">
        <ele>1266.6547868533</ele>
        <time>2013-12-07T09:33:27Z</time>
      </trkpt>
      <trkpt lat="42.94612" lon="-0.19944">
        <ele>1266.6547868533</ele>
        <time>2013-12-07T09:33:33Z</time>
      </trkpt>
      <trkpt lat="42.94609" lon="-0.19942">
        <ele>1266.6547868533</ele>
        <time>2013-12-07T09:33:38Z</time>
      </trkpt>
      <trkpt lat="42.94607" lon="-0.19941">
        <ele>1268.3358203173</ele>
        <time>2013-12-07T09:33:43Z</time>
      </trkpt>
      <trkpt lat="42.94604" lon="-0.19938">
        <ele>1268.3358203173</ele>
        <time>2013-12-07T09:33:48Z</time>
      </trkpt>
      <trkpt lat="42.94601" lon="-0.19937">
        <ele>1268.3358203173</ele>
        <time>2013-12-07T09:33:52Z</time>
      </trkpt>
      <trkpt lat="42.94597" lon="-0.19937">
        <ele>1269.9744476953</ele>
        <time>2013-12-07T09:33:58Z</time>
      </trkpt>
      <trkpt lat="42.94593" lon="-0.19937">
        <ele>1269.9744476953</ele>
        <time>2013-12-07T09:34:02Z</time>
      </trkpt>
      <trkpt lat="42.9459" lon="-0.19935">
        <ele>1269.9744476953</ele>
        <time>2013-12-07T09:34:08Z</time>
      </trkpt>
      <trkpt lat="42.94587" lon="-0.19934">
        <ele>1271.5588839662</ele>
        <time>2013-12-07T09:34:13Z</time>
      </trkpt>
      <trkpt lat="42.94584" lon="-0.19933">
        <ele>1271.5588839662</ele>
        <time>2013-12-07T09:34:18Z</time>
      </trkpt>
      <trkpt lat="42.9458" lon="-0.19931">
        <ele>1271.5588839662</ele>
        <time>2013-12-07T09:34:23Z</time>
      </trkpt>
      <trkpt lat="42.94579" lon="-0.19929">
        <ele>1273.0495780811</ele>
        <time>2013-12-07T09:34:27Z</time>
      </trkpt>
      <trkpt lat="42.94577" lon="-0.19927">
        <ele>1273.0495780811</ele>
        <time>2013-12-07T09:34:33Z</time>
      </trkpt>
      <trkpt lat="42.94574" lon="-0.19927">
        <ele>1273.0495780811</ele>
        <time>2013-12-07T09:34:38Z</time>
      </trkpt>
      <trkpt lat="42.9457" lon="-0.19926">
        <ele>1274.5255557372</ele>
        <time>2013-12-07T09:34:42Z</time>
      </trkpt>
      <trkpt lat="42.94567" lon="-0.19924">
        <ele>1274.5255557372</ele>
        <time>2013-12-07T09:34:48Z</time>
      </trkpt>
      <trkpt lat="42.94564" lon="-0.19924">
        <ele>1274.5255557372</ele>
        <time>2013-12-07T09:34:52Z</time>
      </trkpt>
      <trkpt lat="42.9456" lon="-0.19924">
        <ele>1276.0168529255</ele>
        <time>2013-12-07T09:34:58Z</time>
      </trkpt>
      <trkpt lat="42.94557" lon="-0.19922">
        <ele>1276.0168529255</ele>
        <time>2013-12-07T09:35:02Z</time>
      </trkpt>
      <trkpt lat="42.94556" lon="-0.19922">
        <ele>1276.0168529255</ele>
        <time>2013-12-07T09:35:08Z</time>
      </trkpt>
      <trkpt lat="42.94551" lon="-0.19921">
        <ele>1277.4936224905</ele>
        <time>2013-12-07T09:35:13Z</time>
      </trkpt>
      <trkpt lat="42.94547" lon="-0.19918">
        <ele>1277.4936224905</ele>
        <time>2013-12-07T09:35:18Z</time>
      </trkpt>
      <trkpt lat="42.94543" lon="-0.19916">
        <ele>1277.4936224905</ele>
        <time>2013-12-07T09:35:23Z</time>
      </trkpt>
      <trkpt lat="42.9454" lon="-0.19914">
        <ele>1278.9859616028</ele>
        <time>2013-12-07T09:35:27Z</time>
      </trkpt>
      <trkpt lat="42.94536" lon="-0.19911">
        <ele>1278.9859616028</ele>
        <time>2013-12-07T09:35:33Z</time>
      </trkpt>
      <trkpt lat="42.94534" lon="-0.19909">
        <ele>1278.9859616028</ele>
        <time>2013-12-07T09:35:38Z</time>
      </trkpt>
      <trkpt lat="42.94531" lon="-0.19906">
        <ele>1280.5505742601</ele>
        <time>2013-12-07T09:35:43Z</time>
      </trkpt>
      <trkpt lat="42.94528" lon="-0.19906">
        <ele>1280.5505742601</ele>
        <time>2013-12-07T09:35:47Z</time>
      </trkpt>
      <trkpt lat="42.94528" lon="-0.19906">
        <ele>1280.5505742601</ele>
        <time>2013-12-07T09:35:52Z</time>
      </trkpt>
      <trkpt lat="42.94524" lon="-0.19908">
        <ele>1280.5505742601</ele>
        <time>2013-12-07T09:36:02Z</time>
      </trkpt>
      <trkpt lat="42.94521" lon="-0.19909">
        <ele>1282.1100806085</ele>
        <time>2013-12-07T09:36:07Z</time>
      </trkpt>
      <trkpt lat="42.94518" lon="-0.19909">
        <ele>1282.1100806085</ele>
        <time>2013-12-07T09:36:13Z</time>
      </trkpt>
      <trkpt lat="42.94514" lon="-0.1991">
        <ele>1282.1100806085</ele>
        <time>2013-12-07T09:36:18Z</time>
      </trkpt>
      <trkpt lat="42.9451" lon="-0.19911">
        <ele>1283.578427268</ele>
        <time>2013-12-07T09:36:23Z</time>
      </trkpt>
      <trkpt lat="42.94506" lon="-0.19911">
        <ele>1283.578427268</ele>
        <time>2013-12-07T09:36:28Z</time>
      </trkpt>
      <trkpt lat="42.94504" lon="-0.19912">
        <ele>1283.578427268</ele>
        <time>2013-12-07T09:36:33Z</time>
      </trkpt>
      <trkpt lat="42.94504" lon="-0.19913">
        <ele>1283.578427268</ele>
        <time>2013-12-07T09:36:38Z</time>
      </trkpt>
      <trkpt lat="42.945" lon="-0.19915">
        <ele>1285.2077050132</ele>
        <time>2013-12-07T09:36:43Z</time>
      </trkpt>
      <trkpt lat="42.94497" lon="-0.19919">
        <ele>1285.2077050132</ele>
        <time>2013-12-07T09:36:48Z</time>
      </trkpt>
      <trkpt lat="42.94495" lon="-0.19922">
        <ele>1285.2077050132</ele>
        <time>2013-12-07T09:36:53Z</time>
      </trkpt>
      <trkpt lat="42.94493" lon="-0.19926">
        <ele>1286.8706810362</ele>
        <time>2013-12-07T09:36:58Z</time>
      </trkpt>
      <trkpt lat="42.94492" lon="-0.19929">
        <ele>1286.8706810362</ele>
        <time>2013-12-07T09:37:03Z</time>
      </trkpt>
      <trkpt lat="42.94491" lon="-0.19932">
        <ele>1286.8706810362</ele>
        <time>2013-12-07T09:37:07Z</time>
      </trkpt>
      <trkpt lat="42.9449" lon="-0.19933">
        <ele>1286.8706810362</ele>
        <time>2013-12-07T09:37:13Z</time>
      </trkpt>
      <trkpt lat="42.94487" lon="-0.19938">
        <ele>1288.5503079376</ele>
        <time>2013-12-07T09:37:18Z</time>
      </trkpt>
      <trkpt lat="42.94485" lon="-0.19941">
        <ele>1288.5503079376</ele>
        <time>2013-12-07T09:37:23Z</time>
      </trkpt>
      <trkpt lat="42.94483" lon="-0.19945">
        <ele>1288.5503079376</ele>
        <time>2013-12-07T09:37:28Z</time>
      </trkpt>
      <trkpt lat="42.94481" lon="-0.19949">
        <ele>1290.1731156273</ele>
        <time>2013-12-07T09:37:32Z</time>
      </trkpt>
      <trkpt lat="42.9448" lon="-0.19953">
        <ele>1290.1731156273</ele>
        <time>2013-12-07T09:37:38Z</time>
      </trkpt>
      <trkpt lat="42.94479" lon="-0.19956">
        <ele>1290.1731156273</ele>
        <time>2013-12-07T09:37:43Z</time>
      </trkpt>
      <trkpt lat="42.94479" lon="-0.19957">
        <ele>1290.1731156273</ele>
        <time>2013-12-07T09:37:48Z</time>
      </trkpt>
      <trkpt lat="42.94478" lon="-0.19961">
        <ele>1291.8009305488</ele>
        <time>2013-12-07T09:37:53Z</time>
      </trkpt>
      <trkpt lat="42.94475" lon="-0.19962">
        <ele>1291.8009305488</ele>
        <time>2013-12-07T09:37:57Z</time>
      </trkpt>
      <trkpt lat="42.94471" lon="-0.19966">
        <ele>1291.8009305488</ele>
        <time>2013-12-07T09:38:03Z</time>
      </trkpt>
      <trkpt lat="42.94468" lon="-0.19968">
        <ele>1293.361325509</ele>
        <time>2013-12-07T09:38:08Z</time>
      </trkpt>
      <trkpt lat="42.94467" lon="-0.19969">
        <ele>1293.361325509</ele>
        <time>2013-12-07T09:38:13Z</time>
      </trkpt>
      <trkpt lat="42.94464" lon="-0.19973">
        <ele>1293.361325509</ele>
        <time>2013-12-07T09:38:43Z</time>
      </trkpt>
      <trkpt lat="42.9446" lon="-0.19975">
        <ele>1295.1909426039</ele>
        <time>2013-12-07T09:38:47Z</time>
      </trkpt>
      <trkpt lat="42.94458" lon="-0.19976">
        <ele>1295.1909426039</ele>
        <time>2013-12-07T09:38:53Z</time>
      </trkpt>
      <trkpt lat="42.94456" lon="-0.19978">
        <ele>1295.1909426039</ele>
        <time>2013-12-07T09:38:57Z</time>
      </trkpt>
      <trkpt lat="42.94452" lon="-0.19981">
        <ele>1296.8947559367</ele>
        <time>2013-12-07T09:39:03Z</time>
      </trkpt>
      <trkpt lat="42.9445" lon="-0.19982">
        <ele>1296.8947559367</ele>
        <time>2013-12-07T09:39:08Z</time>
      </trkpt>
      <trkpt lat="42.94448" lon="-0.19983">
        <ele>1296.8947559367</ele>
        <time>2013-12-07T09:39:13Z</time>
      </trkpt>
      <trkpt lat="42.94445" lon="-0.19985">
        <ele>1296.8947559367</ele>
        <time>2013-12-07T09:39:18Z</time>
      </trkpt>
      <trkpt lat="42.94442" lon="-0.19987">
        <ele>1298.5683204254</ele>
        <time>2013-12-07T09:39:23Z</time>
      </trkpt>
      <trkpt lat="42.94439" lon="-0.1999">
        <ele>1298.5683204254</ele>
        <time>2013-12-07T09:39:27Z</time>
      </trkpt>
      <trkpt lat="42.94436" lon="-0.19992">
        <ele>1298.5683204254</ele>
        <time>2013-12-07T09:39:33Z</time>
      </trkpt>
      <trkpt lat="42.94432" lon="-0.19995">
        <ele>1300.1993854733</ele>
        <time>2013-12-07T09:39:38Z</time>
      </trkpt>
      <trkpt lat="42.94427" lon="-0.19998">
        <ele>1300.1993854733</ele>
        <time>2013-12-07T09:39:42Z</time>
      </trkpt>
      <trkpt lat="42.94424" lon="-0.20002">
        <ele>1301.7190875287</ele>
        <time>2013-12-07T09:39:48Z</time>
      </trkpt>
      <trkpt lat="42.94422" lon="-0.20005">
        <ele>1301.7190875287</ele>
        <time>2013-12-07T09:39:53Z</time>
      </trkpt>
      <trkpt lat="42.94419" lon="-0.20008">
        <ele>1301.7190875287</ele>
        <time>2013-12-07T09:39:58Z</time>
      </trkpt>
      <trkpt lat="42.94417" lon="-0.20011">
        <ele>1303.2224722905</ele>
        <time>2013-12-07T09:40:03Z</time>
      </trkpt>
      <trkpt lat="42.94413" lon="-0.20014">
        <ele>1303.2224722905</ele>
        <time>2013-12-07T09:40:08Z</time>
      </trkpt>
      <trkpt lat="42.94411" lon="-0.20018">
        <ele>1303.2224722905</ele>
        <time>2013-12-07T09:40:13Z</time>
      </trkpt>
      <trkpt lat="42.94409" lon="-0.20021">
        <ele>1304.6967784138</ele>
        <time>2013-12-07T09:40:17Z</time>
      </trkpt>
      <trkpt lat="42.94407" lon="-0.20023">
        <ele>1304.6967784138</ele>
        <time>2013-12-07T09:40:23Z</time>
      </trkpt>
      <trkpt lat="42.94403" lon="-0.20026">
        <ele>1304.6967784138</ele>
        <time>2013-12-07T09:40:28Z</time>
      </trkpt>
      <trkpt lat="42.944" lon="-0.20029">
        <ele>1306.2023284445</ele>
        <time>2013-12-07T09:40:33Z</time>
      </trkpt>
      <trkpt lat="42.94398" lon="-0.2003">
        <ele>1306.2023284445</ele>
        <time>2013-12-07T09:40:38Z</time>
      </trkpt>
      <trkpt lat="42.94396" lon="-0.20033">
        <ele>1306.2023284445</ele>
        <time>2013-12-07T09:40:42Z</time>
      </trkpt>
      <trkpt lat="42.94394" lon="-0.20035">
        <ele>1306.2023284445</ele>
        <time>2013-12-07T09:40:48Z</time>
      </trkpt>
      <trkpt lat="42.94395" lon="-0.20035">
        <ele>1306.2023284445</ele>
        <time>2013-12-07T09:40:52Z</time>
      </trkpt>
      <trkpt lat="42.94392" lon="-0.20041">
        <ele>1308.1119803107</ele>
        <time>2013-12-07T09:41:08Z</time>
      </trkpt>
      <trkpt lat="42.9439" lon="-0.20043">
        <ele>1308.1119803107</ele>
        <time>2013-12-07T09:41:12Z</time>
      </trkpt>
      <trkpt lat="42.94388" lon="-0.20045">
        <ele>1308.1119803107</ele>
        <time>2013-12-07T09:41:17Z</time>
      </trkpt>
      <trkpt lat="42.94385" lon="-0.20049">
        <ele>1309.9053989667</ele>
        <time>2013-12-07T09:41:23Z</time>
      </trkpt>
      <trkpt lat="42.94382" lon="-0.20052">
        <ele>1309.9053989667</ele>
        <time>2013-12-07T09:41:28Z</time>
      </trkpt>
      <trkpt lat="42.9438" lon="-0.20055">
        <ele>1309.9053989667</ele>
        <time>2013-12-07T09:41:33Z</time>
      </trkpt>
      <trkpt lat="42.94377" lon="-0.20057">
        <ele>1311.6340220526</ele>
        <time>2013-12-07T09:41:38Z</time>
      </trkpt>
      <trkpt lat="42.94375" lon="-0.20059">
        <ele>1311.6340220526</ele>
        <time>2013-12-07T09:41:42Z</time>
      </trkpt>
      <trkpt lat="42.94373" lon="-0.20061">
        <ele>1311.6340220526</ele>
        <time>2013-12-07T09:41:48Z</time>
      </trkpt>
      <trkpt lat="42.94373" lon="-0.20064">
        <ele>1311.6340220526</ele>
        <time>2013-12-07T09:41:53Z</time>
      </trkpt>
      <trkpt lat="42.94373" lon="-0.20068">
        <ele>1313.1871718531</ele>
        <time>2013-12-07T09:41:58Z</time>
      </trkpt>
      <trkpt lat="42.94372" lon="-0.20069">
        <ele>1313.1871718531</ele>
        <time>2013-12-07T09:42:03Z</time>
      </trkpt>
      <trkpt lat="42.94372" lon="-0.20069">
        <ele>1313.1871718531</ele>
        <time>2013-12-07T09:42:07Z</time>
      </trkpt>
      <trkpt lat="42.94367" lon="-0.20074">
        <ele>1313.1871718531</ele>
        <time>2013-12-07T09:42:28Z</time>
      </trkpt>
      <trkpt lat="42.94364" lon="-0.20076">
        <ele>1314.9095486324</ele>
        <time>2013-12-07T09:42:33Z</time>
      </trkpt>
      <trkpt lat="42.94361" lon="-0.20078">
        <ele>1314.9095486324</ele>
        <time>2013-12-07T09:42:38Z</time>
      </trkpt>
      <trkpt lat="42.94358" lon="-0.2008">
        <ele>1314.9095486324</ele>
        <time>2013-12-07T09:42:43Z</time>
      </trkpt>
      <trkpt lat="42.94354" lon="-0.2008">
        <ele>1316.5436104512</ele>
        <time>2013-12-07T09:42:48Z</time>
      </trkpt>
      <trkpt lat="42.94352" lon="-0.20082">
        <ele>1316.5436104512</ele>
        <time>2013-12-07T09:42:53Z</time>
      </trkpt>
      <trkpt lat="42.94351" lon="-0.20084">
        <ele>1316.5436104512</ele>
        <time>2013-12-07T09:42:57Z</time>
      </trkpt>
      <trkpt lat="42.9435" lon="-0.2009">
        <ele>1316.5436104512</ele>
        <time>2013-12-07T09:43:03Z</time>
      </trkpt>
      <trkpt lat="42.9435" lon="-0.20094">
        <ele>1318.1968578293</ele>
        <time>2013-12-07T09:43:08Z</time>
      </trkpt>
      <trkpt lat="42.94349" lon="-0.20096">
        <ele>1318.1968578293</ele>
        <time>2013-12-07T09:43:12Z</time>
      </trkpt>
      <trkpt lat="42.94347" lon="-0.20099">
        <ele>1318.1968578293</ele>
        <time>2013-12-07T09:43:18Z</time>
      </trkpt>
      <trkpt lat="42.94345" lon="-0.20101">
        <ele>1318.1968578293</ele>
        <time>2013-12-07T09:43:23Z</time>
      </trkpt>
      <trkpt lat="42.94343" lon="-0.20104">
        <ele>1320.0264909533</ele>
        <time>2013-12-07T09:43:28Z</time>
      </trkpt>
      <trkpt lat="42.94338" lon="-0.20105">
        <ele>1320.0264909533</ele>
        <time>2013-12-07T09:43:33Z</time>
      </trkpt>
      <trkpt lat="42.94337" lon="-0.20108">
        <ele>1320.0264909533</ele>
        <time>2013-12-07T09:43:38Z</time>
      </trkpt>
      <trkpt lat="42.94336" lon="-0.20107">
        <ele>1320.0264909533</ele>
        <time>2013-12-07T09:43:43Z</time>
      </trkpt>
      <trkpt lat="42.94336" lon="-0.2011">
        <ele>1322.1776730021</ele>
        <time>2013-12-07T09:44:03Z</time>
      </trkpt>
      <trkpt lat="42.94335" lon="-0.20115">
        <ele>1322.1776730021</ele>
        <time>2013-12-07T09:44:08Z</time>
      </trkpt>
      <trkpt lat="42.94334" lon="-0.2012">
        <ele>1322.1776730021</ele>
        <time>2013-12-07T09:44:12Z</time>
      </trkpt>
      <trkpt lat="42.94333" lon="-0.20124">
        <ele>1324.2796082692</ele>
        <time>2013-12-07T09:44:18Z</time>
      </trkpt>
      <trkpt lat="42.94331" lon="-0.20128">
        <ele>1324.2796082692</ele>
        <time>2013-12-07T09:44:23Z</time>
      </trkpt>
      <trkpt lat="42.9433" lon="-0.2013">
        <ele>1324.2796082692</ele>
        <time>2013-12-07T09:44:27Z</time>
      </trkpt>
      <trkpt lat="42.94327" lon="-0.20134">
        <ele>1324.2796082692</ele>
        <time>2013-12-07T09:44:33Z</time>
      </trkpt>
      <trkpt lat="42.94326" lon="-0.20136">
        <ele>1326.4212275637</ele>
        <time>2013-12-07T09:44:38Z</time>
      </trkpt>
      <trkpt lat="42.94323" lon="-0.2014">
        <ele>1326.4212275637</ele>
        <time>2013-12-07T09:44:43Z</time>
      </trkpt>
      <trkpt lat="42.94321" lon="-0.20142">
        <ele>1326.4212275637</ele>
        <time>2013-12-07T09:44:47Z</time>
      </trkpt>
      <trkpt lat="42.94317" lon="-0.20141">
        <ele>1328.5263026025</ele>
        <time>2013-12-07T09:44:52Z</time>
      </trkpt>
      <trkpt lat="42.94313" lon="-0.20141">
        <ele>1328.5263026025</ele>
        <time>2013-12-07T09:44:58Z</time>
      </trkpt>
      <trkpt lat="42.9431" lon="-0.20141">
        <ele>1328.5263026025</ele>
        <time>2013-12-07T09:45:03Z</time>
      </trkpt>
      <trkpt lat="42.94307" lon="-0.20139">
        <ele>1330.6252010832</ele>
        <time>2013-12-07T09:45:08Z</time>
      </trkpt>
      <trkpt lat="42.94306" lon="-0.20138">
        <ele>1330.6252010832</ele>
        <time>2013-12-07T09:45:12Z</time>
      </trkpt>
      <trkpt lat="42.94304" lon="-0.20138">
        <ele>1330.6252010832</ele>
        <time>2013-12-07T09:45:18Z</time>
      </trkpt>
      <trkpt lat="42.94303" lon="-0.20141">
        <ele>1330.6252010832</ele>
        <time>2013-12-07T09:45:53Z</time>
      </trkpt>
      <trkpt lat="42.94302" lon="-0.20138">
        <ele>1333.1352040189</ele>
        <time>2013-12-07T09:46:00Z</time>
      </trkpt>
      <trkpt lat="42.94299" lon="-0.20136">
        <ele>1333.1352040189</ele>
        <time>2013-12-07T09:46:02Z</time>
      </trkpt>
      <trkpt lat="42.94295" lon="-0.20134">
        <ele>1333.1352040189</ele>
        <time>2013-12-07T09:46:08Z</time>
      </trkpt>
      <trkpt lat="42.94293" lon="-0.20134">
        <ele>1335.5915281586</ele>
        <time>2013-12-07T09:46:13Z</time>
      </trkpt>
      <trkpt lat="42.9429" lon="-0.20134">
        <ele>1335.5915281586</ele>
        <time>2013-12-07T09:46:18Z</time>
      </trkpt>
      <trkpt lat="42.94286" lon="-0.20133">
        <ele>1335.5915281586</ele>
        <time>2013-12-07T09:46:22Z</time>
      </trkpt>
      <trkpt lat="42.94283" lon="-0.20132">
        <ele>1337.9816406335</ele>
        <time>2013-12-07T09:46:28Z</time>
      </trkpt>
      <trkpt lat="42.94281" lon="-0.2013">
        <ele>1337.9816406335</ele>
        <time>2013-12-07T09:46:33Z</time>
      </trkpt>
      <trkpt lat="42.94278" lon="-0.20128">
        <ele>1337.9816406335</ele>
        <time>2013-12-07T09:46:37Z</time>
      </trkpt>
      <trkpt lat="42.94275" lon="-0.20126">
        <ele>1340.2509080305</ele>
        <time>2013-12-07T09:46:43Z</time>
      </trkpt>
      <trkpt lat="42.94272" lon="-0.20123">
        <ele>1340.2509080305</ele>
        <time>2013-12-07T09:46:48Z</time>
      </trkpt>
      <trkpt lat="42.94267" lon="-0.20122">
        <ele>1340.2509080305</ele>
        <time>2013-12-07T09:46:53Z</time>
      </trkpt>
      <trkpt lat="42.94264" lon="-0.2012">
        <ele>1342.4211375787</ele>
        <time>2013-12-07T09:46:58Z</time>
      </trkpt>
      <trkpt lat="42.9426" lon="-0.20117">
        <ele>1342.4211375787</ele>
        <time>2013-12-07T09:47:02Z</time>
      </trkpt>
      <trkpt lat="42.94257" lon="-0.20116">
        <ele>1342.4211375787</ele>
        <time>2013-12-07T09:47:08Z</time>
      </trkpt>
      <trkpt lat="42.94253" lon="-0.20114">
        <ele>1344.5993142063</ele>
        <time>2013-12-07T09:47:13Z</time>
      </trkpt>
      <trkpt lat="42.94252" lon="-0.20113">
        <ele>1344.5993142063</ele>
        <time>2013-12-07T09:47:18Z</time>
      </trkpt>
      <trkpt lat="42.94253" lon="-0.20113">
        <ele>1344.5993142063</ele>
        <time>2013-12-07T09:47:23Z</time>
      </trkpt>
      <trkpt lat="42.9425" lon="-0.20111">
        <ele>1344.5993142063</ele>
        <time>2013-12-07T09:47:38Z</time>
      </trkpt>
      <trkpt lat="42.94246" lon="-0.20111">
        <ele>1344.5993142063</ele>
        <time>2013-12-07T09:47:43Z</time>
      </trkpt>
      <trkpt lat="42.94244" lon="-0.20109">
        <ele>1346.9278102172</ele>
        <time>2013-12-07T09:47:48Z</time>
      </trkpt>
      <trkpt lat="42.9424" lon="-0.20107">
        <ele>1346.9278102172</ele>
        <time>2013-12-07T09:47:53Z</time>
      </trkpt>
      <trkpt lat="42.94237" lon="-0.20104">
        <ele>1346.9278102172</ele>
        <time>2013-12-07T09:47:58Z</time>
      </trkpt>
      <trkpt lat="42.94236" lon="-0.201">
        <ele>1349.1634555751</ele>
        <time>2013-12-07T09:48:02Z</time>
      </trkpt>
      <trkpt lat="42.94233" lon="-0.20098">
        <ele>1349.1634555751</ele>
        <time>2013-12-07T09:48:08Z</time>
      </trkpt>
      <trkpt lat="42.94229" lon="-0.20097">
        <ele>1349.1634555751</ele>
        <time>2013-12-07T09:48:13Z</time>
      </trkpt>
      <trkpt lat="42.94227" lon="-0.20095">
        <ele>1351.2685905457</ele>
        <time>2013-12-07T09:48:17Z</time>
      </trkpt>
      <trkpt lat="42.94223" lon="-0.20095">
        <ele>1351.2685905457</ele>
        <time>2013-12-07T09:48:23Z</time>
      </trkpt>
      <trkpt lat="42.94219" lon="-0.20094">
        <ele>1351.2685905457</ele>
        <time>2013-12-07T09:48:28Z</time>
      </trkpt>
      <trkpt lat="42.94217" lon="-0.20093">
        <ele>1353.3240169792</ele>
        <time>2013-12-07T09:48:32Z</time>
      </trkpt>
      <trkpt lat="42.94213" lon="-0.20091">
        <ele>1353.3240169792</ele>
        <time>2013-12-07T09:48:38Z</time>
      </trkpt>
      <trkpt lat="42.9421" lon="-0.2009">
        <ele>1353.3240169792</ele>
        <time>2013-12-07T09:48:42Z</time>
      </trkpt>
      <trkpt lat="42.94206" lon="-0.20089">
        <ele>1355.332720689</ele>
        <time>2013-12-07T09:48:48Z</time>
      </trkpt>
      <trkpt lat="42.94204" lon="-0.20088">
        <ele>1355.332720689</ele>
        <time>2013-12-07T09:48:53Z</time>
      </trkpt>
      <trkpt lat="42.94201" lon="-0.20086">
        <ele>1355.332720689</ele>
        <time>2013-12-07T09:48:58Z</time>
      </trkpt>
      <trkpt lat="42.94197" lon="-0.20084">
        <ele>1357.3120474019</ele>
        <time>2013-12-07T09:49:03Z</time>
      </trkpt>
      <trkpt lat="42.94196" lon="-0.20084">
        <ele>1357.3120474019</ele>
        <time>2013-12-07T09:49:07Z</time>
      </trkpt>
      <trkpt lat="42.94195" lon="-0.20086">
        <ele>1357.3120474019</ele>
        <time>2013-12-07T09:49:13Z</time>
      </trkpt>
      <trkpt lat="42.94195" lon="-0.20088">
        <ele>1357.3120474019</ele>
        <time>2013-12-07T09:49:18Z</time>
      </trkpt>
      <trkpt lat="42.94194" lon="-0.2009">
        <ele>1357.3120474019</ele>
        <time>2013-12-07T09:49:22Z</time>
      </trkpt>
      <trkpt lat="42.94193" lon="-0.20095">
        <ele>1360.0419889806</ele>
        <time>2013-12-07T09:49:58Z</time>
      </trkpt>
      <trkpt lat="42.94191" lon="-0.20095">
        <ele>1360.0419889806</ele>
        <time>2013-12-07T09:50:03Z</time>
      </trkpt>
      <trkpt lat="42.94188" lon="-0.20092">
        <ele>1360.0419889806</ele>
        <time>2013-12-07T09:50:08Z</time>
      </trkpt>
      <trkpt lat="42.94186" lon="-0.20088">
        <ele>1362.629098767</ele>
        <time>2013-12-07T09:50:12Z</time>
      </trkpt>
      <trkpt lat="42.94184" lon="-0.20085">
        <ele>1362.629098767</ele>
        <time>2013-12-07T09:50:18Z</time>
      </trkpt>
      <trkpt lat="42.94182" lon="-0.20082">
        <ele>1362.629098767</ele>
        <time>2013-12-07T09:50:22Z</time>
      </trkpt>
      <trkpt lat="42.94182" lon="-0.20081">
        <ele>1362.629098767</ele>
        <time>2013-12-07T09:50:28Z</time>
      </trkpt>
      <trkpt lat="42.94182" lon="-0.20078">
        <ele>1365.0818624867</ele>
        <time>2013-12-07T09:50:33Z</time>
      </trkpt>
      <trkpt lat="42.9418" lon="-0.20075">
        <ele>1365.0818624867</ele>
        <time>2013-12-07T09:50:38Z</time>
      </trkpt>
      <trkpt lat="42.94179" lon="-0.20071">
        <ele>1365.0818624867</ele>
        <time>2013-12-07T09:50:43Z</time>
      </trkpt>
      <trkpt lat="42.94176" lon="-0.20068">
        <ele>1367.4662053954</ele>
        <time>2013-12-07T09:50:48Z</time>
      </trkpt>
      <trkpt lat="42.94174" lon="-0.20064">
        <ele>1367.4662053954</ele>
        <time>2013-12-07T09:50:53Z</time>
      </trkpt>
      <trkpt lat="42.94173" lon="-0.2006">
        <ele>1367.4662053954</ele>
        <time>2013-12-07T09:50:58Z</time>
      </trkpt>
      <trkpt lat="42.94172" lon="-0.20056">
        <ele>1369.8002106715</ele>
        <time>2013-12-07T09:51:03Z</time>
      </trkpt>
      <trkpt lat="42.9417" lon="-0.20052">
        <ele>1369.8002106715</ele>
        <time>2013-12-07T09:51:08Z</time>
      </trkpt>
      <trkpt lat="42.9417" lon="-0.2005">
        <ele>1369.8002106715</ele>
        <time>2013-12-07T09:51:13Z</time>
      </trkpt>
      <trkpt lat="42.94167" lon="-0.20048">
        <ele>1369.8002106715</ele>
        <time>2013-12-07T09:51:18Z</time>
      </trkpt>
      <trkpt lat="42.94166" lon="-0.20047">
        <ele>1372.2593421729</ele>
        <time>2013-12-07T09:51:23Z</time>
      </trkpt>
      <trkpt lat="42.94164" lon="-0.20044">
        <ele>1372.2593421729</ele>
        <time>2013-12-07T09:51:28Z</time>
      </trkpt>
      <trkpt lat="42.94162" lon="-0.20042">
        <ele>1372.2593421729</ele>
        <time>2013-12-07T09:51:33Z</time>
      </trkpt>
      <trkpt lat="42.94161" lon="-0.20041">
        <ele>1372.2593421729</ele>
        <time>2013-12-07T09:51:38Z</time>
      </trkpt>
      <trkpt lat="42.94156" lon="-0.2004">
        <ele>1374.9914567715</ele>
        <time>2013-12-07T09:52:08Z</time>
      </trkpt>
      <trkpt lat="42.94154" lon="-0.20038">
        <ele>1374.9914567715</ele>
        <time>2013-12-07T09:52:13Z</time>
      </trkpt>
      <trkpt lat="42.9415" lon="-0.20036">
        <ele>1374.9914567715</ele>
        <time>2013-12-07T09:52:18Z</time>
      </trkpt>
      <trkpt lat="42.94147" lon="-0.20036">
        <ele>1377.5275592751</ele>
        <time>2013-12-07T09:52:23Z</time>
      </trkpt>
      <trkpt lat="42.94145" lon="-0.20034">
        <ele>1377.5275592751</ele>
        <time>2013-12-07T09:52:28Z</time>
      </trkpt>
      <trkpt lat="42.94143" lon="-0.20033">
        <ele>1377.5275592751</ele>
        <time>2013-12-07T09:52:33Z</time>
      </trkpt>
      <trkpt lat="42.94139" lon="-0.20032">
        <ele>1377.5275592751</ele>
        <time>2013-12-07T09:52:38Z</time>
      </trkpt>
      <trkpt lat="42.94137" lon="-0.20032">
        <ele>1380.1542665125</ele>
        <time>2013-12-07T09:52:42Z</time>
      </trkpt>
      <trkpt lat="42.94136" lon="-0.20033">
        <ele>1380.1542665125</ele>
        <time>2013-12-07T09:52:48Z</time>
      </trkpt>
      <trkpt lat="42.94136" lon="-0.20033">
        <ele>1380.1542665125</ele>
        <time>2013-12-07T09:52:52Z</time>
      </trkpt>
      <trkpt lat="42.94135" lon="-0.20036">
        <ele>1380.1542665125</ele>
        <time>2013-12-07T09:52:58Z</time>
      </trkpt>
      <trkpt lat="42.94134" lon="-0.2004">
        <ele>1380.1542665125</ele>
        <time>2013-12-07T09:53:03Z</time>
      </trkpt>
      <trkpt lat="42.94133" lon="-0.20043">
        <ele>1382.8919453613</ele>
        <time>2013-12-07T09:53:08Z</time>
      </trkpt>
      <trkpt lat="42.94133" lon="-0.20048">
        <ele>1382.8919453613</ele>
        <time>2013-12-07T09:53:13Z</time>
      </trkpt>
      <trkpt lat="42.94132" lon="-0.20053">
        <ele>1382.8919453613</ele>
        <time>2013-12-07T09:53:17Z</time>
      </trkpt>
      <trkpt lat="42.94131" lon="-0.20057">
        <ele>1385.6295067343</ele>
        <time>2013-12-07T09:53:23Z</time>
      </trkpt>
      <trkpt lat="42.94132" lon="-0.20061">
        <ele>1385.6295067343</ele>
        <time>2013-12-07T09:53:28Z</time>
      </trkpt>
      <trkpt lat="42.94132" lon="-0.20062">
        <ele>1385.6295067343</ele>
        <time>2013-12-07T09:53:33Z</time>
      </trkpt>
      <trkpt lat="42.94133" lon="-0.20067">
        <ele>1385.6295067343</ele>
        <time>2013-12-07T09:53:48Z</time>
      </trkpt>
      <trkpt lat="42.94133" lon="-0.20071">
        <ele>1388.5234778</ele>
        <time>2013-12-07T09:53:53Z</time>
      </trkpt>
      <trkpt lat="42.94135" lon="-0.20076">
        <ele>1388.5234778</ele>
        <time>2013-12-07T09:53:58Z</time>
      </trkpt>
      <trkpt lat="42.94135" lon="-0.2008">
        <ele>1388.5234778</ele>
        <time>2013-12-07T09:54:03Z</time>
      </trkpt>
      <trkpt lat="42.94136" lon="-0.20081">
        <ele>1388.5234778</ele>
        <time>2013-12-07T09:54:07Z</time>
      </trkpt>
      <trkpt lat="42.94135" lon="-0.20085">
        <ele>1392.7849323787</ele>
        <time>2013-12-07T10:04:18Z</time>
      </trkpt>
      <trkpt lat="42.94135" lon="-0.20085">
        <ele>1392.7849323787</ele>
        <time>2013-12-07T10:04:23Z</time>
      </trkpt>
      <trkpt lat="42.94132" lon="-0.20081">
        <ele>1392.7849323787</ele>
        <time>2013-12-07T10:04:28Z</time>
      </trkpt>
      <trkpt lat="42.9413" lon="-0.20079">
        <ele>1392.7849323787</ele>
        <time>2013-12-07T10:04:33Z</time>
      </trkpt>
      <trkpt lat="42.9413" lon="-0.20078">
        <ele>1392.7849323787</ele>
        <time>2013-12-07T10:04:37Z</time>
      </trkpt>
      <trkpt lat="42.94128" lon="-0.20075">
        <ele>1396.5490978624</ele>
        <time>2013-12-07T10:04:43Z</time>
      </trkpt>
      <trkpt lat="42.94128" lon="-0.20074">
        <ele>1396.5490978624</ele>
        <time>2013-12-07T10:04:48Z</time>
      </trkpt>
      <trkpt lat="42.94127" lon="-0.20072">
        <ele>1396.5490978624</ele>
        <time>2013-12-07T10:04:53Z</time>
      </trkpt>
      <trkpt lat="42.94125" lon="-0.20069">
        <ele>1396.5490978624</ele>
        <time>2013-12-07T10:04:58Z</time>
      </trkpt>
      <trkpt lat="42.94123" lon="-0.20066">
        <ele>1396.5490978624</ele>
        <time>2013-12-07T10:05:03Z</time>
      </trkpt>
      <trkpt lat="42.94121" lon="-0.20062">
        <ele>1399.8622265935</ele>
        <time>2013-12-07T10:05:08Z</time>
      </trkpt>
      <trkpt lat="42.94118" lon="-0.2006">
        <ele>1399.8622265935</ele>
        <time>2013-12-07T10:05:12Z</time>
      </trkpt>
      <trkpt lat="42.94117" lon="-0.20057">
        <ele>1399.8622265935</ele>
        <time>2013-12-07T10:05:18Z</time>
      </trkpt>
      <trkpt lat="42.94117" lon="-0.20055">
        <ele>1399.8622265935</ele>
        <time>2013-12-07T10:05:22Z</time>
      </trkpt>
      <trkpt lat="42.94115" lon="-0.2005">
        <ele>1402.9270384578</ele>
        <time>2013-12-07T10:05:28Z</time>
      </trkpt>
      <trkpt lat="42.94114" lon="-0.20046">
        <ele>1402.9270384578</ele>
        <time>2013-12-07T10:05:33Z</time>
      </trkpt>
      <trkpt lat="42.94112" lon="-0.20041">
        <ele>1402.9270384578</ele>
        <time>2013-12-07T10:05:38Z</time>
      </trkpt>
      <trkpt lat="42.94111" lon="-0.20039">
        <ele>1402.9270384578</ele>
        <time>2013-12-07T10:05:43Z</time>
      </trkpt>
      <trkpt lat="42.94111" lon="-0.20034">
        <ele>1405.8168518486</ele>
        <time>2013-12-07T10:05:47Z</time>
      </trkpt>
      <trkpt lat="42.9411" lon="-0.2003">
        <ele>1405.8168518486</ele>
        <time>2013-12-07T10:05:53Z</time>
      </trkpt>
      <trkpt lat="42.94109" lon="-0.20027">
        <ele>1405.8168518486</ele>
        <time>2013-12-07T10:05:58Z</time>
      </trkpt>
      <trkpt lat="42.94108" lon="-0.20023">
        <ele>1405.8168518486</ele>
        <time>2013-12-07T10:06:03Z</time>
      </trkpt>
      <trkpt lat="42.94107" lon="-0.20021">
        <ele>1408.5281194309</ele>
        <time>2013-12-07T10:06:08Z</time>
      </trkpt>
      <trkpt lat="42.94106" lon="-0.20018">
        <ele>1408.5281194309</ele>
        <time>2013-12-07T10:06:13Z</time>
      </trkpt>
      <trkpt lat="42.94105" lon="-0.20016">
        <ele>1408.5281194309</ele>
        <time>2013-12-07T10:06:17Z</time>
      </trkpt>
      <trkpt lat="42.94103" lon="-0.20014">
        <ele>1408.5281194309</ele>
        <time>2013-12-07T10:06:22Z</time>
      </trkpt>
      <trkpt lat="42.94101" lon="-0.2001">
        <ele>1411.1590179903</ele>
        <time>2013-12-07T10:06:28Z</time>
      </trkpt>
      <trkpt lat="42.94098" lon="-0.20007">
        <ele>1411.1590179903</ele>
        <time>2013-12-07T10:06:33Z</time>
      </trkpt>
      <trkpt lat="42.94096" lon="-0.20005">
        <ele>1411.1590179903</ele>
        <time>2013-12-07T10:06:38Z</time>
      </trkpt>
      <trkpt lat="42.94094" lon="-0.20002">
        <ele>1413.5846536821</ele>
        <time>2013-12-07T10:06:43Z</time>
      </trkpt>
      <trkpt lat="42.94091" lon="-0.19999">
        <ele>1413.5846536821</ele>
        <time>2013-12-07T10:06:48Z</time>
      </trkpt>
      <trkpt lat="42.94091" lon="-0.19995">
        <ele>1413.5846536821</ele>
        <time>2013-12-07T10:06:53Z</time>
      </trkpt>
      <trkpt lat="42.9409" lon="-0.19992">
        <ele>1413.5846536821</ele>
        <time>2013-12-07T10:06:58Z</time>
      </trkpt>
      <trkpt lat="42.94089" lon="-0.19989">
        <ele>1415.9925964026</ele>
        <time>2013-12-07T10:07:03Z</time>
      </trkpt>
      <trkpt lat="42.94088" lon="-0.19986">
        <ele>1415.9925964026</ele>
        <time>2013-12-07T10:07:07Z</time>
      </trkpt>
      <trkpt lat="42.94087" lon="-0.19982">
        <ele>1415.9925964026</ele>
        <time>2013-12-07T10:07:13Z</time>
      </trkpt>
      <trkpt lat="42.94085" lon="-0.19979">
        <ele>1415.9925964026</ele>
        <time>2013-12-07T10:07:18Z</time>
      </trkpt>
      <trkpt lat="42.94083" lon="-0.19975">
        <ele>1418.3261844855</ele>
        <time>2013-12-07T10:07:23Z</time>
      </trkpt>
      <trkpt lat="42.94081" lon="-0.19972">
        <ele>1418.3261844855</ele>
        <time>2013-12-07T10:07:28Z</time>
      </trkpt>
      <trkpt lat="42.9408" lon="-0.19969">
        <ele>1418.3261844855</ele>
        <time>2013-12-07T10:07:33Z</time>
      </trkpt>
      <trkpt lat="42.94079" lon="-0.19965">
        <ele>1418.3261844855</ele>
        <time>2013-12-07T10:07:38Z</time>
      </trkpt>
      <trkpt lat="42.94077" lon="-0.19963">
        <ele>1420.5476090039</ele>
        <time>2013-12-07T10:07:43Z</time>
      </trkpt>
      <trkpt lat="42.94075" lon="-0.1996">
        <ele>1420.5476090039</ele>
        <time>2013-12-07T10:07:47Z</time>
      </trkpt>
      <trkpt lat="42.94073" lon="-0.19957">
        <ele>1420.5476090039</ele>
        <time>2013-12-07T10:07:53Z</time>
      </trkpt>
      <trkpt lat="42.94071" lon="-0.19954">
        <ele>1422.6510404802</ele>
        <time>2013-12-07T10:07:58Z</time>
      </trkpt>
      <trkpt lat="42.94069" lon="-0.19952">
        <ele>1422.6510404802</ele>
        <time>2013-12-07T10:08:03Z</time>
      </trkpt>
      <trkpt lat="42.94066" lon="-0.19949">
        <ele>1422.6510404802</ele>
        <time>2013-12-07T10:08:08Z</time>
      </trkpt>
      <trkpt lat="42.94064" lon="-0.19947">
        <ele>1422.6510404802</ele>
        <time>2013-12-07T10:08:13Z</time>
      </trkpt>
      <trkpt lat="42.94061" lon="-0.19944">
        <ele>1424.8044014521</ele>
        <time>2013-12-07T10:08:18Z</time>
      </trkpt>
      <trkpt lat="42.94059" lon="-0.19943">
        <ele>1424.8044014521</ele>
        <time>2013-12-07T10:08:23Z</time>
      </trkpt>
      <trkpt lat="42.94059" lon="-0.1994">
        <ele>1424.8044014521</ele>
        <time>2013-12-07T10:08:28Z</time>
      </trkpt>
      <trkpt lat="42.94058" lon="-0.19938">
        <ele>1424.8044014521</ele>
        <time>2013-12-07T10:08:33Z</time>
      </trkpt>
      <trkpt lat="42.94055" lon="-0.19935">
        <ele>1427.0911368327</ele>
        <time>2013-12-07T10:08:38Z</time>
      </trkpt>
      <trkpt lat="42.94051" lon="-0.19933">
        <ele>1427.0911368327</ele>
        <time>2013-12-07T10:08:43Z</time>
      </trkpt>
      <trkpt lat="42.94049" lon="-0.19931">
        <ele>1427.0911368327</ele>
        <time>2013-12-07T10:08:48Z</time>
      </trkpt>
      <trkpt lat="42.94047" lon="-0.1993">
        <ele>1429.271190613</ele>
        <time>2013-12-07T10:08:53Z</time>
      </trkpt>
      <trkpt lat="42.94044" lon="-0.19928">
        <ele>1429.271190613</ele>
        <time>2013-12-07T10:08:58Z</time>
      </trkpt>
      <trkpt lat="42.94042" lon="-0.19928">
        <ele>1429.271190613</ele>
        <time>2013-12-07T10:09:03Z</time>
      </trkpt>
      <trkpt lat="42.9404" lon="-0.19928">
        <ele>1429.271190613</ele>
        <time>2013-12-07T10:09:08Z</time>
      </trkpt>
      <trkpt lat="42.94037" lon="-0.19927">
        <ele>1431.3242381597</ele>
        <time>2013-12-07T10:09:13Z</time>
      </trkpt>
      <trkpt lat="42.94034" lon="-0.19927">
        <ele>1431.3242381597</ele>
        <time>2013-12-07T10:09:18Z</time>
      </trkpt>
      <trkpt lat="42.94031" lon="-0.19926">
        <ele>1431.3242381597</ele>
        <time>2013-12-07T10:09:23Z</time>
      </trkpt>
      <trkpt lat="42.94029" lon="-0.19926">
        <ele>1431.3242381597</ele>
        <time>2013-12-07T10:09:27Z</time>
      </trkpt>
      <trkpt lat="42.94026" lon="-0.19924">
        <ele>1433.2750739749</ele>
        <time>2013-12-07T10:09:33Z</time>
      </trkpt>
      <trkpt lat="42.94024" lon="-0.19924">
        <ele>1433.2750739749</ele>
        <time>2013-12-07T10:09:38Z</time>
      </trkpt>
      <trkpt lat="42.94021" lon="-0.19924">
        <ele>1433.2750739749</ele>
        <time>2013-12-07T10:09:43Z</time>
      </trkpt>
      <trkpt lat="42.94018" lon="-0.19925">
        <ele>1433.2750739749</ele>
        <time>2013-12-07T10:09:48Z</time>
      </trkpt>
      <trkpt lat="42.94016" lon="-0.19925">
        <ele>1435.1758108018</ele>
        <time>2013-12-07T10:09:53Z</time>
      </trkpt>
      <trkpt lat="42.94013" lon="-0.19925">
        <ele>1435.1758108018</ele>
        <time>2013-12-07T10:09:58Z</time>
      </trkpt>
      <trkpt lat="42.9401" lon="-0.19926">
        <ele>1435.1758108018</ele>
        <time>2013-12-07T10:10:03Z</time>
      </trkpt>
      <trkpt lat="42.94006" lon="-0.19928">
        <ele>1437.0316648307</ele>
        <time>2013-12-07T10:10:08Z</time>
      </trkpt>
      <trkpt lat="42.94004" lon="-0.1993">
        <ele>1437.0316648307</ele>
        <time>2013-12-07T10:10:13Z</time>
      </trkpt>
      <trkpt lat="42.94003" lon="-0.19931">
        <ele>1437.0316648307</ele>
        <time>2013-12-07T10:10:18Z</time>
      </trkpt>
      <trkpt lat="42.94001" lon="-0.19933">
        <ele>1437.0316648307</ele>
        <time>2013-12-07T10:10:23Z</time>
      </trkpt>
      <trkpt lat="42.93997" lon="-0.19935">
        <ele>1438.9052576135</ele>
        <time>2013-12-07T10:10:28Z</time>
      </trkpt>
      <trkpt lat="42.93995" lon="-0.19936">
        <ele>1438.9052576135</ele>
        <time>2013-12-07T10:10:32Z</time>
      </trkpt>
      <trkpt lat="42.93992" lon="-0.19937">
        <ele>1438.9052576135</ele>
        <time>2013-12-07T10:10:38Z</time>
      </trkpt>
      <trkpt lat="42.93989" lon="-0.19939">
        <ele>1438.9052576135</ele>
        <time>2013-12-07T10:10:42Z</time>
      </trkpt>
      <trkpt lat="42.93986" lon="-0.19941">
        <ele>1440.8545728693</ele>
        <time>2013-12-07T10:10:48Z</time>
      </trkpt>
      <trkpt lat="42.93983" lon="-0.19943">
        <ele>1440.8545728693</ele>
        <time>2013-12-07T10:10:53Z</time>
      </trkpt>
      <trkpt lat="42.9398" lon="-0.19945">
        <ele>1440.8545728693</ele>
        <time>2013-12-07T10:10:58Z</time>
      </trkpt>
      <trkpt lat="42.93977" lon="-0.19946">
        <ele>1442.7457841195</ele>
        <time>2013-12-07T10:11:02Z</time>
      </trkpt>
      <trkpt lat="42.93974" lon="-0.19947">
        <ele>1442.7457841195</ele>
        <time>2013-12-07T10:11:07Z</time>
      </trkpt>
      <trkpt lat="42.93969" lon="-0.19949">
        <ele>1442.7457841195</ele>
        <time>2013-12-07T10:11:13Z</time>
      </trkpt>
      <trkpt lat="42.93966" lon="-0.1995">
        <ele>1444.5991709141</ele>
        <time>2013-12-07T10:11:18Z</time>
      </trkpt>
      <trkpt lat="42.93962" lon="-0.19952">
        <ele>1444.5991709141</ele>
        <time>2013-12-07T10:11:23Z</time>
      </trkpt>
      <trkpt lat="42.93958" lon="-0.19952">
        <ele>1444.5991709141</ele>
        <time>2013-12-07T10:11:28Z</time>
      </trkpt>
      <trkpt lat="42.93955" lon="-0.19953">
        <ele>1446.3183359651</ele>
        <time>2013-12-07T10:11:33Z</time>
      </trkpt>
      <trkpt lat="42.93951" lon="-0.19955">
        <ele>1446.3183359651</ele>
        <time>2013-12-07T10:11:38Z</time>
      </trkpt>
      <trkpt lat="42.93948" lon="-0.19957">
        <ele>1446.3183359651</ele>
        <time>2013-12-07T10:11:43Z</time>
      </trkpt>
      <trkpt lat="42.93945" lon="-0.1996">
        <ele>1447.9296193805</ele>
        <time>2013-12-07T10:11:48Z</time>
      </trkpt>
      <trkpt lat="42.93941" lon="-0.19961">
        <ele>1447.9296193805</ele>
        <time>2013-12-07T10:11:53Z</time>
      </trkpt>
      <trkpt lat="42.93937" lon="-0.19961">
        <ele>1447.9296193805</ele>
        <time>2013-12-07T10:11:58Z</time>
      </trkpt>
      <trkpt lat="42.93934" lon="-0.19961">
        <ele>1449.4144805705</ele>
        <time>2013-12-07T10:12:03Z</time>
      </trkpt>
      <trkpt lat="42.9393" lon="-0.19962">
        <ele>1449.4144805705</ele>
        <time>2013-12-07T10:12:07Z</time>
      </trkpt>
      <trkpt lat="42.93926" lon="-0.19962">
        <ele>1449.4144805705</ele>
        <time>2013-12-07T10:12:13Z</time>
      </trkpt>
      <trkpt lat="42.93923" lon="-0.19962">
        <ele>1450.75607447</ele>
        <time>2013-12-07T10:12:17Z</time>
      </trkpt>
      <trkpt lat="42.9392" lon="-0.19961">
        <ele>1450.75607447</ele>
        <time>2013-12-07T10:12:23Z</time>
      </trkpt>
      <trkpt lat="42.93917" lon="-0.19961">
        <ele>1450.75607447</ele>
        <time>2013-12-07T10:12:28Z</time>
      </trkpt>
      <trkpt lat="42.93913" lon="-0.1996">
        <ele>1451.9391675629</ele>
        <time>2013-12-07T10:12:32Z</time>
      </trkpt>
      <trkpt lat="42.9391" lon="-0.19959">
        <ele>1451.9391675629</ele>
        <time>2013-12-07T10:12:38Z</time>
      </trkpt>
      <trkpt lat="42.93906" lon="-0.19958">
        <ele>1451.9391675629</ele>
        <time>2013-12-07T10:12:43Z</time>
      </trkpt>
      <trkpt lat="42.93903" lon="-0.19957">
        <ele>1453.0221106979</ele>
        <time>2013-12-07T10:12:48Z</time>
      </trkpt>
      <trkpt lat="42.93899" lon="-0.19956">
        <ele>1453.0221106979</ele>
        <time>2013-12-07T10:12:53Z</time>
      </trkpt>
      <trkpt lat="42.93896" lon="-0.19954">
        <ele>1453.0221106979</ele>
        <time>2013-12-07T10:12:57Z</time>
      </trkpt>
      <trkpt lat="42.93896" lon="-0.19954">
        <ele>1453.0221106979</ele>
        <time>2013-12-07T10:13:03Z</time>
      </trkpt>
      <trkpt lat="42.93896" lon="-0.19953">
        <ele>1453.0221106979</ele>
        <time>2013-12-07T10:13:58Z</time>
      </trkpt>
      <trkpt lat="42.93894" lon="-0.19951">
        <ele>1454.0015621816</ele>
        <time>2013-12-07T10:14:03Z</time>
      </trkpt>
      <trkpt lat="42.93892" lon="-0.19951">
        <ele>1454.0015621816</ele>
        <time>2013-12-07T10:14:08Z</time>
      </trkpt>
      <trkpt lat="42.93889" lon="-0.1995">
        <ele>1454.0015621816</ele>
        <time>2013-12-07T10:14:13Z</time>
      </trkpt>
      <trkpt lat="42.93888" lon="-0.1995">
        <ele>1454.0015621816</ele>
        <time>2013-12-07T10:14:18Z</time>
      </trkpt>
      <trkpt lat="42.93885" lon="-0.1995">
        <ele>1454.903487918</ele>
        <time>2013-12-07T10:14:23Z</time>
      </trkpt>
      <trkpt lat="42.93883" lon="-0.19948">
        <ele>1454.903487918</ele>
        <time>2013-12-07T10:14:27Z</time>
      </trkpt>
      <trkpt lat="42.9388" lon="-0.19947">
        <ele>1454.903487918</ele>
        <time>2013-12-07T10:14:32Z</time>
      </trkpt>
      <trkpt lat="42.93879" lon="-0.19945">
        <ele>1454.903487918</ele>
        <time>2013-12-07T10:14:38Z</time>
      </trkpt>
      <trkpt lat="42.93877" lon="-0.19943">
        <ele>1454.903487918</ele>
        <time>2013-12-07T10:14:43Z</time>
      </trkpt>
      <trkpt lat="42.93876" lon="-0.19942">
        <ele>1455.9394503751</ele>
        <time>2013-12-07T10:14:47Z</time>
      </trkpt>
      <trkpt lat="42.93873" lon="-0.19941">
        <ele>1455.9394503751</ele>
        <time>2013-12-07T10:14:53Z</time>
      </trkpt>
      <trkpt lat="42.93872" lon="-0.19938">
        <ele>1455.9394503751</ele>
        <time>2013-12-07T10:14:58Z</time>
      </trkpt>
      <trkpt lat="42.93871" lon="-0.19936">
        <ele>1455.9394503751</ele>
        <time>2013-12-07T10:15:02Z</time>
      </trkpt>
      <trkpt lat="42.93869" lon="-0.19934">
        <ele>1456.9159289759</ele>
        <time>2013-12-07T10:15:08Z</time>
      </trkpt>
      <trkpt lat="42.93867" lon="-0.19933">
        <ele>1456.9159289759</ele>
        <time>2013-12-07T10:15:13Z</time>
      </trkpt>
      <trkpt lat="42.93865" lon="-0.19932">
        <ele>1456.9159289759</ele>
        <time>2013-12-07T10:15:18Z</time>
      </trkpt>
      <trkpt lat="42.93862" lon="-0.19936">
        <ele>1456.9159289759</ele>
        <time>2013-12-07T10:15:53Z</time>
      </trkpt>
      <trkpt lat="42.93864" lon="-0.1994">
        <ele>1458.1148702448</ele>
        <time>2013-12-07T10:15:58Z</time>
      </trkpt>
      <trkpt lat="42.93864" lon="-0.19945">
        <ele>1458.1148702448</ele>
        <time>2013-12-07T10:16:03Z</time>
      </trkpt>
      <trkpt lat="42.93866" lon="-0.19948">
        <ele>1458.1148702448</ele>
        <time>2013-12-07T10:16:08Z</time>
      </trkpt>
      <trkpt lat="42.93866" lon="-0.19948">
        <ele>1458.1148702448</ele>
        <time>2013-12-07T10:16:13Z</time>
      </trkpt>
      <trkpt lat="42.93866" lon="-0.19951">
        <ele>1458.1148702448</ele>
        <time>2013-12-07T10:17:03Z</time>
      </trkpt>
      <trkpt lat="42.93867" lon="-0.19951">
        <ele>1459.3356521792</ele>
        <time>2013-12-07T10:17:08Z</time>
      </trkpt>
      <trkpt lat="42.93865" lon="-0.19948">
        <ele>1459.3356521792</ele>
        <time>2013-12-07T10:17:13Z</time>
      </trkpt>
      <trkpt lat="42.93861" lon="-0.19947">
        <ele>1459.3356521792</ele>
        <time>2013-12-07T10:17:18Z</time>
      </trkpt>
      <trkpt lat="42.93859" lon="-0.19945">
        <ele>1460.5651817387</ele>
        <time>2013-12-07T10:17:23Z</time>
      </trkpt>
      <trkpt lat="42.93856" lon="-0.19942">
        <ele>1460.5651817387</ele>
        <time>2013-12-07T10:17:27Z</time>
      </trkpt>
      <trkpt lat="42.93853" lon="-0.19939">
        <ele>1460.5651817387</ele>
        <time>2013-12-07T10:17:33Z</time>
      </trkpt>
      <trkpt lat="42.9385" lon="-0.19938">
        <ele>1461.6903412464</ele>
        <time>2013-12-07T10:17:38Z</time>
      </trkpt>
      <trkpt lat="42.93848" lon="-0.19937">
        <ele>1461.6903412464</ele>
        <time>2013-12-07T10:17:43Z</time>
      </trkpt>
      <trkpt lat="42.93847" lon="-0.19936">
        <ele>1461.6903412464</ele>
        <time>2013-12-07T10:17:48Z</time>
      </trkpt>
      <trkpt lat="42.93845" lon="-0.19934">
        <ele>1461.6903412464</ele>
        <time>2013-12-07T10:17:53Z</time>
      </trkpt>
      <trkpt lat="42.93842" lon="-0.19932">
        <ele>1461.6903412464</ele>
        <time>2013-12-07T10:17:57Z</time>
      </trkpt>
      <trkpt lat="42.9384" lon="-0.19929">
        <ele>1462.8515179755</ele>
        <time>2013-12-07T10:18:03Z</time>
      </trkpt>
      <trkpt lat="42.93839" lon="-0.19927">
        <ele>1462.8515179755</ele>
        <time>2013-12-07T10:18:07Z</time>
      </trkpt>
      <trkpt lat="42.93839" lon="-0.19923">
        <ele>1462.8515179755</ele>
        <time>2013-12-07T10:18:13Z</time>
      </trkpt>
      <trkpt lat="42.93837" lon="-0.19919">
        <ele>1462.8515179755</ele>
        <time>2013-12-07T10:18:18Z</time>
      </trkpt>
      <trkpt lat="42.93837" lon="-0.19915">
        <ele>1464.0488967755</ele>
        <time>2013-12-07T10:18:23Z</time>
      </trkpt>
      <trkpt lat="42.93836" lon="-0.19911">
        <ele>1464.0488967755</ele>
        <time>2013-12-07T10:18:28Z</time>
      </trkpt>
      <trkpt lat="42.93834" lon="-0.19908">
        <ele>1464.0488967755</ele>
        <time>2013-12-07T10:18:33Z</time>
      </trkpt>
      <trkpt lat="42.93833" lon="-0.19905">
        <ele>1464.0488967755</ele>
        <time>2013-12-07T10:18:38Z</time>
      </trkpt>
      <trkpt lat="42.93832" lon="-0.19902">
        <ele>1465.3401018097</ele>
        <time>2013-12-07T10:18:43Z</time>
      </trkpt>
      <trkpt lat="42.93831" lon="-0.199">
        <ele>1465.3401018097</ele>
        <time>2013-12-07T10:18:47Z</time>
      </trkpt>
      <trkpt lat="42.93831" lon="-0.19896">
        <ele>1465.3401018097</ele>
        <time>2013-12-07T10:18:53Z</time>
      </trkpt>
      <trkpt lat="42.9383" lon="-0.19895">
        <ele>1465.3401018097</ele>
        <time>2013-12-07T10:18:57Z</time>
      </trkpt>
      <trkpt lat="42.93829" lon="-0.19892">
        <ele>1465.3401018097</ele>
        <time>2013-12-07T10:19:03Z</time>
      </trkpt>
      <trkpt lat="42.93827" lon="-0.19889">
        <ele>1466.7061144845</ele>
        <time>2013-12-07T10:19:08Z</time>
      </trkpt>
      <trkpt lat="42.93825" lon="-0.19886">
        <ele>1466.7061144845</ele>
        <time>2013-12-07T10:19:13Z</time>
      </trkpt>
      <trkpt lat="42.93823" lon="-0.19884">
        <ele>1466.7061144845</ele>
        <time>2013-12-07T10:19:18Z</time>
      </trkpt>
      <trkpt lat="42.93821" lon="-0.19881">
        <ele>1466.7061144845</ele>
        <time>2013-12-07T10:19:23Z</time>
      </trkpt>
      <trkpt lat="42.93821" lon="-0.19881">
        <ele>1466.7061144845</ele>
        <time>2013-12-07T10:19:27Z</time>
      </trkpt>
      <trkpt lat="42.93818" lon="-0.19876">
        <ele>1468.0569568038</ele>
        <time>2013-12-07T10:19:53Z</time>
      </trkpt>
      <trkpt lat="42.93816" lon="-0.19874">
        <ele>1468.0569568038</ele>
        <time>2013-12-07T10:19:58Z</time>
      </trkpt>
      <trkpt lat="42.93814" lon="-0.19872">
        <ele>1468.0569568038</ele>
        <time>2013-12-07T10:20:03Z</time>
      </trkpt>
      <trkpt lat="42.93811" lon="-0.19871">
        <ele>1468.0569568038</ele>
        <time>2013-12-07T10:20:08Z</time>
      </trkpt>
      <trkpt lat="42.9381" lon="-0.19868">
        <ele>1469.3524457985</ele>
        <time>2013-12-07T10:20:13Z</time>
      </trkpt>
      <trkpt lat="42.93808" lon="-0.19866">
        <ele>1469.3524457985</ele>
        <time>2013-12-07T10:20:18Z</time>
      </trkpt>
      <trkpt lat="42.93807" lon="-0.19863">
        <ele>1469.3524457985</ele>
        <time>2013-12-07T10:20:23Z</time>
      </trkpt>
      <trkpt lat="42.93806" lon="-0.19862">
        <ele>1469.3524457985</ele>
        <time>2013-12-07T10:20:27Z</time>
      </trkpt>
      <trkpt lat="42.93805" lon="-0.19859">
        <ele>1469.3524457985</ele>
        <time>2013-12-07T10:20:33Z</time>
      </trkpt>
      <trkpt lat="42.93803" lon="-0.19857">
        <ele>1470.7283493694</ele>
        <time>2013-12-07T10:20:38Z</time>
      </trkpt>
      <trkpt lat="42.93803" lon="-0.19858">
        <ele>1470.7283493694</ele>
        <time>2013-12-07T10:20:43Z</time>
      </trkpt>
      <trkpt lat="42.93806" lon="-0.19864">
        <ele>1470.7283493694</ele>
        <time>2013-12-07T10:21:28Z</time>
      </trkpt>
      <trkpt lat="42.93807" lon="-0.19868">
        <ele>1470.7283493694</ele>
        <time>2013-12-07T10:21:33Z</time>
      </trkpt>
      <trkpt lat="42.93807" lon="-0.19871">
        <ele>1472.901005201</ele>
        <time>2013-12-07T10:21:38Z</time>
      </trkpt>
      <trkpt lat="42.93807" lon="-0.19872">
        <ele>1472.901005201</ele>
        <time>2013-12-07T10:21:43Z</time>
      </trkpt>
      <trkpt lat="42.93807" lon="-0.19875">
        <ele>1472.901005201</ele>
        <time>2013-12-07T10:21:48Z</time>
      </trkpt>
      <trkpt lat="42.93807" lon="-0.19879">
        <ele>1472.901005201</ele>
        <time>2013-12-07T10:21:53Z</time>
      </trkpt>
      <trkpt lat="42.93807" lon="-0.19882">
        <ele>1472.901005201</ele>
        <time>2013-12-07T10:21:58Z</time>
      </trkpt>
      <trkpt lat="42.93806" lon="-0.19886">
        <ele>1475.0762878809</ele>
        <time>2013-12-07T10:22:03Z</time>
      </trkpt>
      <trkpt lat="42.93805" lon="-0.19887">
        <ele>1475.0762878809</ele>
        <time>2013-12-07T10:22:07Z</time>
      </trkpt>
      <trkpt lat="42.93805" lon="-0.19892">
        <ele>1475.0762878809</ele>
        <time>2013-12-07T10:22:13Z</time>
      </trkpt>
      <trkpt lat="42.93806" lon="-0.19896">
        <ele>1475.0762878809</ele>
        <time>2013-12-07T10:22:18Z</time>
      </trkpt>
      <trkpt lat="42.93806" lon="-0.19899">
        <ele>1477.2100564902</ele>
        <time>2013-12-07T10:22:23Z</time>
      </trkpt>
      <trkpt lat="42.93806" lon="-0.19903">
        <ele>1477.2100564902</ele>
        <time>2013-12-07T10:22:28Z</time>
      </trkpt>
      <trkpt lat="42.93805" lon="-0.19906">
        <ele>1477.2100564902</ele>
        <time>2013-12-07T10:22:33Z</time>
      </trkpt>
      <trkpt lat="42.93805" lon="-0.19909">
        <ele>1477.2100564902</ele>
        <time>2013-12-07T10:22:38Z</time>
      </trkpt>
      <trkpt lat="42.93805" lon="-0.19913">
        <ele>1479.391158317</ele>
        <time>2013-12-07T10:22:43Z</time>
      </trkpt>
      <trkpt lat="42.93804" lon="-0.19915">
        <ele>1479.391158317</ele>
        <time>2013-12-07T10:22:48Z</time>
      </trkpt>
      <trkpt lat="42.93803" lon="-0.19916">
        <ele>1479.391158317</ele>
        <time>2013-12-07T10:22:54Z</time>
      </trkpt>
      <trkpt lat="42.93803" lon="-0.19917">
        <ele>1479.391158317</ele>
        <time>2013-12-07T10:22:57Z</time>
      </trkpt>
      <trkpt lat="42.93803" lon="-0.1992">
        <ele>1479.391158317</ele>
        <time>2013-12-07T10:23:03Z</time>
      </trkpt>
      <trkpt lat="42.93803" lon="-0.19923">
        <ele>1479.391158317</ele>
        <time>2013-12-07T10:23:07Z</time>
      </trkpt>
      <trkpt lat="42.93801" lon="-0.19926">
        <ele>1481.6873071056</ele>
        <time>2013-12-07T10:23:13Z</time>
      </trkpt>
      <trkpt lat="42.938" lon="-0.19928">
        <ele>1481.6873071056</ele>
        <time>2013-12-07T10:23:18Z</time>
      </trkpt>
      <trkpt lat="42.93798" lon="-0.19929">
        <ele>1481.6873071056</ele>
        <time>2013-12-07T10:23:23Z</time>
      </trkpt>
      <trkpt lat="42.93796" lon="-0.19931">
        <ele>1481.6873071056</ele>
        <time>2013-12-07T10:23:33Z</time>
      </trkpt>
      <trkpt lat="42.93796" lon="-0.19932">
        <ele>1481.6873071056</ele>
        <time>2013-12-07T10:23:38Z</time>
      </trkpt>
      <trkpt lat="42.93794" lon="-0.19934">
        <ele>1484.1032200871</ele>
        <time>2013-12-07T10:23:43Z</time>
      </trkpt>
      <trkpt lat="42.93793" lon="-0.19936">
        <ele>1484.1032200871</ele>
        <time>2013-12-07T10:23:47Z</time>
      </trkpt>
      <trkpt lat="42.93792" lon="-0.19938">
        <ele>1484.1032200871</ele>
        <time>2013-12-07T10:23:53Z</time>
      </trkpt>
      <trkpt lat="42.93792" lon="-0.19939">
        <ele>1484.1032200871</ele>
        <time>2013-12-07T10:23:57Z</time>
      </trkpt>
      <trkpt lat="42.93789" lon="-0.19939">
        <ele>1484.1032200871</ele>
        <time>2013-12-07T10:24:18Z</time>
      </trkpt>
      <trkpt lat="42.93789" lon="-0.19939">
        <ele>1484.1032200871</ele>
        <time>2013-12-07T10:24:23Z</time>
      </trkpt>
      <trkpt lat="42.93788" lon="-0.19935">
        <ele>1486.7869964219</ele>
        <time>2013-12-07T10:24:48Z</time>
      </trkpt>
      <trkpt lat="42.93786" lon="-0.19933">
        <ele>1486.7869964219</ele>
        <time>2013-12-07T10:24:53Z</time>
      </trkpt>
      <trkpt lat="42.93784" lon="-0.19931">
        <ele>1486.7869964219</ele>
        <time>2013-12-07T10:24:58Z</time>
      </trkpt>
      <trkpt lat="42.93783" lon="-0.19927">
        <ele>1486.7869964219</ele>
        <time>2013-12-07T10:25:03Z</time>
      </trkpt>
      <trkpt lat="42.93781" lon="-0.19925">
        <ele>1489.2121547297</ele>
        <time>2013-12-07T10:25:08Z</time>
      </trkpt>
      <trkpt lat="42.93779" lon="-0.19923">
        <ele>1489.2121547297</ele>
        <time>2013-12-07T10:25:13Z</time>
      </trkpt>
      <trkpt lat="42.93778" lon="-0.1992">
        <ele>1489.2121547297</ele>
        <time>2013-12-07T10:25:18Z</time>
      </trkpt>
      <trkpt lat="42.93776" lon="-0.19918">
        <ele>1489.2121547297</ele>
        <time>2013-12-07T10:25:23Z</time>
      </trkpt>
      <trkpt lat="42.93775" lon="-0.19915">
        <ele>1491.4103839094</ele>
        <time>2013-12-07T10:25:28Z</time>
      </trkpt>
      <trkpt lat="42.93774" lon="-0.19912">
        <ele>1491.4103839094</ele>
        <time>2013-12-07T10:25:33Z</time>
      </trkpt>
      <trkpt lat="42.93772" lon="-0.19909">
        <ele>1491.4103839094</ele>
        <time>2013-12-07T10:25:38Z</time>
      </trkpt>
      <trkpt lat="42.93771" lon="-0.19906">
        <ele>1491.4103839094</ele>
        <time>2013-12-07T10:25:43Z</time>
      </trkpt>
      <trkpt lat="42.9377" lon="-0.19903">
        <ele>1493.6710587024</ele>
        <time>2013-12-07T10:25:48Z</time>
      </trkpt>
      <trkpt lat="42.93769" lon="-0.19901">
        <ele>1493.6710587024</ele>
        <time>2013-12-07T10:25:53Z</time>
      </trkpt>
      <trkpt lat="42.93768" lon="-0.19897">
        <ele>1493.6710587024</ele>
        <time>2013-12-07T10:25:58Z</time>
      </trkpt>
      <trkpt lat="42.93767" lon="-0.19893">
        <ele>1493.6710587024</ele>
        <time>2013-12-07T10:26:03Z</time>
      </trkpt>
      <trkpt lat="42.93766" lon="-0.19889">
        <ele>1496.0891716341</ele>
        <time>2013-12-07T10:26:08Z</time>
      </trkpt>
      <trkpt lat="42.93764" lon="-0.19886">
        <ele>1496.0891716341</ele>
        <time>2013-12-07T10:26:13Z</time>
      </trkpt>
      <trkpt lat="42.93763" lon="-0.19883">
        <ele>1496.0891716341</ele>
        <time>2013-12-07T10:26:17Z</time>
      </trkpt>
      <trkpt lat="42.93763" lon="-0.19881">
        <ele>1496.0891716341</ele>
        <time>2013-12-07T10:26:23Z</time>
      </trkpt>
      <trkpt lat="42.93761" lon="-0.19878">
        <ele>1498.5793516232</ele>
        <time>2013-12-07T10:26:28Z</time>
      </trkpt>
      <trkpt lat="42.9376" lon="-0.19876">
        <ele>1498.5793516232</ele>
        <time>2013-12-07T10:26:33Z</time>
      </trkpt>
      <trkpt lat="42.93759" lon="-0.19874">
        <ele>1498.5793516232</ele>
        <time>2013-12-07T10:26:38Z</time>
      </trkpt>
      <trkpt lat="42.93758" lon="-0.19872">
        <ele>1498.5793516232</ele>
        <time>2013-12-07T10:26:42Z</time>
      </trkpt>
      <trkpt lat="42.93757" lon="-0.19872">
        <ele>1498.5793516232</ele>
        <time>2013-12-07T10:26:48Z</time>
      </trkpt>
      <trkpt lat="42.93757" lon="-0.19869">
        <ele>1498.5793516232</ele>
        <time>2013-12-07T10:26:53Z</time>
      </trkpt>
      <trkpt lat="42.93754" lon="-0.19866">
        <ele>1501.2352256713</ele>
        <time>2013-12-07T10:26:58Z</time>
      </trkpt>
      <trkpt lat="42.93752" lon="-0.19864">
        <ele>1501.2352256713</ele>
        <time>2013-12-07T10:27:03Z</time>
      </trkpt>
      <trkpt lat="42.9375" lon="-0.19862">
        <ele>1501.2352256713</ele>
        <time>2013-12-07T10:27:07Z</time>
      </trkpt>
      <trkpt lat="42.93747" lon="-0.19859">
        <ele>1501.2352256713</ele>
        <time>2013-12-07T10:27:13Z</time>
      </trkpt>
      <trkpt lat="42.93745" lon="-0.19856">
        <ele>1503.8692687764</ele>
        <time>2013-12-07T10:27:17Z</time>
      </trkpt>
      <trkpt lat="42.93743" lon="-0.19853">
        <ele>1503.8692687764</ele>
        <time>2013-12-07T10:27:23Z</time>
      </trkpt>
      <trkpt lat="42.9374" lon="-0.19851">
        <ele>1503.8692687764</ele>
        <time>2013-12-07T10:27:27Z</time>
      </trkpt>
      <trkpt lat="42.93739" lon="-0.19848">
        <ele>1503.8692687764</ele>
        <time>2013-12-07T10:27:33Z</time>
      </trkpt>
      <trkpt lat="42.93739" lon="-0.19849">
        <ele>1503.8692687764</ele>
        <time>2013-12-07T10:27:37Z</time>
      </trkpt>
      <trkpt lat="42.93739" lon="-0.19852">
        <ele>1506.8986574129</ele>
        <time>2013-12-07T10:28:28Z</time>
      </trkpt>
      <trkpt lat="42.93739" lon="-0.19856">
        <ele>1506.8986574129</ele>
        <time>2013-12-07T10:28:33Z</time>
      </trkpt>
      <trkpt lat="42.93739" lon="-0.19861">
        <ele>1506.8986574129</ele>
        <time>2013-12-07T10:28:38Z</time>
      </trkpt>
      <trkpt lat="42.93742" lon="-0.19866">
        <ele>1509.7576959166</ele>
        <time>2013-12-07T10:28:43Z</time>
      </trkpt>
      <trkpt lat="42.93743" lon="-0.19872">
        <ele>1509.7576959166</ele>
        <time>2013-12-07T10:28:48Z</time>
      </trkpt>
      <trkpt lat="42.93742" lon="-0.19876">
        <ele>1509.7576959166</ele>
        <time>2013-12-07T10:28:53Z</time>
      </trkpt>
      <trkpt lat="42.93743" lon="-0.1988">
        <ele>1512.5136013153</ele>
        <time>2013-12-07T10:28:58Z</time>
      </trkpt>
      <trkpt lat="42.93743" lon="-0.19883">
        <ele>1512.5136013153</ele>
        <time>2013-12-07T10:29:03Z</time>
      </trkpt>
      <trkpt lat="42.93742" lon="-0.19887">
        <ele>1512.5136013153</ele>
        <time>2013-12-07T10:29:08Z</time>
      </trkpt>
      <trkpt lat="42.93742" lon="-0.19891">
        <ele>1512.5136013153</ele>
        <time>2013-12-07T10:29:13Z</time>
      </trkpt>
      <trkpt lat="42.93742" lon="-0.19893">
        <ele>1515.3010280597</ele>
        <time>2013-12-07T10:29:18Z</time>
      </trkpt>
      <trkpt lat="42.93742" lon="-0.19897">
        <ele>1515.3010280597</ele>
        <time>2013-12-07T10:29:23Z</time>
      </trkpt>
      <trkpt lat="42.93741" lon="-0.19899">
        <ele>1515.3010280597</ele>
        <time>2013-12-07T10:29:28Z</time>
      </trkpt>
      <trkpt lat="42.9374" lon="-0.19901">
        <ele>1515.3010280597</ele>
        <time>2013-12-07T10:29:33Z</time>
      </trkpt>
      <trkpt lat="42.9374" lon="-0.19904">
        <ele>1515.3010280597</ele>
        <time>2013-12-07T10:29:38Z</time>
      </trkpt>
      <trkpt lat="42.93739" lon="-0.19907">
        <ele>1518.1149870769</ele>
        <time>2013-12-07T10:29:43Z</time>
      </trkpt>
      <trkpt lat="42.93739" lon="-0.1991">
        <ele>1518.1149870769</ele>
        <time>2013-12-07T10:29:47Z</time>
      </trkpt>
      <trkpt lat="42.93739" lon="-0.19913">
        <ele>1518.1149870769</ele>
        <time>2013-12-07T10:29:53Z</time>
      </trkpt>
      <trkpt lat="42.93738" lon="-0.19915">
        <ele>1518.1149870769</ele>
        <time>2013-12-07T10:29:58Z</time>
      </trkpt>
      <trkpt lat="42.93738" lon="-0.19915">
        <ele>1518.1149870769</ele>
        <time>2013-12-07T10:30:03Z</time>
      </trkpt>
      <trkpt lat="42.93732" lon="-0.19912">
        <ele>1521.1525793898</ele>
        <time>2013-12-07T10:30:58Z</time>
      </trkpt>
      <trkpt lat="42.93731" lon="-0.1991">
        <ele>1521.1525793898</ele>
        <time>2013-12-07T10:31:02Z</time>
      </trkpt>
      <trkpt lat="42.9373" lon="-0.19907">
        <ele>1521.1525793898</ele>
        <time>2013-12-07T10:31:08Z</time>
      </trkpt>
      <trkpt lat="42.93729" lon="-0.19905">
        <ele>1521.1525793898</ele>
        <time>2013-12-07T10:31:13Z</time>
      </trkpt>
      <trkpt lat="42.93727" lon="-0.19902">
        <ele>1521.1525793898</ele>
        <time>2013-12-07T10:31:17Z</time>
      </trkpt>
      <trkpt lat="42.93726" lon="-0.19901">
        <ele>1523.9185246834</ele>
        <time>2013-12-07T10:31:23Z</time>
      </trkpt>
      <trkpt lat="42.93724" lon="-0.19898">
        <ele>1523.9185246834</ele>
        <time>2013-12-07T10:31:28Z</time>
      </trkpt>
      <trkpt lat="42.93721" lon="-0.19895">
        <ele>1523.9185246834</ele>
        <time>2013-12-07T10:31:33Z</time>
      </trkpt>
      <trkpt lat="42.9372" lon="-0.19892">
        <ele>1523.9185246834</ele>
        <time>2013-12-07T10:31:38Z</time>
      </trkpt>
      <trkpt lat="42.93719" lon="-0.1989">
        <ele>1526.5888288066</ele>
        <time>2013-12-07T10:31:43Z</time>
      </trkpt>
      <trkpt lat="42.93719" lon="-0.19889">
        <ele>1526.5888288066</ele>
        <time>2013-12-07T10:31:48Z</time>
      </trkpt>
      <trkpt lat="42.93718" lon="-0.19887">
        <ele>1526.5888288066</ele>
        <time>2013-12-07T10:31:53Z</time>
      </trkpt>
      <trkpt lat="42.93718" lon="-0.19887">
        <ele>1526.5888288066</ele>
        <time>2013-12-07T10:31:58Z</time>
      </trkpt>
      <trkpt lat="42.93715" lon="-0.19883">
        <ele>1526.5888288066</ele>
        <time>2013-12-07T10:32:03Z</time>
      </trkpt>
      <trkpt lat="42.93713" lon="-0.19881">
        <ele>1529.1107254142</ele>
        <time>2013-12-07T10:32:08Z</time>
      </trkpt>
      <trkpt lat="42.93711" lon="-0.1988">
        <ele>1529.1107254142</ele>
        <time>2013-12-07T10:32:13Z</time>
      </trkpt>
      <trkpt lat="42.9371" lon="-0.19881">
        <ele>1529.1107254142</ele>
        <time>2013-12-07T10:32:18Z</time>
      </trkpt>
      <trkpt lat="42.93711" lon="-0.19881">
        <ele>1529.1107254142</ele>
        <time>2013-12-07T10:32:23Z</time>
      </trkpt>
      <trkpt lat="42.93714" lon="-0.1988">
        <ele>1529.1107254142</ele>
        <time>2013-12-07T10:33:03Z</time>
      </trkpt>
      <trkpt lat="42.93714" lon="-0.1988">
        <ele>1529.1107254142</ele>
        <time>2013-12-07T10:33:08Z</time>
      </trkpt>
      <trkpt lat="42.93714" lon="-0.19888">
        <ele>1532.1707666085</ele>
        <time>2013-12-07T10:33:53Z</time>
      </trkpt>
      <trkpt lat="42.93715" lon="-0.19891">
        <ele>1532.1707666085</ele>
        <time>2013-12-07T10:33:57Z</time>
      </trkpt>
      <trkpt lat="42.93714" lon="-0.19894">
        <ele>1532.1707666085</ele>
        <time>2013-12-07T10:34:03Z</time>
      </trkpt>
      <trkpt lat="42.93714" lon="-0.19896">
        <ele>1532.1707666085</ele>
        <time>2013-12-07T10:34:08Z</time>
      </trkpt>
      <trkpt lat="42.93713" lon="-0.19899">
        <ele>1532.1707666085</ele>
        <time>2013-12-07T10:34:13Z</time>
      </trkpt>
      <trkpt lat="42.93713" lon="-0.199">
        <ele>1534.9480996495</ele>
        <time>2013-12-07T10:34:18Z</time>
      </trkpt>
      <trkpt lat="42.93713" lon="-0.19903">
        <ele>1534.9480996495</ele>
        <time>2013-12-07T10:34:23Z</time>
      </trkpt>
      <trkpt lat="42.93712" lon="-0.19906">
        <ele>1534.9480996495</ele>
        <time>2013-12-07T10:34:28Z</time>
      </trkpt>
      <trkpt lat="42.93711" lon="-0.19909">
        <ele>1534.9480996495</ele>
        <time>2013-12-07T10:34:33Z</time>
      </trkpt>
      <trkpt lat="42.93712" lon="-0.19911">
        <ele>1534.9480996495</ele>
        <time>2013-12-07T10:34:38Z</time>
      </trkpt>
      <trkpt lat="42.93711" lon="-0.19913">
        <ele>1537.6053391346</ele>
        <time>2013-12-07T10:34:43Z</time>
      </trkpt>
      <trkpt lat="42.9371" lon="-0.19917">
        <ele>1537.6053391346</ele>
        <time>2013-12-07T10:34:47Z</time>
      </trkpt>
      <trkpt lat="42.9371" lon="-0.1992">
        <ele>1537.6053391346</ele>
        <time>2013-12-07T10:34:53Z</time>
      </trkpt>
      <trkpt lat="42.93709" lon="-0.19923">
        <ele>1537.6053391346</ele>
        <time>2013-12-07T10:34:57Z</time>
      </trkpt>
      <trkpt lat="42.93709" lon="-0.19926">
        <ele>1540.2359117526</ele>
        <time>2013-12-07T10:35:03Z</time>
      </trkpt>
      <trkpt lat="42.93709" lon="-0.19929">
        <ele>1540.2359117526</ele>
        <time>2013-12-07T10:35:08Z</time>
      </trkpt>
      <trkpt lat="42.93707" lon="-0.19932">
        <ele>1540.2359117526</ele>
        <time>2013-12-07T10:35:18Z</time>
      </trkpt>
      <trkpt lat="42.93707" lon="-0.19934">
        <ele>1540.2359117526</ele>
        <time>2013-12-07T10:35:23Z</time>
      </trkpt>
      <trkpt lat="42.93707" lon="-0.19935">
        <ele>1540.2359117526</ele>
        <time>2013-12-07T10:35:28Z</time>
      </trkpt>
      <trkpt lat="42.93707" lon="-0.19938">
        <ele>1542.9409337751</ele>
        <time>2013-12-07T10:35:43Z</time>
      </trkpt>
      <trkpt lat="42.93704" lon="-0.19933">
        <ele>1542.9409337751</ele>
        <time>2013-12-07T10:35:48Z</time>
      </trkpt>
      <trkpt lat="42.93702" lon="-0.1993">
        <ele>1542.9409337751</ele>
        <time>2013-12-07T10:35:52Z</time>
      </trkpt>
      <trkpt lat="42.93699" lon="-0.19925">
        <ele>1545.4248514659</ele>
        <time>2013-12-07T10:35:58Z</time>
      </trkpt>
      <trkpt lat="42.93698" lon="-0.19923">
        <ele>1545.4248514659</ele>
        <time>2013-12-07T10:36:03Z</time>
      </trkpt>
      <trkpt lat="42.93696" lon="-0.19921">
        <ele>1545.4248514659</ele>
        <time>2013-12-07T10:36:08Z</time>
      </trkpt>
      <trkpt lat="42.93696" lon="-0.1992">
        <ele>1545.4248514659</ele>
        <time>2013-12-07T10:36:13Z</time>
      </trkpt>
      <trkpt lat="42.93694" lon="-0.19917">
        <ele>1545.4248514659</ele>
        <time>2013-12-07T10:36:18Z</time>
      </trkpt>
      <trkpt lat="42.93692" lon="-0.19915">
        <ele>1547.6883199743</ele>
        <time>2013-12-07T10:36:23Z</time>
      </trkpt>
      <trkpt lat="42.93691" lon="-0.19913">
        <ele>1547.6883199743</ele>
        <time>2013-12-07T10:36:28Z</time>
      </trkpt>
      <trkpt lat="42.93689" lon="-0.1991">
        <ele>1547.6883199743</ele>
        <time>2013-12-07T10:36:33Z</time>
      </trkpt>
      <trkpt lat="42.93687" lon="-0.19909">
        <ele>1547.6883199743</ele>
        <time>2013-12-07T10:36:38Z</time>
      </trkpt>
      <trkpt lat="42.93686" lon="-0.19908">
        <ele>1547.6883199743</ele>
        <time>2013-12-07T10:36:43Z</time>
      </trkpt>
      <trkpt lat="42.93685" lon="-0.19906">
        <ele>1549.8046847447</ele>
        <time>2013-12-07T10:36:48Z</time>
      </trkpt>
      <trkpt lat="42.93684" lon="-0.19904">
        <ele>1549.8046847447</ele>
        <time>2013-12-07T10:36:53Z</time>
      </trkpt>
      <trkpt lat="42.93681" lon="-0.19902">
        <ele>1549.8046847447</ele>
        <time>2013-12-07T10:36:58Z</time>
      </trkpt>
      <trkpt lat="42.93678" lon="-0.19899">
        <ele>1549.8046847447</ele>
        <time>2013-12-07T10:37:03Z</time>
      </trkpt>
      <trkpt lat="42.93677" lon="-0.19897">
        <ele>1551.7559105689</ele>
        <time>2013-12-07T10:37:08Z</time>
      </trkpt>
      <trkpt lat="42.93674" lon="-0.19895">
        <ele>1551.7559105689</ele>
        <time>2013-12-07T10:37:13Z</time>
      </trkpt>
      <trkpt lat="42.93673" lon="-0.19894">
        <ele>1551.7559105689</ele>
        <time>2013-12-07T10:37:17Z</time>
      </trkpt>
      <trkpt lat="42.93672" lon="-0.19891">
        <ele>1551.7559105689</ele>
        <time>2013-12-07T10:37:23Z</time>
      </trkpt>
      <trkpt lat="42.93672" lon="-0.19891">
        <ele>1551.7559105689</ele>
        <time>2013-12-07T10:37:27Z</time>
      </trkpt>
      <trkpt lat="42.93671" lon="-0.19889">
        <ele>1551.7559105689</ele>
        <time>2013-12-07T10:37:33Z</time>
      </trkpt>
      <trkpt lat="42.9367" lon="-0.19888">
        <ele>1553.6987407059</ele>
        <time>2013-12-07T10:37:38Z</time>
      </trkpt>
      <trkpt lat="42.93668" lon="-0.19886">
        <ele>1553.6987407059</ele>
        <time>2013-12-07T10:37:43Z</time>
      </trkpt>
      <trkpt lat="42.93667" lon="-0.19885">
        <ele>1553.6987407059</ele>
        <time>2013-12-07T10:37:48Z</time>
      </trkpt>
      <trkpt lat="42.93667" lon="-0.19883">
        <ele>1553.6987407059</ele>
        <time>2013-12-07T10:37:53Z</time>
      </trkpt>
      <trkpt lat="42.93665" lon="-0.19881">
        <ele>1553.6987407059</ele>
        <time>2013-12-07T10:37:58Z</time>
      </trkpt>
      <trkpt lat="42.93665" lon="-0.19879">
        <ele>1553.6987407059</ele>
        <time>2013-12-07T10:38:03Z</time>
      </trkpt>
      <trkpt lat="42.93663" lon="-0.19877">
        <ele>1555.5767237644</ele>
        <time>2013-12-07T10:38:08Z</time>
      </trkpt>
      <trkpt lat="42.93661" lon="-0.19875">
        <ele>1555.5767237644</ele>
        <time>2013-12-07T10:38:13Z</time>
      </trkpt>
      <trkpt lat="42.93661" lon="-0.19873">
        <ele>1555.5767237644</ele>
        <time>2013-12-07T10:38:17Z</time>
      </trkpt>
      <trkpt lat="42.93658" lon="-0.19872">
        <ele>1555.5767237644</ele>
        <time>2013-12-07T10:38:23Z</time>
      </trkpt>
      <trkpt lat="42.93657" lon="-0.1987">
        <ele>1555.5767237644</ele>
        <time>2013-12-07T10:38:27Z</time>
      </trkpt>
      <trkpt lat="42.93656" lon="-0.19869">
        <ele>1557.4530721545</ele>
        <time>2013-12-07T10:38:33Z</time>
      </trkpt>
      <trkpt lat="42.93655" lon="-0.19867">
        <ele>1557.4530721545</ele>
        <time>2013-12-07T10:38:38Z</time>
      </trkpt>
      <trkpt lat="42.93653" lon="-0.19866">
        <ele>1557.4530721545</ele>
        <time>2013-12-07T10:38:43Z</time>
      </trkpt>
      <trkpt lat="42.93652" lon="-0.19864">
        <ele>1557.4530721545</ele>
        <time>2013-12-07T10:38:48Z</time>
      </trkpt>
      <trkpt lat="42.93652" lon="-0.19862">
        <ele>1557.4530721545</ele>
        <time>2013-12-07T10:38:53Z</time>
      </trkpt>
      <trkpt lat="42.93652" lon="-0.19862">
        <ele>1557.4530721545</ele>
        <time>2013-12-07T10:38:57Z</time>
      </trkpt>
      <trkpt lat="42.93652" lon="-0.19862">
        <ele>1557.4530721545</ele>
        <time>2013-12-07T10:39:23Z</time>
      </trkpt>
      <trkpt lat="42.93651" lon="-0.19861">
        <ele>1557.4530721545</ele>
        <time>2013-12-07T10:39:28Z</time>
      </trkpt>
      <trkpt lat="42.93654" lon="-0.19864">
        <ele>1560.5392911181</ele>
        <time>2013-12-07T10:40:23Z</time>
      </trkpt>
      <trkpt lat="42.93653" lon="-0.19867">
        <ele>1560.5392911181</ele>
        <time>2013-12-07T10:40:27Z</time>
      </trkpt>
      <trkpt lat="42.93651" lon="-0.19871">
        <ele>1560.5392911181</ele>
        <time>2013-12-07T10:40:33Z</time>
      </trkpt>
      <trkpt lat="42.93652" lon="-0.19875">
        <ele>1560.5392911181</ele>
        <time>2013-12-07T10:40:37Z</time>
      </trkpt>
      <trkpt lat="42.93651" lon="-0.19878">
        <ele>1563.4902346255</ele>
        <time>2013-12-07T10:40:43Z</time>
      </trkpt>
      <trkpt lat="42.9365" lon="-0.19881">
        <ele>1563.4902346255</ele>
        <time>2013-12-07T10:40:48Z</time>
      </trkpt>
      <trkpt lat="42.93649" lon="-0.19884">
        <ele>1563.4902346255</ele>
        <time>2013-12-07T10:40:53Z</time>
      </trkpt>
      <trkpt lat="42.93649" lon="-0.19886">
        <ele>1563.4902346255</ele>
        <time>2013-12-07T10:40:58Z</time>
      </trkpt>
      <trkpt lat="42.93648" lon="-0.19888">
        <ele>1563.4902346255</ele>
        <time>2013-12-07T10:41:02Z</time>
      </trkpt>
      <trkpt lat="42.93647" lon="-0.19891">
        <ele>1566.4002238236</ele>
        <time>2013-12-07T10:41:08Z</time>
      </trkpt>
      <trkpt lat="42.93646" lon="-0.19894">
        <ele>1566.4002238236</ele>
        <time>2013-12-07T10:41:12Z</time>
      </trkpt>
      <trkpt lat="42.93647" lon="-0.19896">
        <ele>1566.4002238236</ele>
        <time>2013-12-07T10:41:18Z</time>
      </trkpt>
      <trkpt lat="42.93645" lon="-0.19897">
        <ele>1566.4002238236</ele>
        <time>2013-12-07T10:41:23Z</time>
      </trkpt>
      <trkpt lat="42.93645" lon="-0.19898">
        <ele>1566.4002238236</ele>
        <time>2013-12-07T10:41:28Z</time>
      </trkpt>
      <trkpt lat="42.93644" lon="-0.19901">
        <ele>1566.4002238236</ele>
        <time>2013-12-07T10:41:33Z</time>
      </trkpt>
      <trkpt lat="42.93643" lon="-0.19904">
        <ele>1569.3279858749</ele>
        <time>2013-12-07T10:41:37Z</time>
      </trkpt>
      <trkpt lat="42.93643" lon="-0.19907">
        <ele>1569.3279858749</ele>
        <time>2013-12-07T10:41:43Z</time>
      </trkpt>
      <trkpt lat="42.93643" lon="-0.19908">
        <ele>1569.3279858749</ele>
        <time>2013-12-07T10:41:48Z</time>
      </trkpt>
      <trkpt lat="42.93643" lon="-0.19912">
        <ele>1569.3279858749</ele>
        <time>2013-12-07T10:41:53Z</time>
      </trkpt>
      <trkpt lat="42.93644" lon="-0.19914">
        <ele>1569.3279858749</ele>
        <time>2013-12-07T10:41:58Z</time>
      </trkpt>
      <trkpt lat="42.93643" lon="-0.19915">
        <ele>1569.3279858749</ele>
        <time>2013-12-07T10:42:02Z</time>
      </trkpt>
      <trkpt lat="42.93641" lon="-0.19918">
        <ele>1572.2702847061</ele>
        <time>2013-12-07T10:42:08Z</time>
      </trkpt>
      <trkpt lat="42.93641" lon="-0.1992">
        <ele>1572.2702847061</ele>
        <time>2013-12-07T10:42:14Z</time>
      </trkpt>
      <trkpt lat="42.93639" lon="-0.19923">
        <ele>1572.2702847061</ele>
        <time>2013-12-07T10:42:17Z</time>
      </trkpt>
      <trkpt lat="42.93639" lon="-0.19926">
        <ele>1572.2702847061</ele>
        <time>2013-12-07T10:42:23Z</time>
      </trkpt>
      <trkpt lat="42.9364" lon="-0.19928">
        <ele>1572.2702847061</ele>
        <time>2013-12-07T10:42:27Z</time>
      </trkpt>
      <trkpt lat="42.93636" lon="-0.19938">
        <ele>1575.4402959237</ele>
        <time>2013-12-07T10:42:48Z</time>
      </trkpt>
      <trkpt lat="42.93636" lon="-0.1994">
        <ele>1575.4402959237</ele>
        <time>2013-12-07T10:42:53Z</time>
      </trkpt>
      <trkpt lat="42.93636" lon="-0.19942">
        <ele>1575.4402959237</ele>
        <time>2013-12-07T10:42:58Z</time>
      </trkpt>
      <trkpt lat="42.93635" lon="-0.19945">
        <ele>1575.4402959237</ele>
        <time>2013-12-07T10:43:03Z</time>
      </trkpt>
      <trkpt lat="42.93635" lon="-0.19947">
        <ele>1575.4402959237</ele>
        <time>2013-12-07T10:43:08Z</time>
      </trkpt>
      <trkpt lat="42.93636" lon="-0.1995">
        <ele>1578.6026138398</ele>
        <time>2013-12-07T10:43:13Z</time>
      </trkpt>
      <trkpt lat="42.93635" lon="-0.19952">
        <ele>1578.6026138398</ele>
        <time>2013-12-07T10:43:18Z</time>
      </trkpt>
      <trkpt lat="42.93633" lon="-0.19955">
        <ele>1578.6026138398</ele>
        <time>2013-12-07T10:43:23Z</time>
      </trkpt>
      <trkpt lat="42.93634" lon="-0.19958">
        <ele>1578.6026138398</ele>
        <time>2013-12-07T10:43:28Z</time>
      </trkpt>
      <trkpt lat="42.93634" lon="-0.19962">
        <ele>1581.8706566682</ele>
        <time>2013-12-07T10:43:33Z</time>
      </trkpt>
      <trkpt lat="42.93633" lon="-0.19965">
        <ele>1581.8706566682</ele>
        <time>2013-12-07T10:43:38Z</time>
      </trkpt>
      <trkpt lat="42.93633" lon="-0.19967">
        <ele>1581.8706566682</ele>
        <time>2013-12-07T10:43:43Z</time>
      </trkpt>
      <trkpt lat="42.93631" lon="-0.1997">
        <ele>1581.8706566682</ele>
        <time>2013-12-07T10:43:48Z</time>
      </trkpt>
      <trkpt lat="42.93633" lon="-0.19971">
        <ele>1581.8706566682</ele>
        <time>2013-12-07T10:43:53Z</time>
      </trkpt>
      <trkpt lat="42.93632" lon="-0.1997">
        <ele>1585.6663170587</ele>
        <time>2013-12-07T10:44:38Z</time>
      </trkpt>
      <trkpt lat="42.93631" lon="-0.19967">
        <ele>1585.6663170587</ele>
        <time>2013-12-07T10:44:43Z</time>
      </trkpt>
      <trkpt lat="42.93629" lon="-0.19964">
        <ele>1585.6663170587</ele>
        <time>2013-12-07T10:44:48Z</time>
      </trkpt>
      <trkpt lat="42.93627" lon="-0.19962">
        <ele>1585.6663170587</ele>
        <time>2013-12-07T10:44:53Z</time>
      </trkpt>
      <trkpt lat="42.93626" lon="-0.19961">
        <ele>1589.1685442741</ele>
        <time>2013-12-07T10:44:57Z</time>
      </trkpt>
      <trkpt lat="42.93625" lon="-0.19959">
        <ele>1589.1685442741</ele>
        <time>2013-12-07T10:45:03Z</time>
      </trkpt>
      <trkpt lat="42.93624" lon="-0.19957">
        <ele>1589.1685442741</ele>
        <time>2013-12-07T10:45:07Z</time>
      </trkpt>
      <trkpt lat="42.93623" lon="-0.19956">
        <ele>1589.1685442741</ele>
        <time>2013-12-07T10:45:13Z</time>
      </trkpt>
      <trkpt lat="42.93622" lon="-0.1995">
        <ele>1593.0153708975</ele>
        <time>2013-12-07T10:47:13Z</time>
      </trkpt>
      <trkpt lat="42.9362" lon="-0.19952">
        <ele>1593.0153708975</ele>
        <time>2013-12-07T10:47:18Z</time>
      </trkpt>
      <trkpt lat="42.9362" lon="-0.19955">
        <ele>1593.0153708975</ele>
        <time>2013-12-07T10:47:23Z</time>
      </trkpt>
      <trkpt lat="42.9362" lon="-0.19958">
        <ele>1593.0153708975</ele>
        <time>2013-12-07T10:47:28Z</time>
      </trkpt>
      <trkpt lat="42.9362" lon="-0.19961">
        <ele>1593.0153708975</ele>
        <time>2013-12-07T10:47:33Z</time>
      </trkpt>
      <trkpt lat="42.9362" lon="-0.19964">
        <ele>1596.5865327876</ele>
        <time>2013-12-07T10:47:37Z</time>
      </trkpt>
      <trkpt lat="42.93619" lon="-0.19964">
        <ele>1596.5865327876</ele>
        <time>2013-12-07T10:47:43Z</time>
      </trkpt>
      <trkpt lat="42.93619" lon="-0.19969">
        <ele>1596.5865327876</ele>
        <time>2013-12-07T10:47:53Z</time>
      </trkpt>
      <trkpt lat="42.93617" lon="-0.19972">
        <ele>1596.5865327876</ele>
        <time>2013-12-07T10:47:58Z</time>
      </trkpt>
      <trkpt lat="42.93616" lon="-0.19975">
        <ele>1596.5865327876</ele>
        <time>2013-12-07T10:48:03Z</time>
      </trkpt>
      <trkpt lat="42.93617" lon="-0.19977">
        <ele>1599.8558037525</ele>
        <time>2013-12-07T10:48:08Z</time>
      </trkpt>
      <trkpt lat="42.93617" lon="-0.19978">
        <ele>1599.8558037525</ele>
        <time>2013-12-07T10:48:13Z</time>
      </trkpt>
      <trkpt lat="42.93618" lon="-0.1998">
        <ele>1599.8558037525</ele>
        <time>2013-12-07T10:48:18Z</time>
      </trkpt>
      <trkpt lat="42.93617" lon="-0.19983">
        <ele>1599.8558037525</ele>
        <time>2013-12-07T10:48:23Z</time>
      </trkpt>
      <trkpt lat="42.93617" lon="-0.19985">
        <ele>1599.8558037525</ele>
        <time>2013-12-07T10:48:28Z</time>
      </trkpt>
      <trkpt lat="42.93614" lon="-0.19989">
        <ele>1602.9871566799</ele>
        <time>2013-12-07T10:48:33Z</time>
      </trkpt>
      <trkpt lat="42.93614" lon="-0.19991">
        <ele>1602.9871566799</ele>
        <time>2013-12-07T10:48:38Z</time>
      </trkpt>
      <trkpt lat="42.93614" lon="-0.19993">
        <ele>1602.9871566799</ele>
        <time>2013-12-07T10:48:43Z</time>
      </trkpt>
      <trkpt lat="42.93614" lon="-0.19995">
        <ele>1602.9871566799</ele>
        <time>2013-12-07T10:48:48Z</time>
      </trkpt>
      <trkpt lat="42.93615" lon="-0.19998">
        <ele>1602.9871566799</ele>
        <time>2013-12-07T10:48:53Z</time>
      </trkpt>
      <trkpt lat="42.93615" lon="-0.20001">
        <ele>1606.0032886471</ele>
        <time>2013-12-07T10:48:58Z</time>
      </trkpt>
      <trkpt lat="42.93614" lon="-0.20004">
        <ele>1606.0032886471</ele>
        <time>2013-12-07T10:49:03Z</time>
      </trkpt>
      <trkpt lat="42.93613" lon="-0.20009">
        <ele>1606.0032886471</ele>
        <time>2013-12-07T10:49:07Z</time>
      </trkpt>
      <trkpt lat="42.93611" lon="-0.20011">
        <ele>1606.0032886471</ele>
        <time>2013-12-07T10:49:13Z</time>
      </trkpt>
      <trkpt lat="42.93611" lon="-0.20014">
        <ele>1608.9400461125</ele>
        <time>2013-12-07T10:49:18Z</time>
      </trkpt>
      <trkpt lat="42.93612" lon="-0.20017">
        <ele>1608.9400461125</ele>
        <time>2013-12-07T10:49:23Z</time>
      </trkpt>
      <trkpt lat="42.93612" lon="-0.20019">
        <ele>1608.9400461125</ele>
        <time>2013-12-07T10:49:27Z</time>
      </trkpt>
      <trkpt lat="42.93612" lon="-0.20022">
        <ele>1608.9400461125</ele>
        <time>2013-12-07T10:49:32Z</time>
      </trkpt>
      <trkpt lat="42.93611" lon="-0.20025">
        <ele>1608.9400461125</ele>
        <time>2013-12-07T10:49:38Z</time>
      </trkpt>
      <trkpt lat="42.93611" lon="-0.20027">
        <ele>1611.9174124706</ele>
        <time>2013-12-07T10:49:42Z</time>
      </trkpt>
      <trkpt lat="42.93611" lon="-0.2003">
        <ele>1611.9174124706</ele>
        <time>2013-12-07T10:49:48Z</time>
      </trkpt>
      <trkpt lat="42.93611" lon="-0.20032">
        <ele>1611.9174124706</ele>
        <time>2013-12-07T10:49:52Z</time>
      </trkpt>
      <trkpt lat="42.9361" lon="-0.20034">
        <ele>1611.9174124706</ele>
        <time>2013-12-07T10:49:58Z</time>
      </trkpt>
      <trkpt lat="42.93612" lon="-0.20035">
        <ele>1611.9174124706</ele>
        <time>2013-12-07T10:50:03Z</time>
      </trkpt>
      <trkpt lat="42.93613" lon="-0.20037">
        <ele>1611.9174124706</ele>
        <time>2013-12-07T10:50:07Z</time>
      </trkpt>
      <trkpt lat="42.93612" lon="-0.20039">
        <ele>1614.8303550744</ele>
        <time>2013-12-07T10:50:13Z</time>
      </trkpt>
      <trkpt lat="42.93611" lon="-0.2004">
        <ele>1614.8303550744</ele>
        <time>2013-12-07T10:50:17Z</time>
      </trkpt>
      <trkpt lat="42.93609" lon="-0.20038">
        <ele>1614.8303550744</ele>
        <time>2013-12-07T10:51:07Z</time>
      </trkpt>
      <trkpt lat="42.93608" lon="-0.20034">
        <ele>1614.8303550744</ele>
        <time>2013-12-07T10:51:13Z</time>
      </trkpt>
      <trkpt lat="42.93608" lon="-0.20031">
        <ele>1614.8303550744</ele>
        <time>2013-12-07T10:51:17Z</time>
      </trkpt>
      <trkpt lat="42.93605" lon="-0.20028">
        <ele>1617.5385798034</ele>
        <time>2013-12-07T10:51:23Z</time>
      </trkpt>
      <trkpt lat="42.93603" lon="-0.20025">
        <ele>1617.5385798034</ele>
        <time>2013-12-07T10:51:28Z</time>
      </trkpt>
      <trkpt lat="42.93601" lon="-0.20022">
        <ele>1617.5385798034</ele>
        <time>2013-12-07T10:51:33Z</time>
      </trkpt>
      <trkpt lat="42.936" lon="-0.20019">
        <ele>1617.5385798034</ele>
        <time>2013-12-07T10:51:38Z</time>
      </trkpt>
      <trkpt lat="42.93598" lon="-0.20017">
        <ele>1619.9992110796</ele>
        <time>2013-12-07T10:51:43Z</time>
      </trkpt>
      <trkpt lat="42.93596" lon="-0.20015">
        <ele>1619.9992110796</ele>
        <time>2013-12-07T10:51:48Z</time>
      </trkpt>
      <trkpt lat="42.93595" lon="-0.20013">
        <ele>1619.9992110796</ele>
        <time>2013-12-07T10:51:53Z</time>
      </trkpt>
      <trkpt lat="42.93594" lon="-0.20012">
        <ele>1619.9992110796</ele>
        <time>2013-12-07T10:51:57Z</time>
      </trkpt>
      <trkpt lat="42.93594" lon="-0.2001">
        <ele>1619.9992110796</ele>
        <time>2013-12-07T10:52:03Z</time>
      </trkpt>
      <trkpt lat="42.93594" lon="-0.20009">
        <ele>1619.9992110796</ele>
        <time>2013-12-07T10:52:08Z</time>
      </trkpt>
      <trkpt lat="42.93593" lon="-0.20007">
        <ele>1622.4903291213</ele>
        <time>2013-12-07T10:52:18Z</time>
      </trkpt>
      <trkpt lat="42.93593" lon="-0.20007">
        <ele>1622.4903291213</ele>
        <time>2013-12-07T10:52:23Z</time>
      </trkpt>
      <trkpt lat="42.9359" lon="-0.20005">
        <ele>1622.4903291213</ele>
        <time>2013-12-07T10:52:42Z</time>
      </trkpt>
      <trkpt lat="42.93591" lon="-0.20009">
        <ele>1622.4903291213</ele>
        <time>2013-12-07T10:52:53Z</time>
      </trkpt>
      <trkpt lat="42.93591" lon="-0.20014">
        <ele>1625.0389848897</ele>
        <time>2013-12-07T10:52:58Z</time>
      </trkpt>
      <trkpt lat="42.93592" lon="-0.20018">
        <ele>1625.0389848897</ele>
        <time>2013-12-07T10:53:03Z</time>
      </trkpt>
      <trkpt lat="42.93592" lon="-0.20021">
        <ele>1625.0389848897</ele>
        <time>2013-12-07T10:53:08Z</time>
      </trkpt>
      <trkpt lat="42.9359" lon="-0.20024">
        <ele>1625.0389848897</ele>
        <time>2013-12-07T10:53:13Z</time>
      </trkpt>
      <trkpt lat="42.93591" lon="-0.20027">
        <ele>1627.5548478274</ele>
        <time>2013-12-07T10:53:18Z</time>
      </trkpt>
      <trkpt lat="42.93591" lon="-0.20031">
        <ele>1627.5548478274</ele>
        <time>2013-12-07T10:53:22Z</time>
      </trkpt>
      <trkpt lat="42.93589" lon="-0.20033">
        <ele>1627.5548478274</ele>
        <time>2013-12-07T10:53:28Z</time>
      </trkpt>
      <trkpt lat="42.93589" lon="-0.20036">
        <ele>1627.5548478274</ele>
        <time>2013-12-07T10:53:33Z</time>
      </trkpt>
      <trkpt lat="42.93589" lon="-0.20039">
        <ele>1627.5548478274</ele>
        <time>2013-12-07T10:53:38Z</time>
      </trkpt>
      <trkpt lat="42.93589" lon="-0.20039">
        <ele>1629.9399539271</ele>
        <time>2013-12-07T10:53:43Z</time>
      </trkpt>
      <trkpt lat="42.9359" lon="-0.20043">
        <ele>1629.9399539271</ele>
        <time>2013-12-07T10:53:47Z</time>
      </trkpt>
      <trkpt lat="42.93588" lon="-0.20045">
        <ele>1629.9399539271</ele>
        <time>2013-12-07T10:53:53Z</time>
      </trkpt>
      <trkpt lat="42.93587" lon="-0.20047">
        <ele>1629.9399539271</ele>
        <time>2013-12-07T10:53:58Z</time>
      </trkpt>
      <trkpt lat="42.93586" lon="-0.20049">
        <ele>1629.9399539271</ele>
        <time>2013-12-07T10:54:03Z</time>
      </trkpt>
      <trkpt lat="42.93587" lon="-0.20053">
        <ele>1632.4209914334</ele>
        <time>2013-12-07T10:54:12Z</time>
      </trkpt>
      <trkpt lat="42.93586" lon="-0.20056">
        <ele>1632.4209914334</ele>
        <time>2013-12-07T10:54:18Z</time>
      </trkpt>
      <trkpt lat="42.93585" lon="-0.20058">
        <ele>1632.4209914334</ele>
        <time>2013-12-07T10:54:23Z</time>
      </trkpt>
      <trkpt lat="42.93583" lon="-0.2006">
        <ele>1632.4209914334</ele>
        <time>2013-12-07T10:54:33Z</time>
      </trkpt>
      <trkpt lat="42.93583" lon="-0.20062">
        <ele>1632.4209914334</ele>
        <time>2013-12-07T10:54:38Z</time>
      </trkpt>
      <trkpt lat="42.93582" lon="-0.20063">
        <ele>1632.4209914334</ele>
        <time>2013-12-07T10:54:43Z</time>
      </trkpt>
      <trkpt lat="42.9358" lon="-0.20063">
        <ele>1635.4959895642</ele>
        <time>2013-12-07T10:55:43Z</time>
      </trkpt>
      <trkpt lat="42.93578" lon="-0.20061">
        <ele>1635.4959895642</ele>
        <time>2013-12-07T10:55:48Z</time>
      </trkpt>
      <trkpt lat="42.93577" lon="-0.20058">
        <ele>1635.4959895642</ele>
        <time>2013-12-07T10:55:53Z</time>
      </trkpt>
      <trkpt lat="42.93576" lon="-0.20057">
        <ele>1635.4959895642</ele>
        <time>2013-12-07T10:55:58Z</time>
      </trkpt>
      <trkpt lat="42.93574" lon="-0.20053">
        <ele>1638.2701175668</ele>
        <time>2013-12-07T10:56:03Z</time>
      </trkpt>
      <trkpt lat="42.93573" lon="-0.20051">
        <ele>1638.2701175668</ele>
        <time>2013-12-07T10:56:08Z</time>
      </trkpt>
      <trkpt lat="42.93572" lon="-0.2005">
        <ele>1638.2701175668</ele>
        <time>2013-12-07T10:56:13Z</time>
      </trkpt>
      <trkpt lat="42.9357" lon="-0.20048">
        <ele>1638.2701175668</ele>
        <time>2013-12-07T10:56:18Z</time>
      </trkpt>
      <trkpt lat="42.93569" lon="-0.20047">
        <ele>1638.2701175668</ele>
        <time>2013-12-07T10:56:23Z</time>
      </trkpt>
      <trkpt lat="42.93568" lon="-0.20046">
        <ele>1638.2701175668</ele>
        <time>2013-12-07T10:56:28Z</time>
      </trkpt>
      <trkpt lat="42.93566" lon="-0.20043">
        <ele>1640.8951113431</ele>
        <time>2013-12-07T10:56:33Z</time>
      </trkpt>
      <trkpt lat="42.93564" lon="-0.20042">
        <ele>1640.8951113431</ele>
        <time>2013-12-07T10:56:38Z</time>
      </trkpt>
      <trkpt lat="42.93563" lon="-0.2004">
        <ele>1640.8951113431</ele>
        <time>2013-12-07T10:56:42Z</time>
      </trkpt>
      <trkpt lat="42.93561" lon="-0.20038">
        <ele>1640.8951113431</ele>
        <time>2013-12-07T10:56:48Z</time>
      </trkpt>
      <trkpt lat="42.93561" lon="-0.20038">
        <ele>1640.8951113431</ele>
        <time>2013-12-07T10:56:53Z</time>
      </trkpt>
      <trkpt lat="42.93562" lon="-0.2004">
        <ele>1640.8951113431</ele>
        <time>2013-12-07T10:58:47Z</time>
      </trkpt>
      <trkpt lat="42.93561" lon="-0.20042">
        <ele>1644.2037438995</ele>
        <time>2013-12-07T10:58:53Z</time>
      </trkpt>
      <trkpt lat="42.93561" lon="-0.20047">
        <ele>1644.2037438995</ele>
        <time>2013-12-07T10:58:57Z</time>
      </trkpt>
      <trkpt lat="42.9356" lon="-0.20052">
        <ele>1644.2037438995</ele>
        <time>2013-12-07T10:59:03Z</time>
      </trkpt>
      <trkpt lat="42.9356" lon="-0.20055">
        <ele>1647.221980812</ele>
        <time>2013-12-07T10:59:08Z</time>
      </trkpt>
      <trkpt lat="42.93559" lon="-0.20058">
        <ele>1647.221980812</ele>
        <time>2013-12-07T10:59:13Z</time>
      </trkpt>
      <trkpt lat="42.93559" lon="-0.20058">
        <ele>1647.221980812</ele>
        <time>2013-12-07T10:59:18Z</time>
      </trkpt>
      <trkpt lat="42.93557" lon="-0.20063">
        <ele>1647.221980812</ele>
        <time>2013-12-07T10:59:28Z</time>
      </trkpt>
      <trkpt lat="42.93556" lon="-0.20066">
        <ele>1650.0281396112</ele>
        <time>2013-12-07T10:59:33Z</time>
      </trkpt>
      <trkpt lat="42.93555" lon="-0.20068">
        <ele>1650.0281396112</ele>
        <time>2013-12-07T10:59:37Z</time>
      </trkpt>
      <trkpt lat="42.93555" lon="-0.20072">
        <ele>1650.0281396112</ele>
        <time>2013-12-07T10:59:43Z</time>
      </trkpt>
      <trkpt lat="42.93554" lon="-0.20076">
        <ele>1650.0281396112</ele>
        <time>2013-12-07T10:59:48Z</time>
      </trkpt>
      <trkpt lat="42.93555" lon="-0.20077">
        <ele>1650.0281396112</ele>
        <time>2013-12-07T10:59:53Z</time>
      </trkpt>
      <trkpt lat="42.93553" lon="-0.20083">
        <ele>1652.6954078938</ele>
        <time>2013-12-07T10:59:58Z</time>
      </trkpt>
      <trkpt lat="42.93553" lon="-0.20087">
        <ele>1652.6954078938</ele>
        <time>2013-12-07T11:00:03Z</time>
      </trkpt>
      <trkpt lat="42.93552" lon="-0.2009">
        <ele>1652.6954078938</ele>
        <time>2013-12-07T11:00:08Z</time>
      </trkpt>
      <trkpt lat="42.9355" lon="-0.20093">
        <ele>1652.6954078938</ele>
        <time>2013-12-07T11:00:12Z</time>
      </trkpt>
      <trkpt lat="42.9355" lon="-0.20094">
        <ele>1652.6954078938</ele>
        <time>2013-12-07T11:00:18Z</time>
      </trkpt>
      <trkpt lat="42.93548" lon="-0.20093">
        <ele>1655.3208356424</ele>
        <time>2013-12-07T11:00:23Z</time>
      </trkpt>
      <trkpt lat="42.93546" lon="-0.2009">
        <ele>1655.3208356424</ele>
        <time>2013-12-07T11:00:28Z</time>
      </trkpt>
      <trkpt lat="42.93544" lon="-0.20088">
        <ele>1655.3208356424</ele>
        <time>2013-12-07T11:00:33Z</time>
      </trkpt>
      <trkpt lat="42.93542" lon="-0.20087">
        <ele>1655.3208356424</ele>
        <time>2013-12-07T11:00:37Z</time>
      </trkpt>
      <trkpt lat="42.93541" lon="-0.20085">
        <ele>1657.9656630484</ele>
        <time>2013-12-07T11:00:43Z</time>
      </trkpt>
      <trkpt lat="42.93539" lon="-0.20081">
        <ele>1657.9656630484</ele>
        <time>2013-12-07T11:01:17Z</time>
      </trkpt>
      <trkpt lat="42.93537" lon="-0.20078">
        <ele>1657.9656630484</ele>
        <time>2013-12-07T11:01:23Z</time>
      </trkpt>
      <trkpt lat="42.93536" lon="-0.20076">
        <ele>1657.9656630484</ele>
        <time>2013-12-07T11:01:27Z</time>
      </trkpt>
      <trkpt lat="42.93534" lon="-0.20072">
        <ele>1660.7010097442</ele>
        <time>2013-12-07T11:01:33Z</time>
      </trkpt>
      <trkpt lat="42.93534" lon="-0.20071">
        <ele>1660.7010097442</ele>
        <time>2013-12-07T11:01:38Z</time>
      </trkpt>
      <trkpt lat="42.93532" lon="-0.20067">
        <ele>1660.7010097442</ele>
        <time>2013-12-07T11:01:43Z</time>
      </trkpt>
      <trkpt lat="42.9353" lon="-0.20064">
        <ele>1660.7010097442</ele>
        <time>2013-12-07T11:01:48Z</time>
      </trkpt>
      <trkpt lat="42.9353" lon="-0.20064">
        <ele>1660.7010097442</ele>
        <time>2013-12-07T11:01:52Z</time>
      </trkpt>
      <trkpt lat="42.9353" lon="-0.20068">
        <ele>1663.4196021656</ele>
        <time>2013-12-07T11:01:58Z</time>
      </trkpt>
      <trkpt lat="42.93531" lon="-0.20068">
        <ele>1663.4196021656</ele>
        <time>2013-12-07T11:02:03Z</time>
      </trkpt>
      <trkpt lat="42.93531" lon="-0.20075">
        <ele>1663.4196021656</ele>
        <time>2013-12-07T11:02:13Z</time>
      </trkpt>
      <trkpt lat="42.9353" lon="-0.20079">
        <ele>1663.4196021656</ele>
        <time>2013-12-07T11:02:18Z</time>
      </trkpt>
      <trkpt lat="42.93529" lon="-0.20082">
        <ele>1665.9212317877</ele>
        <time>2013-12-07T11:02:23Z</time>
      </trkpt>
      <trkpt lat="42.93529" lon="-0.20086">
        <ele>1665.9212317877</ele>
        <time>2013-12-07T11:02:27Z</time>
      </trkpt>
      <trkpt lat="42.93528" lon="-0.20089">
        <ele>1665.9212317877</ele>
        <time>2013-12-07T11:02:33Z</time>
      </trkpt>
      <trkpt lat="42.93528" lon="-0.20092">
        <ele>1665.9212317877</ele>
        <time>2013-12-07T11:02:38Z</time>
      </trkpt>
      <trkpt lat="42.93527" lon="-0.20091">
        <ele>1665.9212317877</ele>
        <time>2013-12-07T11:02:43Z</time>
      </trkpt>
      <trkpt lat="42.93525" lon="-0.20093">
        <ele>1668.9145087392</ele>
        <time>2013-12-07T11:02:58Z</time>
      </trkpt>
      <trkpt lat="42.93525" lon="-0.20097">
        <ele>1668.9145087392</ele>
        <time>2013-12-07T11:03:02Z</time>
      </trkpt>
      <trkpt lat="42.93525" lon="-0.20101">
        <ele>1668.9145087392</ele>
        <time>2013-12-07T11:03:08Z</time>
      </trkpt>
      <trkpt lat="42.93525" lon="-0.20105">
        <ele>1668.9145087392</ele>
        <time>2013-12-07T11:03:13Z</time>
      </trkpt>
      <trkpt lat="42.93525" lon="-0.20108">
        <ele>1671.7720321945</ele>
        <time>2013-12-07T11:03:17Z</time>
      </trkpt>
      <trkpt lat="42.93525" lon="-0.20113">
        <ele>1671.7720321945</ele>
        <time>2013-12-07T11:03:23Z</time>
      </trkpt>
      <trkpt lat="42.93524" lon="-0.20117">
        <ele>1671.7720321945</ele>
        <time>2013-12-07T11:03:27Z</time>
      </trkpt>
      <trkpt lat="42.93524" lon="-0.20117">
        <ele>1671.7720321945</ele>
        <time>2013-12-07T11:03:33Z</time>
      </trkpt>
      <trkpt lat="42.93524" lon="-0.20122">
        <ele>1674.6478479945</ele>
        <time>2013-12-07T11:03:43Z</time>
      </trkpt>
      <trkpt lat="42.93525" lon="-0.20126">
        <ele>1674.6478479945</ele>
        <time>2013-12-07T11:03:48Z</time>
      </trkpt>
      <trkpt lat="42.93525" lon="-0.20129">
        <ele>1674.6478479945</ele>
        <time>2013-12-07T11:03:53Z</time>
      </trkpt>
      <trkpt lat="42.93524" lon="-0.20131">
        <ele>1674.6478479945</ele>
        <time>2013-12-07T11:03:58Z</time>
      </trkpt>
      <trkpt lat="42.93524" lon="-0.20133">
        <ele>1674.6478479945</ele>
        <time>2013-12-07T11:04:13Z</time>
      </trkpt>
      <trkpt lat="42.93524" lon="-0.20137">
        <ele>1677.5693552511</ele>
        <time>2013-12-07T11:04:17Z</time>
      </trkpt>
      <trkpt lat="42.93523" lon="-0.20141">
        <ele>1677.5693552511</ele>
        <time>2013-12-07T11:04:23Z</time>
      </trkpt>
      <trkpt lat="42.93523" lon="-0.20146">
        <ele>1677.5693552511</ele>
        <time>2013-12-07T11:04:28Z</time>
      </trkpt>
      <trkpt lat="42.93522" lon="-0.20149">
        <ele>1677.5693552511</ele>
        <time>2013-12-07T11:04:33Z</time>
      </trkpt>
      <trkpt lat="42.93522" lon="-0.20151">
        <ele>1680.4753548548</ele>
        <time>2013-12-07T11:04:38Z</time>
      </trkpt>
      <trkpt lat="42.93522" lon="-0.20151">
        <ele>1680.4753548548</ele>
        <time>2013-12-07T11:04:43Z</time>
      </trkpt>
      <trkpt lat="42.93518" lon="-0.20146">
        <ele>1680.4753548548</ele>
        <time>2013-12-07T11:04:48Z</time>
      </trkpt>
      <trkpt lat="42.93516" lon="-0.20143">
        <ele>1680.4753548548</ele>
        <time>2013-12-07T11:04:53Z</time>
      </trkpt>
      <trkpt lat="42.93516" lon="-0.20143">
        <ele>1680.4753548548</ele>
        <time>2013-12-07T11:04:57Z</time>
      </trkpt>
      <trkpt lat="42.93515" lon="-0.20141">
        <ele>1683.3956626128</ele>
        <time>2013-12-07T11:05:13Z</time>
      </trkpt>
      <trkpt lat="42.93513" lon="-0.20138">
        <ele>1683.3956626128</ele>
        <time>2013-12-07T11:05:18Z</time>
      </trkpt>
      <trkpt lat="42.93511" lon="-0.20135">
        <ele>1683.3956626128</ele>
        <time>2013-12-07T11:05:23Z</time>
      </trkpt>
      <trkpt lat="42.93508" lon="-0.20132">
        <ele>1686.0840611684</ele>
        <time>2013-12-07T11:05:28Z</time>
      </trkpt>
      <trkpt lat="42.93505" lon="-0.2013">
        <ele>1686.0840611684</ele>
        <time>2013-12-07T11:05:33Z</time>
      </trkpt>
      <trkpt lat="42.93503" lon="-0.20128">
        <ele>1686.0840611684</ele>
        <time>2013-12-07T11:05:37Z</time>
      </trkpt>
      <trkpt lat="42.93501" lon="-0.20125">
        <ele>1688.6301226347</ele>
        <time>2013-12-07T11:05:43Z</time>
      </trkpt>
      <trkpt lat="42.93498" lon="-0.20123">
        <ele>1688.6301226347</ele>
        <time>2013-12-07T11:05:47Z</time>
      </trkpt>
      <trkpt lat="42.93496" lon="-0.20122">
        <ele>1688.6301226347</ele>
        <time>2013-12-07T11:05:52Z</time>
      </trkpt>
      <trkpt lat="42.93493" lon="-0.2012">
        <ele>1688.6301226347</ele>
        <time>2013-12-07T11:05:58Z</time>
      </trkpt>
      <trkpt lat="42.93492" lon="-0.2012">
        <ele>1691.102832915</ele>
        <time>2013-12-07T11:06:02Z</time>
      </trkpt>
      <trkpt lat="42.9349" lon="-0.20119">
        <ele>1691.102832915</ele>
        <time>2013-12-07T11:06:18Z</time>
      </trkpt>
      <trkpt lat="42.93487" lon="-0.20116">
        <ele>1691.102832915</ele>
        <time>2013-12-07T11:06:23Z</time>
      </trkpt>
      <trkpt lat="42.93484" lon="-0.20113">
        <ele>1693.6816081277</ele>
        <time>2013-12-07T11:06:28Z</time>
      </trkpt>
      <trkpt lat="42.93483" lon="-0.20111">
        <ele>1693.6816081277</ele>
        <time>2013-12-07T11:06:32Z</time>
      </trkpt>
      <trkpt lat="42.93481" lon="-0.20107">
        <ele>1693.6816081277</ele>
        <time>2013-12-07T11:06:38Z</time>
      </trkpt>
      <trkpt lat="42.93478" lon="-0.20105">
        <ele>1693.6816081277</ele>
        <time>2013-12-07T11:06:43Z</time>
      </trkpt>
      <trkpt lat="42.93477" lon="-0.20103">
        <ele>1696.2297539284</ele>
        <time>2013-12-07T11:06:48Z</time>
      </trkpt>
      <trkpt lat="42.93477" lon="-0.20103">
        <ele>1696.2297539284</ele>
        <time>2013-12-07T11:06:53Z</time>
      </trkpt>
      <trkpt lat="42.93478" lon="-0.20107">
        <ele>1696.2297539284</ele>
        <time>2013-12-07T11:06:58Z</time>
      </trkpt>
      <trkpt lat="42.93478" lon="-0.20113">
        <ele>1696.2297539284</ele>
        <time>2013-12-07T11:07:03Z</time>
      </trkpt>
      <trkpt lat="42.93479" lon="-0.20114">
        <ele>1696.2297539284</ele>
        <time>2013-12-07T11:07:08Z</time>
      </trkpt>
      <trkpt lat="42.93479" lon="-0.20119">
        <ele>1698.8512789226</ele>
        <time>2013-12-07T11:07:23Z</time>
      </trkpt>
      <trkpt lat="42.9348" lon="-0.20124">
        <ele>1698.8512789226</ele>
        <time>2013-12-07T11:07:27Z</time>
      </trkpt>
      <trkpt lat="42.9348" lon="-0.20129">
        <ele>1698.8512789226</ele>
        <time>2013-12-07T11:07:33Z</time>
      </trkpt>
      <trkpt lat="42.9348" lon="-0.20132">
        <ele>1701.3397071422</ele>
        <time>2013-12-07T11:07:38Z</time>
      </trkpt>
      <trkpt lat="42.9348" lon="-0.20135">
        <ele>1701.3397071422</ele>
        <time>2013-12-07T11:07:43Z</time>
      </trkpt>
      <trkpt lat="42.9348" lon="-0.2014">
        <ele>1701.3397071422</ele>
        <time>2013-12-07T11:07:48Z</time>
      </trkpt>
      <trkpt lat="42.9348" lon="-0.20144">
        <ele>1701.3397071422</ele>
        <time>2013-12-07T11:07:53Z</time>
      </trkpt>
      <trkpt lat="42.9348" lon="-0.20147">
        <ele>1703.8499633024</ele>
        <time>2013-12-07T11:07:58Z</time>
      </trkpt>
      <trkpt lat="42.9348" lon="-0.2015">
        <ele>1703.8499633024</ele>
        <time>2013-12-07T11:08:03Z</time>
      </trkpt>
      <trkpt lat="42.9348" lon="-0.20152">
        <ele>1703.8499633024</ele>
        <time>2013-12-07T11:08:08Z</time>
      </trkpt>
      <trkpt lat="42.93479" lon="-0.20157">
        <ele>1703.8499633024</ele>
        <time>2013-12-07T11:08:13Z</time>
      </trkpt>
      <trkpt lat="42.93479" lon="-0.2016">
        <ele>1706.4246432248</ele>
        <time>2013-12-07T11:08:18Z</time>
      </trkpt>
      <trkpt lat="42.93479" lon="-0.20162">
        <ele>1706.4246432248</ele>
        <time>2013-12-07T11:08:23Z</time>
      </trkpt>
      <trkpt lat="42.9348" lon="-0.20167">
        <ele>1706.4246432248</ele>
        <time>2013-12-07T11:09:07Z</time>
      </trkpt>
      <trkpt lat="42.93479" lon="-0.2017">
        <ele>1706.4246432248</ele>
        <time>2013-12-07T11:09:43Z</time>
      </trkpt>
      <trkpt lat="42.93479" lon="-0.20174">
        <ele>1709.1894888865</ele>
        <time>2013-12-07T11:09:48Z</time>
      </trkpt>
      <trkpt lat="42.93479" lon="-0.20178">
        <ele>1709.1894888865</ele>
        <time>2013-12-07T11:09:53Z</time>
      </trkpt>
      <trkpt lat="42.93476" lon="-0.2018">
        <ele>1709.1894888865</ele>
        <time>2013-12-07T11:09:58Z</time>
      </trkpt>
      <trkpt lat="42.93476" lon="-0.20179">
        <ele>1709.1894888865</ele>
        <time>2013-12-07T11:10:03Z</time>
      </trkpt>
      <trkpt lat="42.93474" lon="-0.20177">
        <ele>1711.8713596321</ele>
        <time>2013-12-07T11:10:18Z</time>
      </trkpt>
      <trkpt lat="42.93471" lon="-0.20174">
        <ele>1711.8713596321</ele>
        <time>2013-12-07T11:10:22Z</time>
      </trkpt>
      <trkpt lat="42.93468" lon="-0.2017">
        <ele>1711.8713596321</ele>
        <time>2013-12-07T11:10:28Z</time>
      </trkpt>
      <trkpt lat="42.93466" lon="-0.20167">
        <ele>1714.3326880446</ele>
        <time>2013-12-07T11:10:33Z</time>
      </trkpt>
      <trkpt lat="42.93463" lon="-0.20164">
        <ele>1714.3326880446</ele>
        <time>2013-12-07T11:10:38Z</time>
      </trkpt>
      <trkpt lat="42.9346" lon="-0.20161">
        <ele>1714.3326880446</ele>
        <time>2013-12-07T11:10:43Z</time>
      </trkpt>
      <trkpt lat="42.93458" lon="-0.20159">
        <ele>1716.6771944538</ele>
        <time>2013-12-07T11:10:47Z</time>
      </trkpt>
      <trkpt lat="42.93455" lon="-0.20158">
        <ele>1716.6771944538</ele>
        <time>2013-12-07T11:10:53Z</time>
      </trkpt>
      <trkpt lat="42.93453" lon="-0.20158">
        <ele>1716.6771944538</ele>
        <time>2013-12-07T11:10:58Z</time>
      </trkpt>
      <trkpt lat="42.93452" lon="-0.20156">
        <ele>1716.6771944538</ele>
        <time>2013-12-07T11:11:03Z</time>
      </trkpt>
      <trkpt lat="42.93451" lon="-0.20157">
        <ele>1716.6771944538</ele>
        <time>2013-12-07T11:11:08Z</time>
      </trkpt>
      <trkpt lat="42.93451" lon="-0.2016">
        <ele>1719.0157027599</ele>
        <time>2013-12-07T11:11:13Z</time>
      </trkpt>
      <trkpt lat="42.93451" lon="-0.2016">
        <ele>1719.0157027599</ele>
        <time>2013-12-07T11:11:18Z</time>
      </trkpt>
      <trkpt lat="42.93452" lon="-0.20163">
        <ele>1719.0157027599</ele>
        <time>2013-12-07T11:11:28Z</time>
      </trkpt>
      <trkpt lat="42.93451" lon="-0.20163">
        <ele>1719.0157027599</ele>
        <time>2013-12-07T11:11:33Z</time>
      </trkpt>
      <trkpt lat="42.93452" lon="-0.20165">
        <ele>1719.0157027599</ele>
        <time>2013-12-07T11:11:38Z</time>
      </trkpt>
      <trkpt lat="42.93451" lon="-0.2017">
        <ele>1719.0157027599</ele>
        <time>2013-12-07T11:11:43Z</time>
      </trkpt>
      <trkpt lat="42.93451" lon="-0.20174">
        <ele>1721.3211942584</ele>
        <time>2013-12-07T11:11:48Z</time>
      </trkpt>
      <trkpt lat="42.93451" lon="-0.20179">
        <ele>1721.3211942584</ele>
        <time>2013-12-07T11:11:53Z</time>
      </trkpt>
      <trkpt lat="42.93451" lon="-0.20182">
        <ele>1721.3211942584</ele>
        <time>2013-12-07T11:11:58Z</time>
      </trkpt>
      <trkpt lat="42.9345" lon="-0.20185">
        <ele>1721.3211942584</ele>
        <time>2013-12-07T11:12:02Z</time>
      </trkpt>
      <trkpt lat="42.9345" lon="-0.20189">
        <ele>1723.7416402712</ele>
        <time>2013-12-07T11:12:08Z</time>
      </trkpt>
      <trkpt lat="42.93448" lon="-0.20192">
        <ele>1723.7416402712</ele>
        <time>2013-12-07T11:12:13Z</time>
      </trkpt>
      <trkpt lat="42.93446" lon="-0.20191">
        <ele>1723.7416402712</ele>
        <time>2013-12-07T11:12:18Z</time>
      </trkpt>
      <trkpt lat="42.93445" lon="-0.20191">
        <ele>1723.7416402712</ele>
        <time>2013-12-07T11:12:23Z</time>
      </trkpt>
      <trkpt lat="42.93444" lon="-0.20189">
        <ele>1723.7416402712</ele>
        <time>2013-12-07T11:12:48Z</time>
      </trkpt>
      <trkpt lat="42.93441" lon="-0.20185">
        <ele>1726.4714416992</ele>
        <time>2013-12-07T11:12:52Z</time>
      </trkpt>
      <trkpt lat="42.93439" lon="-0.20181">
        <ele>1726.4714416992</ele>
        <time>2013-12-07T11:12:58Z</time>
      </trkpt>
      <trkpt lat="42.93436" lon="-0.20177">
        <ele>1726.4714416992</ele>
        <time>2013-12-07T11:13:03Z</time>
      </trkpt>
      <trkpt lat="42.93434" lon="-0.20173">
        <ele>1728.9980935932</ele>
        <time>2013-12-07T11:13:08Z</time>
      </trkpt>
      <trkpt lat="42.93432" lon="-0.20169">
        <ele>1728.9980935932</ele>
        <time>2013-12-07T11:13:13Z</time>
      </trkpt>
      <trkpt lat="42.93431" lon="-0.20167">
        <ele>1728.9980935932</ele>
        <time>2013-12-07T11:13:18Z</time>
      </trkpt>
      <trkpt lat="42.93428" lon="-0.20164">
        <ele>1731.337262409</ele>
        <time>2013-12-07T11:13:23Z</time>
      </trkpt>
      <trkpt lat="42.93425" lon="-0.20161">
        <ele>1731.337262409</ele>
        <time>2013-12-07T11:13:28Z</time>
      </trkpt>
      <trkpt lat="42.93424" lon="-0.20159">
        <ele>1731.337262409</ele>
        <time>2013-12-07T11:13:32Z</time>
      </trkpt>
      <trkpt lat="42.93424" lon="-0.20159">
        <ele>1731.337262409</ele>
        <time>2013-12-07T11:13:38Z</time>
      </trkpt>
      <trkpt lat="42.93422" lon="-0.20157">
        <ele>1731.337262409</ele>
        <time>2013-12-07T11:13:42Z</time>
      </trkpt>
      <trkpt lat="42.93419" lon="-0.20155">
        <ele>1733.8065979302</ele>
        <time>2013-12-07T11:13:48Z</time>
      </trkpt>
      <trkpt lat="42.93416" lon="-0.20153">
        <ele>1733.8065979302</ele>
        <time>2013-12-07T11:13:53Z</time>
      </trkpt>
      <trkpt lat="42.93413" lon="-0.20151">
        <ele>1733.8065979302</ele>
        <time>2013-12-07T11:13:57Z</time>
      </trkpt>
      <trkpt lat="42.93411" lon="-0.2015">
        <ele>1736.1956354409</ele>
        <time>2013-12-07T11:14:03Z</time>
      </trkpt>
      <trkpt lat="42.93408" lon="-0.20149">
        <ele>1736.1956354409</ele>
        <time>2013-12-07T11:14:07Z</time>
      </trkpt>
      <trkpt lat="42.93405" lon="-0.20147">
        <ele>1736.1956354409</ele>
        <time>2013-12-07T11:14:13Z</time>
      </trkpt>
      <trkpt lat="42.93402" lon="-0.20146">
        <ele>1738.5113246747</ele>
        <time>2013-12-07T11:14:18Z</time>
      </trkpt>
      <trkpt lat="42.93399" lon="-0.20145">
        <ele>1738.5113246747</ele>
        <time>2013-12-07T11:14:23Z</time>
      </trkpt>
      <trkpt lat="42.93399" lon="-0.20148">
        <ele>1738.5113246747</ele>
        <time>2013-12-07T11:15:24Z</time>
      </trkpt>
      <trkpt lat="42.93398" lon="-0.20153">
        <ele>1738.5113246747</ele>
        <time>2013-12-07T11:15:28Z</time>
      </trkpt>
      <trkpt lat="42.93398" lon="-0.20154">
        <ele>1741.0196827317</ele>
        <time>2013-12-07T11:15:34Z</time>
      </trkpt>
      <trkpt lat="42.93397" lon="-0.20156">
        <ele>1741.0196827317</ele>
        <time>2013-12-07T11:15:47Z</time>
      </trkpt>
      <trkpt lat="42.93395" lon="-0.2016">
        <ele>1741.0196827317</ele>
        <time>2013-12-07T11:15:53Z</time>
      </trkpt>
      <trkpt lat="42.93394" lon="-0.20162">
        <ele>1741.0196827317</ele>
        <time>2013-12-07T11:15:58Z</time>
      </trkpt>
      <trkpt lat="42.93394" lon="-0.20161">
        <ele>1741.0196827317</ele>
        <time>2013-12-07T11:18:57Z</time>
      </trkpt>
      <trkpt lat="42.93394" lon="-0.20159">
        <ele>1743.9810280528</ele>
        <time>2013-12-07T11:19:02Z</time>
      </trkpt>
      <trkpt lat="42.93395" lon="-0.20159">
        <ele>1743.9810280528</ele>
        <time>2013-12-07T11:19:07Z</time>
      </trkpt>
      <trkpt lat="42.93395" lon="-0.2016">
        <ele>1743.9810280528</ele>
        <time>2013-12-07T11:19:12Z</time>
      </trkpt>
      <trkpt lat="42.93398" lon="-0.20155">
        <ele>1743.9810280528</ele>
        <time>2013-12-07T11:20:47Z</time>
      </trkpt>
      <trkpt lat="42.93398" lon="-0.20155">
        <ele>1743.9810280528</ele>
        <time>2013-12-07T11:20:52Z</time>
      </trkpt>
      <trkpt lat="42.93402" lon="-0.20162">
        <ele>1746.6264799101</ele>
        <time>2013-12-07T11:21:02Z</time>
      </trkpt>
      <trkpt lat="42.93408" lon="-0.20168">
        <ele>1746.6264799101</ele>
        <time>2013-12-07T11:21:07Z</time>
      </trkpt>
      <trkpt lat="42.93404" lon="-0.20158">
        <ele>1748.9074098735</ele>
        <time>2013-12-07T11:21:12Z</time>
      </trkpt>
      <trkpt lat="42.93402" lon="-0.20155">
        <ele>1748.9074098735</ele>
        <time>2013-12-07T11:21:17Z</time>
      </trkpt>
      <trkpt lat="42.93401" lon="-0.20154">
        <ele>1748.9074098735</ele>
        <time>2013-12-07T11:21:22Z</time>
      </trkpt>
      <trkpt lat="42.93395" lon="-0.20161">
        <ele>1750.8662243824</ele>
        <time>2013-12-07T11:22:52Z</time>
      </trkpt>
      <trkpt lat="42.93397" lon="-0.20162">
        <ele>1750.8662243824</ele>
        <time>2013-12-07T11:22:57Z</time>
      </trkpt>
      <trkpt lat="42.93398" lon="-0.20149">
        <ele>1752.5863236542</ele>
        <time>2013-12-07T11:26:08Z</time>
      </trkpt>
      <trkpt lat="42.93398" lon="-0.20149">
        <ele>1752.5863236542</ele>
        <time>2013-12-07T11:26:12Z</time>
      </trkpt>
      <trkpt lat="42.93392" lon="-0.20159">
        <ele>1753.9294522322</ele>
        <time>2013-12-07T11:27:08Z</time>
      </trkpt>
      <trkpt lat="42.93392" lon="-0.20159">
        <ele>1753.9294522322</ele>
        <time>2013-12-07T11:27:12Z</time>
      </trkpt>
      <trkpt lat="42.93397" lon="-0.20155">
        <ele>1753.9294522322</ele>
        <time>2013-12-07T11:28:32Z</time>
      </trkpt>
      <trkpt lat="42.93398" lon="-0.20156">
        <ele>1753.9294522322</ele>
        <time>2013-12-07T11:28:42Z</time>
      </trkpt>
      <trkpt lat="42.93396" lon="-0.20158">
        <ele>1754.7973519418</ele>
        <time>2013-12-07T11:32:42Z</time>
      </trkpt>
      <trkpt lat="42.93396" lon="-0.20157">
        <ele>1754.7973519418</ele>
        <time>2013-12-07T11:32:47Z</time>
      </trkpt>
      <trkpt lat="42.93396" lon="-0.20158">
        <ele>1754.7973519418</ele>
        <time>2013-12-07T11:32:53Z</time>
      </trkpt>
      <trkpt lat="42.93396" lon="-0.20157">
        <ele>1754.7973519418</ele>
        <time>2013-12-07T11:32:57Z</time>
      </trkpt>
      <trkpt lat="42.93398" lon="-0.20154">
        <ele>1754.7973519418</ele>
        <time>2013-12-07T11:33:07Z</time>
      </trkpt>
      <trkpt lat="42.93398" lon="-0.20152">
        <ele>1754.7973519418</ele>
        <time>2013-12-07T11:33:13Z</time>
      </trkpt>
      <trkpt lat="42.93397" lon="-0.20155">
        <ele>1754.7973519418</ele>
        <time>2013-12-07T11:33:18Z</time>
      </trkpt>
      <trkpt lat="42.93396" lon="-0.20155">
        <ele>1754.7973519418</ele>
        <time>2013-12-07T11:33:23Z</time>
      </trkpt>
      <trkpt lat="42.93392" lon="-0.20153">
        <ele>1755.3020238471</ele>
        <time>2013-12-07T11:33:42Z</time>
      </trkpt>
      <trkpt lat="42.93393" lon="-0.20151">
        <ele>1755.3020238471</ele>
        <time>2013-12-07T11:34:07Z</time>
      </trkpt>
      <trkpt lat="42.93393" lon="-0.2015">
        <ele>1755.3020238471</ele>
        <time>2013-12-07T11:34:13Z</time>
      </trkpt>
      <trkpt lat="42.93394" lon="-0.20148">
        <ele>1755.3020238471</ele>
        <time>2013-12-07T11:34:17Z</time>
      </trkpt>
      <trkpt lat="42.93394" lon="-0.20148">
        <ele>1755.3020238471</ele>
        <time>2013-12-07T11:34:22Z</time>
      </trkpt>
      <trkpt lat="42.93395" lon="-0.20147">
        <ele>1755.3020238471</ele>
        <time>2013-12-07T11:34:33Z</time>
      </trkpt>
      <trkpt lat="42.93395" lon="-0.20148">
        <ele>1755.3020238471</ele>
        <time>2013-12-07T11:34:37Z</time>
      </trkpt>
      <trkpt lat="42.93393" lon="-0.20161">
        <ele>1754.9717561567</ele>
        <time>2013-12-07T11:34:58Z</time>
      </trkpt>
      <trkpt lat="42.93397" lon="-0.20151">
        <ele>1754.9717561567</ele>
        <time>2013-12-07T11:37:52Z</time>
      </trkpt>
      <trkpt lat="42.93399" lon="-0.20152">
        <ele>1755.2307921526</ele>
        <time>2013-12-07T11:38:08Z</time>
      </trkpt>
      <trkpt lat="42.93397" lon="-0.20156">
        <ele>1755.2307921526</ele>
        <time>2013-12-07T11:38:23Z</time>
      </trkpt>
      <trkpt lat="42.93397" lon="-0.20158">
        <ele>1755.2307921526</ele>
        <time>2013-12-07T11:38:33Z</time>
      </trkpt>
      <trkpt lat="42.93392" lon="-0.20163">
        <ele>1755.1776981244</ele>
        <time>2013-12-07T11:38:37Z</time>
      </trkpt>
      <trkpt lat="42.93384" lon="-0.20168">
        <ele>1755.1776981244</ele>
        <time>2013-12-07T11:38:42Z</time>
      </trkpt>
      <trkpt lat="42.93383" lon="-0.20169">
        <ele>1755.0300434876</ele>
        <time>2013-12-07T11:38:47Z</time>
      </trkpt>
      <trkpt lat="42.93382" lon="-0.20169">
        <ele>1755.0300434876</ele>
        <time>2013-12-07T11:38:53Z</time>
      </trkpt>
      <trkpt lat="42.93378" lon="-0.20169">
        <ele>1755.0300434876</ele>
        <time>2013-12-07T11:38:57Z</time>
      </trkpt>
      <trkpt lat="42.93376" lon="-0.20172">
        <ele>1755.0300434876</ele>
        <time>2013-12-07T11:39:03Z</time>
      </trkpt>
      <trkpt lat="42.93374" lon="-0.20172">
        <ele>1754.9175078018</ele>
        <time>2013-12-07T11:39:07Z</time>
      </trkpt>
      <trkpt lat="42.93371" lon="-0.20172">
        <ele>1754.9175078018</ele>
        <time>2013-12-07T11:39:12Z</time>
      </trkpt>
      <trkpt lat="42.93373" lon="-0.20175">
        <ele>1754.9175078018</ele>
        <time>2013-12-07T11:39:17Z</time>
      </trkpt>
      <trkpt lat="42.93372" lon="-0.20178">
        <ele>1754.9175078018</ele>
        <time>2013-12-07T11:39:22Z</time>
      </trkpt>
      <trkpt lat="42.93371" lon="-0.20181">
        <ele>1754.8447272825</ele>
        <time>2013-12-07T11:39:28Z</time>
      </trkpt>
      <trkpt lat="42.93371" lon="-0.20178">
        <ele>1754.8447272825</ele>
        <time>2013-12-07T11:39:38Z</time>
      </trkpt>
      <trkpt lat="42.93367" lon="-0.20181">
        <ele>1754.8447272825</ele>
        <time>2013-12-07T11:39:43Z</time>
      </trkpt>
      <trkpt lat="42.93366" lon="-0.20183">
        <ele>1754.945444877</ele>
        <time>2013-12-07T11:39:47Z</time>
      </trkpt>
      <trkpt lat="42.93366" lon="-0.20185">
        <ele>1754.945444877</ele>
        <time>2013-12-07T11:39:53Z</time>
      </trkpt>
      <trkpt lat="42.93362" lon="-0.20189">
        <ele>1754.945444877</ele>
        <time>2013-12-07T11:39:57Z</time>
      </trkpt>
      <trkpt lat="42.93359" lon="-0.20195">
        <ele>1755.1123632199</ele>
        <time>2013-12-07T11:40:03Z</time>
      </trkpt>
      <trkpt lat="42.93355" lon="-0.20198">
        <ele>1755.1123632199</ele>
        <time>2013-12-07T11:40:07Z</time>
      </trkpt>
      <trkpt lat="42.93351" lon="-0.20201">
        <ele>1755.2024886417</ele>
        <time>2013-12-07T11:40:13Z</time>
      </trkpt>
      <trkpt lat="42.9335" lon="-0.20201">
        <ele>1755.2024886417</ele>
        <time>2013-12-07T11:40:17Z</time>
      </trkpt>
      <trkpt lat="42.93347" lon="-0.20203">
        <ele>1755.2024886417</ele>
        <time>2013-12-07T11:40:23Z</time>
      </trkpt>
      <trkpt lat="42.93345" lon="-0.20205">
        <ele>1755.2024886417</ele>
        <time>2013-12-07T11:40:28Z</time>
      </trkpt>
      <trkpt lat="42.93342" lon="-0.20207">
        <ele>1755.3860148493</ele>
        <time>2013-12-07T11:40:32Z</time>
      </trkpt>
      <trkpt lat="42.9334" lon="-0.2021">
        <ele>1755.3860148493</ele>
        <time>2013-12-07T11:40:38Z</time>
      </trkpt>
      <trkpt lat="42.93339" lon="-0.20211">
        <ele>1755.3860148493</ele>
        <time>2013-12-07T11:40:43Z</time>
      </trkpt>
      <trkpt lat="42.93337" lon="-0.20212">
        <ele>1755.3860148493</ele>
        <time>2013-12-07T11:40:47Z</time>
      </trkpt>
      <trkpt lat="42.93335" lon="-0.20216">
        <ele>1755.531977919</ele>
        <time>2013-12-07T11:40:53Z</time>
      </trkpt>
      <trkpt lat="42.93332" lon="-0.20218">
        <ele>1755.531977919</ele>
        <time>2013-12-07T11:40:57Z</time>
      </trkpt>
      <trkpt lat="42.9333" lon="-0.20223">
        <ele>1755.531977919</ele>
        <time>2013-12-07T11:41:03Z</time>
      </trkpt>
      <trkpt lat="42.93324" lon="-0.20226">
        <ele>1755.5045532381</ele>
        <time>2013-12-07T11:41:13Z</time>
      </trkpt>
      <trkpt lat="42.93321" lon="-0.2023">
        <ele>1755.5045532381</ele>
        <time>2013-12-07T11:41:17Z</time>
      </trkpt>
      <trkpt lat="42.93319" lon="-0.20231">
        <ele>1755.5045532381</ele>
        <time>2013-12-07T11:41:23Z</time>
      </trkpt>
      <trkpt lat="42.93316" lon="-0.20233">
        <ele>1755.4520120063</ele>
        <time>2013-12-07T11:41:27Z</time>
      </trkpt>
      <trkpt lat="42.93312" lon="-0.20235">
        <ele>1755.4520120063</ele>
        <time>2013-12-07T11:41:33Z</time>
      </trkpt>
      <trkpt lat="42.93311" lon="-0.20234">
        <ele>1755.4520120063</ele>
        <time>2013-12-07T11:41:37Z</time>
      </trkpt>
      <trkpt lat="42.93307" lon="-0.20233">
        <ele>1755.4683879125</ele>
        <time>2013-12-07T11:41:42Z</time>
      </trkpt>
      <trkpt lat="42.93303" lon="-0.20234">
        <ele>1755.4683879125</ele>
        <time>2013-12-07T11:41:48Z</time>
      </trkpt>
      <trkpt lat="42.93301" lon="-0.20235">
        <ele>1755.4683879125</ele>
        <time>2013-12-07T11:41:53Z</time>
      </trkpt>
      <trkpt lat="42.933" lon="-0.20236">
        <ele>1755.4683879125</ele>
        <time>2013-12-07T11:41:57Z</time>
      </trkpt>
      <trkpt lat="42.933" lon="-0.20236">
        <ele>1755.4683879125</ele>
        <time>2013-12-07T11:42:03Z</time>
      </trkpt>
      <trkpt lat="42.93301" lon="-0.20237">
        <ele>1755.5683726588</ele>
        <time>2013-12-07T11:42:07Z</time>
      </trkpt>
      <trkpt lat="42.93296" lon="-0.20245">
        <ele>1755.5683726588</ele>
        <time>2013-12-07T11:42:13Z</time>
      </trkpt>
      <trkpt lat="42.93293" lon="-0.20247">
        <ele>1755.7507458008</ele>
        <time>2013-12-07T11:42:18Z</time>
      </trkpt>
      <trkpt lat="42.93293" lon="-0.20246">
        <ele>1755.7507458008</ele>
        <time>2013-12-07T11:42:22Z</time>
      </trkpt>
      <trkpt lat="42.93291" lon="-0.20245">
        <ele>1755.7507458008</ele>
        <time>2013-12-07T11:42:28Z</time>
      </trkpt>
      <trkpt lat="42.93289" lon="-0.20245">
        <ele>1755.7507458008</ele>
        <time>2013-12-07T11:42:32Z</time>
      </trkpt>
      <trkpt lat="42.93286" lon="-0.20248">
        <ele>1755.7507458008</ele>
        <time>2013-12-07T11:42:38Z</time>
      </trkpt>
      <trkpt lat="42.93286" lon="-0.20248">
        <ele>1755.7507458008</ele>
        <time>2013-12-07T11:42:42Z</time>
      </trkpt>
      <trkpt lat="42.93286" lon="-0.20248">
        <ele>1756.2013024325</ele>
        <time>2013-12-07T11:42:48Z</time>
      </trkpt>
      <trkpt lat="42.93285" lon="-0.20246">
        <ele>1756.2013024325</ele>
        <time>2013-12-07T11:42:53Z</time>
      </trkpt>
      <trkpt lat="42.93287" lon="-0.20244">
        <ele>1756.2013024325</ele>
        <time>2013-12-07T11:43:03Z</time>
      </trkpt>
      <trkpt lat="42.93286" lon="-0.20244">
        <ele>1756.2013024325</ele>
        <time>2013-12-07T11:43:07Z</time>
      </trkpt>
      <trkpt lat="42.93287" lon="-0.20243">
        <ele>1756.2013024325</ele>
        <time>2013-12-07T11:43:13Z</time>
      </trkpt>
      <trkpt lat="42.93286" lon="-0.20244">
        <ele>1756.2013024325</ele>
        <time>2013-12-07T11:43:18Z</time>
      </trkpt>
      <trkpt lat="42.93288" lon="-0.20248">
        <ele>1757.2930072638</ele>
        <time>2013-12-07T11:43:22Z</time>
      </trkpt>
      <trkpt lat="42.93289" lon="-0.20252">
        <ele>1757.2930072638</ele>
        <time>2013-12-07T11:43:28Z</time>
      </trkpt>
      <trkpt lat="42.93291" lon="-0.20255">
        <ele>1757.2930072638</ele>
        <time>2013-12-07T11:43:32Z</time>
      </trkpt>
      <trkpt lat="42.93292" lon="-0.20255">
        <ele>1757.2930072638</ele>
        <time>2013-12-07T11:43:38Z</time>
      </trkpt>
      <trkpt lat="42.93293" lon="-0.20255">
        <ele>1757.2930072638</ele>
        <time>2013-12-07T11:43:42Z</time>
      </trkpt>
      <trkpt lat="42.93294" lon="-0.20256">
        <ele>1759.0379930987</ele>
        <time>2013-12-07T11:43:47Z</time>
      </trkpt>
      <trkpt lat="42.93296" lon="-0.20259">
        <ele>1759.0379930987</ele>
        <time>2013-12-07T11:43:53Z</time>
      </trkpt>
      <trkpt lat="42.93299" lon="-0.2026">
        <ele>1759.0379930987</ele>
        <time>2013-12-07T11:43:57Z</time>
      </trkpt>
      <trkpt lat="42.93298" lon="-0.20264">
        <ele>1759.0379930987</ele>
        <time>2013-12-07T11:44:13Z</time>
      </trkpt>
      <trkpt lat="42.93299" lon="-0.20269">
        <ele>1761.3734428361</ele>
        <time>2013-12-07T11:44:17Z</time>
      </trkpt>
      <trkpt lat="42.93299" lon="-0.20269">
        <ele>1761.3734428361</ele>
        <time>2013-12-07T11:44:23Z</time>
      </trkpt>
      <trkpt lat="42.93299" lon="-0.2027">
        <ele>1761.3734428361</ele>
        <time>2013-12-07T11:44:28Z</time>
      </trkpt>
      <trkpt lat="42.93298" lon="-0.2027">
        <ele>1761.3734428361</ele>
        <time>2013-12-07T11:44:32Z</time>
      </trkpt>
      <trkpt lat="42.93294" lon="-0.20272">
        <ele>1761.3734428361</ele>
        <time>2013-12-07T11:44:38Z</time>
      </trkpt>
      <trkpt lat="42.93292" lon="-0.2027">
        <ele>1761.3734428361</ele>
        <time>2013-12-07T11:44:42Z</time>
      </trkpt>
      <trkpt lat="42.93289" lon="-0.20272">
        <ele>1763.9367070085</ele>
        <time>2013-12-07T11:44:48Z</time>
      </trkpt>
      <trkpt lat="42.93287" lon="-0.20272">
        <ele>1763.9367070085</ele>
        <time>2013-12-07T11:44:53Z</time>
      </trkpt>
      <trkpt lat="42.93284" lon="-0.20274">
        <ele>1763.9367070085</ele>
        <time>2013-12-07T11:44:57Z</time>
      </trkpt>
      <trkpt lat="42.93281" lon="-0.20273">
        <ele>1763.9367070085</ele>
        <time>2013-12-07T11:45:03Z</time>
      </trkpt>
      <trkpt lat="42.93282" lon="-0.20272">
        <ele>1766.7224527043</ele>
        <time>2013-12-07T11:45:08Z</time>
      </trkpt>
      <trkpt lat="42.93281" lon="-0.2027">
        <ele>1766.7224527043</ele>
        <time>2013-12-07T11:45:18Z</time>
      </trkpt>
      <trkpt lat="42.93279" lon="-0.20273">
        <ele>1766.7224527043</ele>
        <time>2013-12-07T11:45:23Z</time>
      </trkpt>
      <trkpt lat="42.93274" lon="-0.20274">
        <ele>1766.7224527043</ele>
        <time>2013-12-07T11:45:27Z</time>
      </trkpt>
      <trkpt lat="42.93271" lon="-0.20276">
        <ele>1769.8258718547</ele>
        <time>2013-12-07T11:45:33Z</time>
      </trkpt>
      <trkpt lat="42.93268" lon="-0.20275">
        <ele>1769.8258718547</ele>
        <time>2013-12-07T11:45:39Z</time>
      </trkpt>
      <trkpt lat="42.93269" lon="-0.20275">
        <ele>1769.8258718547</ele>
        <time>2013-12-07T11:45:48Z</time>
      </trkpt>
      <trkpt lat="42.93269" lon="-0.20274">
        <ele>1769.8258718547</ele>
        <time>2013-12-07T11:45:52Z</time>
      </trkpt>
      <trkpt lat="42.93267" lon="-0.20275">
        <ele>1769.8258718547</ele>
        <time>2013-12-07T11:46:02Z</time>
      </trkpt>
      <trkpt lat="42.93267" lon="-0.20278">
        <ele>1769.8258718547</ele>
        <time>2013-12-07T11:46:07Z</time>
      </trkpt>
      <trkpt lat="42.93267" lon="-0.20279">
        <ele>1773.3341730628</ele>
        <time>2013-12-07T11:46:37Z</time>
      </trkpt>
      <trkpt lat="42.93261" lon="-0.20277">
        <ele>1773.3341730628</ele>
        <time>2013-12-07T11:46:47Z</time>
      </trkpt>
      <trkpt lat="42.93253" lon="-0.20279">
        <ele>1776.5055109913</ele>
        <time>2013-12-07T11:46:52Z</time>
      </trkpt>
      <trkpt lat="42.93247" lon="-0.20282">
        <ele>1776.5055109913</ele>
        <time>2013-12-07T11:46:58Z</time>
      </trkpt>
      <trkpt lat="42.93242" lon="-0.20284">
        <ele>1779.3451571102</ele>
        <time>2013-12-07T11:47:02Z</time>
      </trkpt>
      <trkpt lat="42.93245" lon="-0.20295">
        <ele>1781.8732984171</ele>
        <time>2013-12-07T11:47:07Z</time>
      </trkpt>
      <trkpt lat="42.93246" lon="-0.20298">
        <ele>1781.8732984171</ele>
        <time>2013-12-07T11:47:12Z</time>
      </trkpt>
      <trkpt lat="42.93244" lon="-0.20302">
        <ele>1781.8732984171</ele>
        <time>2013-12-07T11:47:17Z</time>
      </trkpt>
      <trkpt lat="42.93247" lon="-0.20305">
        <ele>1781.8732984171</ele>
        <time>2013-12-07T11:47:22Z</time>
      </trkpt>
      <trkpt lat="42.93251" lon="-0.20303">
        <ele>1784.2103677066</ele>
        <time>2013-12-07T11:47:27Z</time>
      </trkpt>
      <trkpt lat="42.93255" lon="-0.20302">
        <ele>1784.2103677066</ele>
        <time>2013-12-07T11:47:32Z</time>
      </trkpt>
      <trkpt lat="42.9326" lon="-0.20303">
        <ele>1784.2103677066</ele>
        <time>2013-12-07T11:47:37Z</time>
      </trkpt>
      <trkpt lat="42.93261" lon="-0.20306">
        <ele>1786.3531873639</ele>
        <time>2013-12-07T11:47:42Z</time>
      </trkpt>
      <trkpt lat="42.93269" lon="-0.20308">
        <ele>1786.3531873639</ele>
        <time>2013-12-07T11:47:47Z</time>
      </trkpt>
      <trkpt lat="42.93271" lon="-0.20308">
        <ele>1788.284945828</ele>
        <time>2013-12-07T11:47:52Z</time>
      </trkpt>
      <trkpt lat="42.93273" lon="-0.20308">
        <ele>1788.284945828</ele>
        <time>2013-12-07T11:47:57Z</time>
      </trkpt>
      <trkpt lat="42.93277" lon="-0.20308">
        <ele>1788.284945828</ele>
        <time>2013-12-07T11:48:02Z</time>
      </trkpt>
      <trkpt lat="42.93281" lon="-0.20308">
        <ele>1790.048308772</ele>
        <time>2013-12-07T11:48:07Z</time>
      </trkpt>
      <trkpt lat="42.93282" lon="-0.2031">
        <ele>1790.048308772</ele>
        <time>2013-12-07T11:48:12Z</time>
      </trkpt>
      <trkpt lat="42.93281" lon="-0.2031">
        <ele>1790.048308772</ele>
        <time>2013-12-07T11:48:17Z</time>
      </trkpt>
      <trkpt lat="42.93281" lon="-0.20311">
        <ele>1790.048308772</ele>
        <time>2013-12-07T11:48:22Z</time>
      </trkpt>
      <trkpt lat="42.93281" lon="-0.20311">
        <ele>1790.048308772</ele>
        <time>2013-12-07T11:48:32Z</time>
      </trkpt>
      <trkpt lat="42.93281" lon="-0.20312">
        <ele>1790.048308772</ele>
        <time>2013-12-07T11:48:37Z</time>
      </trkpt>
      <trkpt lat="42.9328" lon="-0.20311">
        <ele>1790.048308772</ele>
        <time>2013-12-07T11:48:47Z</time>
      </trkpt>
      <trkpt lat="42.93275" lon="-0.20317">
        <ele>1791.7409351712</ele>
        <time>2013-12-07T11:48:57Z</time>
      </trkpt>
      <trkpt lat="42.93272" lon="-0.20318">
        <ele>1791.7409351712</ele>
        <time>2013-12-07T11:49:02Z</time>
      </trkpt>
      <trkpt lat="42.9327" lon="-0.20321">
        <ele>1791.7409351712</ele>
        <time>2013-12-07T11:49:07Z</time>
      </trkpt>
      <trkpt lat="42.9327" lon="-0.20323">
        <ele>1791.7409351712</ele>
        <time>2013-12-07T11:49:12Z</time>
      </trkpt>
      <trkpt lat="42.93271" lon="-0.20323">
        <ele>1791.7409351712</ele>
        <time>2013-12-07T11:49:17Z</time>
      </trkpt>
      <trkpt lat="42.9327" lon="-0.20325">
        <ele>1793.6408673622</ele>
        <time>2013-12-07T11:49:38Z</time>
      </trkpt>
      <trkpt lat="42.93269" lon="-0.20327">
        <ele>1793.6408673622</ele>
        <time>2013-12-07T11:49:43Z</time>
      </trkpt>
      <trkpt lat="42.93266" lon="-0.20328">
        <ele>1793.6408673622</ele>
        <time>2013-12-07T11:49:48Z</time>
      </trkpt>
      <trkpt lat="42.93266" lon="-0.20328">
        <ele>1793.6408673622</ele>
        <time>2013-12-07T11:49:53Z</time>
      </trkpt>
      <trkpt lat="42.93269" lon="-0.20326">
        <ele>1793.6408673622</ele>
        <time>2013-12-07T11:50:22Z</time>
      </trkpt>
      <trkpt lat="42.93269" lon="-0.20327">
        <ele>1793.6408673622</ele>
        <time>2013-12-07T11:50:27Z</time>
      </trkpt>
      <trkpt lat="42.93274" lon="-0.20328">
        <ele>1796.0628039836</ele>
        <time>2013-12-07T11:50:32Z</time>
      </trkpt>
      <trkpt lat="42.93276" lon="-0.20328">
        <ele>1796.0628039836</ele>
        <time>2013-12-07T11:50:37Z</time>
      </trkpt>
      <trkpt lat="42.93273" lon="-0.20335">
        <ele>1796.0628039836</ele>
        <time>2013-12-07T11:50:57Z</time>
      </trkpt>
      <trkpt lat="42.93272" lon="-0.20337">
        <ele>1798.7204399252</ele>
        <time>2013-12-07T11:51:02Z</time>
      </trkpt>
      <trkpt lat="42.93271" lon="-0.20338">
        <ele>1798.7204399252</ele>
        <time>2013-12-07T11:51:08Z</time>
      </trkpt>
      <trkpt lat="42.93268" lon="-0.20341">
        <ele>1798.7204399252</ele>
        <time>2013-12-07T11:51:13Z</time>
      </trkpt>
      <trkpt lat="42.93265" lon="-0.20343">
        <ele>1798.7204399252</ele>
        <time>2013-12-07T11:51:18Z</time>
      </trkpt>
      <trkpt lat="42.93261" lon="-0.20345">
        <ele>1801.1893468743</ele>
        <time>2013-12-07T11:51:22Z</time>
      </trkpt>
      <trkpt lat="42.93259" lon="-0.20347">
        <ele>1801.1893468743</ele>
        <time>2013-12-07T11:51:27Z</time>
      </trkpt>
      <trkpt lat="42.9326" lon="-0.20348">
        <ele>1801.1893468743</ele>
        <time>2013-12-07T11:51:33Z</time>
      </trkpt>
      <trkpt lat="42.9326" lon="-0.20348">
        <ele>1801.1893468743</ele>
        <time>2013-12-07T11:51:37Z</time>
      </trkpt>
      <trkpt lat="42.93257" lon="-0.20349">
        <ele>1801.1893468743</ele>
        <time>2013-12-07T11:52:07Z</time>
      </trkpt>
      <trkpt lat="42.93254" lon="-0.20351">
        <ele>1804.1144405363</ele>
        <time>2013-12-07T11:52:12Z</time>
      </trkpt>
      <trkpt lat="42.93251" lon="-0.20353">
        <ele>1804.1144405363</ele>
        <time>2013-12-07T11:52:17Z</time>
      </trkpt>
      <trkpt lat="42.93249" lon="-0.20354">
        <ele>1804.1144405363</ele>
        <time>2013-12-07T11:52:22Z</time>
      </trkpt>
      <trkpt lat="42.93248" lon="-0.20353">
        <ele>1804.1144405363</ele>
        <time>2013-12-07T11:52:27Z</time>
      </trkpt>
      <trkpt lat="42.93249" lon="-0.20352">
        <ele>1804.1144405363</ele>
        <time>2013-12-07T11:52:32Z</time>
      </trkpt>
      <trkpt lat="42.93253" lon="-0.20353">
        <ele>1807.0400143299</ele>
        <time>2013-12-07T11:52:43Z</time>
      </trkpt>
      <trkpt lat="42.93254" lon="-0.20354">
        <ele>1807.0400143299</ele>
        <time>2013-12-07T11:52:47Z</time>
      </trkpt>
      <trkpt lat="42.93258" lon="-0.20357">
        <ele>1807.0400143299</ele>
        <time>2013-12-07T11:52:53Z</time>
      </trkpt>
      <trkpt lat="42.9326" lon="-0.20359">
        <ele>1807.0400143299</ele>
        <time>2013-12-07T11:52:58Z</time>
      </trkpt>
      <trkpt lat="42.93262" lon="-0.20362">
        <ele>1809.8465218995</ele>
        <time>2013-12-07T11:53:03Z</time>
      </trkpt>
      <trkpt lat="42.93263" lon="-0.20362">
        <ele>1809.8465218995</ele>
        <time>2013-12-07T11:53:07Z</time>
      </trkpt>
      <trkpt lat="42.93266" lon="-0.20371">
        <ele>1809.8465218995</ele>
        <time>2013-12-07T11:53:28Z</time>
      </trkpt>
      <trkpt lat="42.93266" lon="-0.20373">
        <ele>1812.5388814402</ele>
        <time>2013-12-07T11:53:32Z</time>
      </trkpt>
      <trkpt lat="42.93265" lon="-0.20377">
        <ele>1812.5388814402</ele>
        <time>2013-12-07T11:53:37Z</time>
      </trkpt>
      <trkpt lat="42.93264" lon="-0.20379">
        <ele>1812.5388814402</ele>
        <time>2013-12-07T11:53:43Z</time>
      </trkpt>
      <trkpt lat="42.93259" lon="-0.20381">
        <ele>1815.2805593166</ele>
        <time>2013-12-07T11:54:07Z</time>
      </trkpt>
      <trkpt lat="42.93256" lon="-0.20384">
        <ele>1815.2805593166</ele>
        <time>2013-12-07T11:54:12Z</time>
      </trkpt>
      <trkpt lat="42.93253" lon="-0.20386">
        <ele>1815.2805593166</ele>
        <time>2013-12-07T11:54:17Z</time>
      </trkpt>
      <trkpt lat="42.93253" lon="-0.20387">
        <ele>1815.2805593166</ele>
        <time>2013-12-07T11:54:23Z</time>
      </trkpt>
      <trkpt lat="42.93253" lon="-0.20388">
        <ele>1815.2805593166</ele>
        <time>2013-12-07T11:54:27Z</time>
      </trkpt>
      <trkpt lat="42.93248" lon="-0.2039">
        <ele>1818.107659572</ele>
        <time>2013-12-07T11:55:17Z</time>
      </trkpt>
      <trkpt lat="42.93248" lon="-0.20391">
        <ele>1818.107659572</ele>
        <time>2013-12-07T11:55:23Z</time>
      </trkpt>
      <trkpt lat="42.93258" lon="-0.2038">
        <ele>1820.8949504775</ele>
        <time>2013-12-07T11:55:57Z</time>
      </trkpt>
      <trkpt lat="42.93262" lon="-0.20377">
        <ele>1820.8949504775</ele>
        <time>2013-12-07T11:56:03Z</time>
      </trkpt>
      <trkpt lat="42.93267" lon="-0.20372">
        <ele>1823.4257161459</ele>
        <time>2013-12-07T11:56:08Z</time>
      </trkpt>
      <trkpt lat="42.93272" lon="-0.20368">
        <ele>1823.4257161459</ele>
        <time>2013-12-07T11:56:12Z</time>
      </trkpt>
      <trkpt lat="42.93276" lon="-0.20365">
        <ele>1825.6728990248</ele>
        <time>2013-12-07T11:56:18Z</time>
      </trkpt>
      <trkpt lat="42.93277" lon="-0.20364">
        <ele>1825.6728990248</ele>
        <time>2013-12-07T11:56:23Z</time>
      </trkpt>
      <trkpt lat="42.93279" lon="-0.20361">
        <ele>1825.6728990248</ele>
        <time>2013-12-07T11:56:27Z</time>
      </trkpt>
      <trkpt lat="42.9328" lon="-0.2036">
        <ele>1825.6728990248</ele>
        <time>2013-12-07T11:56:33Z</time>
      </trkpt>
      <trkpt lat="42.9328" lon="-0.2036">
        <ele>1825.6728990248</ele>
        <time>2013-12-07T11:56:38Z</time>
      </trkpt>
      <trkpt lat="42.93281" lon="-0.20362">
        <ele>1825.6728990248</ele>
        <time>2013-12-07T11:56:48Z</time>
      </trkpt>
      <trkpt lat="42.93282" lon="-0.20364">
        <ele>1827.8140672571</ele>
        <time>2013-12-07T11:56:53Z</time>
      </trkpt>
      <trkpt lat="42.9328" lon="-0.2036">
        <ele>1827.8140672571</ele>
        <time>2013-12-07T11:57:17Z</time>
      </trkpt>
      <trkpt lat="42.9328" lon="-0.20361">
        <ele>1827.8140672571</ele>
        <time>2013-12-07T11:57:22Z</time>
      </trkpt>
      <trkpt lat="42.93274" lon="-0.20365">
        <ele>1829.7403173947</ele>
        <time>2013-12-07T11:57:32Z</time>
      </trkpt>
      <trkpt lat="42.93277" lon="-0.20363">
        <ele>1829.7403173947</ele>
        <time>2013-12-07T11:57:37Z</time>
      </trkpt>
      <trkpt lat="42.93277" lon="-0.20362">
        <ele>1829.7403173947</ele>
        <time>2013-12-07T11:57:42Z</time>
      </trkpt>
      <trkpt lat="42.93284" lon="-0.20353">
        <ele>1831.8270000271</ele>
        <time>2013-12-07T12:00:32Z</time>
      </trkpt>
      <trkpt lat="42.93285" lon="-0.20349">
        <ele>1831.8270000271</ele>
        <time>2013-12-07T12:00:37Z</time>
      </trkpt>
      <trkpt lat="42.93287" lon="-0.20347">
        <ele>1831.8270000271</ele>
        <time>2013-12-07T12:00:42Z</time>
      </trkpt>
      <trkpt lat="42.9329" lon="-0.20347">
        <ele>1831.8270000271</ele>
        <time>2013-12-07T12:00:47Z</time>
      </trkpt>
      <trkpt lat="42.93291" lon="-0.20347">
        <ele>1833.6000898468</ele>
        <time>2013-12-07T12:00:52Z</time>
      </trkpt>
      <trkpt lat="42.93282" lon="-0.20348">
        <ele>1835.0969060065</ele>
        <time>2013-12-07T12:01:02Z</time>
      </trkpt>
      <trkpt lat="42.93275" lon="-0.20357">
        <ele>1836.3384605094</ele>
        <time>2013-12-07T12:01:17Z</time>
      </trkpt>
      <trkpt lat="42.9327" lon="-0.20357">
        <ele>1836.3384605094</ele>
        <time>2013-12-07T12:01:52Z</time>
      </trkpt>
      <trkpt lat="42.9327" lon="-0.20357">
        <ele>1836.3384605094</ele>
        <time>2013-12-07T12:01:57Z</time>
      </trkpt>
      <trkpt lat="42.93271" lon="-0.20359">
        <ele>1836.3384605094</ele>
        <time>2013-12-07T12:02:02Z</time>
      </trkpt>
      <trkpt lat="42.93271" lon="-0.20361">
        <ele>1836.3384605094</ele>
        <time>2013-12-07T12:02:07Z</time>
      </trkpt>
      <trkpt lat="42.93275" lon="-0.20362">
        <ele>1837.3594120566</ele>
        <time>2013-12-07T12:02:12Z</time>
      </trkpt>
      <trkpt lat="42.93278" lon="-0.20362">
        <ele>1837.3594120566</ele>
        <time>2013-12-07T12:02:27Z</time>
      </trkpt>
      <trkpt lat="42.93278" lon="-0.20365">
        <ele>1837.3594120566</ele>
        <time>2013-12-07T12:02:32Z</time>
      </trkpt>
      <trkpt lat="42.93277" lon="-0.20364">
        <ele>1837.3594120566</ele>
        <time>2013-12-07T12:02:37Z</time>
      </trkpt>
      <trkpt lat="42.93275" lon="-0.20361">
        <ele>1838.3366575318</ele>
        <time>2013-12-07T12:02:42Z</time>
      </trkpt>
      <trkpt lat="42.93279" lon="-0.20361">
        <ele>1838.3366575318</ele>
        <time>2013-12-07T12:04:22Z</time>
      </trkpt>
      <trkpt lat="42.9328" lon="-0.20362">
        <ele>1838.3366575318</ele>
        <time>2013-12-07T12:04:27Z</time>
      </trkpt>
      <trkpt lat="42.93282" lon="-0.20366">
        <ele>1838.3366575318</ele>
        <time>2013-12-07T12:04:32Z</time>
      </trkpt>
      <trkpt lat="42.93284" lon="-0.20366">
        <ele>1838.9298763601</ele>
        <time>2013-12-07T12:04:37Z</time>
      </trkpt>
      <trkpt lat="42.93281" lon="-0.20363">
        <ele>1838.9298763601</ele>
        <time>2013-12-07T12:04:42Z</time>
      </trkpt>
      <trkpt lat="42.9328" lon="-0.20362">
        <ele>1838.9298763601</ele>
        <time>2013-12-07T12:04:47Z</time>
      </trkpt>
      <trkpt lat="42.93282" lon="-0.20355">
        <ele>1839.3436575267</ele>
        <time>2013-12-07T12:04:52Z</time>
      </trkpt>
      <trkpt lat="42.93288" lon="-0.20349">
        <ele>1839.3436575267</ele>
        <time>2013-12-07T12:04:57Z</time>
      </trkpt>
      <trkpt lat="42.93296" lon="-0.20346">
        <ele>1839.58073979</ele>
        <time>2013-12-07T12:05:02Z</time>
      </trkpt>
      <trkpt lat="42.93305" lon="-0.20343">
        <ele>1839.58073979</ele>
        <time>2013-12-07T12:05:07Z</time>
      </trkpt>
      <trkpt lat="42.93311" lon="-0.20343">
        <ele>1839.6585742059</ele>
        <time>2013-12-07T12:05:12Z</time>
      </trkpt>
      <trkpt lat="42.93317" lon="-0.20341">
        <ele>1839.6585742059</ele>
        <time>2013-12-07T12:05:17Z</time>
      </trkpt>
      <trkpt lat="42.9332" lon="-0.20339">
        <ele>1839.5937693578</ele>
        <time>2013-12-07T12:05:22Z</time>
      </trkpt>
      <trkpt lat="42.93322" lon="-0.20335">
        <ele>1839.5937693578</ele>
        <time>2013-12-07T12:05:27Z</time>
      </trkpt>
      <trkpt lat="42.9332" lon="-0.20335">
        <ele>1839.5937693578</ele>
        <time>2013-12-07T12:05:32Z</time>
      </trkpt>
      <trkpt lat="42.9332" lon="-0.20335">
        <ele>1839.5937693578</ele>
        <time>2013-12-07T12:05:37Z</time>
      </trkpt>
      <trkpt lat="42.93329" lon="-0.20339">
        <ele>1839.3876813187</ele>
        <time>2013-12-07T12:05:42Z</time>
      </trkpt>
      <trkpt lat="42.93335" lon="-0.20341">
        <ele>1839.3876813187</ele>
        <time>2013-12-07T12:06:53Z</time>
      </trkpt>
      <trkpt lat="42.93336" lon="-0.20341">
        <ele>1839.3876813187</ele>
        <time>2013-12-07T12:06:57Z</time>
      </trkpt>
      <trkpt lat="42.93336" lon="-0.20341">
        <ele>1839.3876813187</ele>
        <time>2013-12-07T12:07:03Z</time>
      </trkpt>
      <trkpt lat="42.93334" lon="-0.20341">
        <ele>1839.3876813187</ele>
        <time>2013-12-07T12:07:07Z</time>
      </trkpt>
      <trkpt lat="42.93333" lon="-0.20342">
        <ele>1838.9986936281</ele>
        <time>2013-12-07T12:07:13Z</time>
      </trkpt>
      <trkpt lat="42.93332" lon="-0.20341">
        <ele>1838.9986936281</ele>
        <time>2013-12-07T12:07:17Z</time>
      </trkpt>
      <trkpt lat="42.9333" lon="-0.20356">
        <ele>1838.6625211791</ele>
        <time>2013-12-07T12:08:08Z</time>
      </trkpt>
      <trkpt lat="42.93332" lon="-0.20348">
        <ele>1838.6625211791</ele>
        <time>2013-12-07T12:08:22Z</time>
      </trkpt>
      <trkpt lat="42.93329" lon="-0.20352">
        <ele>1838.3091290802</ele>
        <time>2013-12-07T12:08:28Z</time>
      </trkpt>
      <trkpt lat="42.93329" lon="-0.20354">
        <ele>1838.3091290802</ele>
        <time>2013-12-07T12:08:33Z</time>
      </trkpt>
      <trkpt lat="42.93335" lon="-0.20347">
        <ele>1837.8735985409</ele>
        <time>2013-12-07T12:08:37Z</time>
      </trkpt>
      <trkpt lat="42.93336" lon="-0.20346">
        <ele>1837.8735985409</ele>
        <time>2013-12-07T12:08:43Z</time>
      </trkpt>
      <trkpt lat="42.9334" lon="-0.20337">
        <ele>1837.8735985409</ele>
        <time>2013-12-07T12:08:48Z</time>
      </trkpt>
      <trkpt lat="42.93334" lon="-0.20339">
        <ele>1837.2959207456</ele>
        <time>2013-12-07T12:08:52Z</time>
      </trkpt>
      <trkpt lat="42.93328" lon="-0.20348">
        <ele>1836.6937263461</ele>
        <time>2013-12-07T12:08:58Z</time>
      </trkpt>
      <trkpt lat="42.93329" lon="-0.20348">
        <ele>1836.6937263461</ele>
        <time>2013-12-07T12:09:03Z</time>
      </trkpt>
      <trkpt lat="42.9333" lon="-0.20348">
        <ele>1836.6937263461</ele>
        <time>2013-12-07T12:09:08Z</time>
      </trkpt>
      <trkpt lat="42.93333" lon="-0.20345">
        <ele>1836.6937263461</ele>
        <time>2013-12-07T12:09:13Z</time>
      </trkpt>
      <trkpt lat="42.93333" lon="-0.20345">
        <ele>1836.6937263461</ele>
        <time>2013-12-07T12:09:17Z</time>
      </trkpt>
      <trkpt lat="42.93343" lon="-0.20333">
        <ele>1835.9742060552</ele>
        <time>2013-12-07T12:09:39Z</time>
      </trkpt>
      <trkpt lat="42.9333" lon="-0.2035">
        <ele>1835.1668636999</ele>
        <time>2013-12-07T12:09:52Z</time>
      </trkpt>
      <trkpt lat="42.93327" lon="-0.20354">
        <ele>1835.1668636999</ele>
        <time>2013-12-07T12:09:57Z</time>
      </trkpt>
      <trkpt lat="42.93332" lon="-0.20353">
        <ele>1835.1668636999</ele>
        <time>2013-12-07T12:20:42Z</time>
      </trkpt>
    </trkseg>
  </trk>
</gpx>